<?xml version="1.0" encoding="UTF-8" standalone="no" ?>
<gpx xmlns="http://www.topografix.com/GPX/1/1" xmlns:xsi="http://www.w3.org/2001/XMLSchema-instance" xsi:schemaLocation="http://www.topografix.com/GPX/1/1 http://www.topografix.com/GPX/1/1/gpx.xsd" version="1.1" creator="VisuGPX - https://www.visugpx.com">
  <metadata>
    <name>Misérieux-Lyon</name>
    <desc><![CDATA[File with points/tracks from Locus Map/3.39.4]]></desc>
  </metadata>
  <trk>
    <name><![CDATA[2019-09-15 16:27:45]]></name>
    <trkseg>
      <trkpt lat="45.98149" lon="4.81181">
        <ele>247.39</ele>
        <time>2019-09-15T14:27:46.000Z</time>
      </trkpt>
      <trkpt lat="45.98151" lon="4.81194">
        <ele>248.33</ele>
        <time>2019-09-15T14:29:05.000Z</time>
      </trkpt>
      <trkpt lat="45.98161" lon="4.81193">
        <ele>247.4</ele>
        <time>2019-09-15T14:29:58.000Z</time>
      </trkpt>
      <trkpt lat="45.98169" lon="4.81184">
        <ele>245.14</ele>
        <time>2019-09-15T14:30:14.000Z</time>
      </trkpt>
      <trkpt lat="45.9818" lon="4.8117">
        <ele>245.39</ele>
        <time>2019-09-15T14:30:19.000Z</time>
      </trkpt>
      <trkpt lat="45.98199" lon="4.81156">
        <ele>245.4</ele>
        <time>2019-09-15T14:30:24.000Z</time>
      </trkpt>
      <trkpt lat="45.9822" lon="4.81143">
        <ele>244.64</ele>
        <time>2019-09-15T14:30:29.000Z</time>
      </trkpt>
      <trkpt lat="45.98235" lon="4.81154">
        <ele>244.44</ele>
        <time>2019-09-15T14:30:34.000Z</time>
      </trkpt>
      <trkpt lat="45.98247" lon="4.81184">
        <ele>243.41</ele>
        <time>2019-09-15T14:30:39.000Z</time>
      </trkpt>
      <trkpt lat="45.98261" lon="4.81221">
        <ele>242.39</ele>
        <time>2019-09-15T14:30:44.000Z</time>
      </trkpt>
      <trkpt lat="45.98273" lon="4.81238">
        <ele>242.39</ele>
        <time>2019-09-15T14:30:49.000Z</time>
      </trkpt>
      <trkpt lat="45.98292" lon="4.8123">
        <ele>241.22</ele>
        <time>2019-09-15T14:30:54.000Z</time>
      </trkpt>
      <trkpt lat="45.9831" lon="4.81222">
        <ele>241.15</ele>
        <time>2019-09-15T14:30:59.000Z</time>
      </trkpt>
      <trkpt lat="45.98328" lon="4.81211">
        <ele>236.67</ele>
        <time>2019-09-15T14:31:04.000Z</time>
      </trkpt>
      <trkpt lat="45.98348" lon="4.81202">
        <ele>235.4</ele>
        <time>2019-09-15T14:31:09.000Z</time>
      </trkpt>
      <trkpt lat="45.98368" lon="4.81193">
        <ele>232.4</ele>
        <time>2019-09-15T14:31:14.000Z</time>
      </trkpt>
      <trkpt lat="45.98383" lon="4.81168">
        <ele>233.33</ele>
        <time>2019-09-15T14:31:19.000Z</time>
      </trkpt>
      <trkpt lat="45.98399" lon="4.81145">
        <ele>229.76</ele>
        <time>2019-09-15T14:31:24.000Z</time>
      </trkpt>
      <trkpt lat="45.98423" lon="4.81126">
        <ele>228.63</ele>
        <time>2019-09-15T14:31:29.000Z</time>
      </trkpt>
      <trkpt lat="45.98447" lon="4.81107">
        <ele>227.41</ele>
        <time>2019-09-15T14:31:34.000Z</time>
      </trkpt>
      <trkpt lat="45.98472" lon="4.81091">
        <ele>227.14</ele>
        <time>2019-09-15T14:31:39.000Z</time>
      </trkpt>
      <trkpt lat="45.98494" lon="4.81081">
        <ele>226.45</ele>
        <time>2019-09-15T14:31:44.000Z</time>
      </trkpt>
      <trkpt lat="45.98501" lon="4.81104">
        <ele>223.67</ele>
        <time>2019-09-15T14:31:49.000Z</time>
      </trkpt>
      <trkpt lat="45.98507" lon="4.81123">
        <ele>226.31</ele>
        <time>2019-09-15T14:31:54.000Z</time>
      </trkpt>
      <trkpt lat="45.9852" lon="4.81139">
        <ele>225.43</ele>
        <time>2019-09-15T14:31:59.000Z</time>
      </trkpt>
      <trkpt lat="45.98535" lon="4.81142">
        <ele>229.32</ele>
        <time>2019-09-15T14:32:04.000Z</time>
      </trkpt>
      <trkpt lat="45.98552" lon="4.81136">
        <ele>231.1</ele>
        <time>2019-09-15T14:32:09.000Z</time>
      </trkpt>
      <trkpt lat="45.98565" lon="4.8113">
        <ele>232.33</ele>
        <time>2019-09-15T14:32:14.000Z</time>
      </trkpt>
      <trkpt lat="45.98573" lon="4.81119">
        <ele>230.62</ele>
        <time>2019-09-15T14:32:19.000Z</time>
      </trkpt>
      <trkpt lat="45.98583" lon="4.81109">
        <ele>232.63</ele>
        <time>2019-09-15T14:32:24.000Z</time>
      </trkpt>
      <trkpt lat="45.98583" lon="4.81095">
        <ele>230.38</ele>
        <time>2019-09-15T14:32:29.000Z</time>
      </trkpt>
      <trkpt lat="45.98577" lon="4.81071">
        <ele>232.13</ele>
        <time>2019-09-15T14:32:34.000Z</time>
      </trkpt>
      <trkpt lat="45.98569" lon="4.81041">
        <ele>234.33</ele>
        <time>2019-09-15T14:32:39.000Z</time>
      </trkpt>
      <trkpt lat="45.98556" lon="4.81021">
        <ele>235.58</ele>
        <time>2019-09-15T14:32:44.000Z</time>
      </trkpt>
      <trkpt lat="45.9854" lon="4.81004">
        <ele>232.6</ele>
        <time>2019-09-15T14:32:49.000Z</time>
      </trkpt>
      <trkpt lat="45.98532" lon="4.80983">
        <ele>230.24</ele>
        <time>2019-09-15T14:32:54.000Z</time>
      </trkpt>
      <trkpt lat="45.98519" lon="4.80946">
        <ele>232.14</ele>
        <time>2019-09-15T14:32:59.000Z</time>
      </trkpt>
      <trkpt lat="45.98511" lon="4.80916">
        <ele>235.12</ele>
        <time>2019-09-15T14:33:04.000Z</time>
      </trkpt>
      <trkpt lat="45.985" lon="4.80907">
        <ele>232.14</ele>
        <time>2019-09-15T14:33:09.000Z</time>
      </trkpt>
      <trkpt lat="45.98488" lon="4.80899">
        <ele>227.48</ele>
        <time>2019-09-15T14:33:14.000Z</time>
      </trkpt>
      <trkpt lat="45.98463" lon="4.80915">
        <ele>228.38</ele>
        <time>2019-09-15T14:33:19.000Z</time>
      </trkpt>
      <trkpt lat="45.98443" lon="4.80914">
        <ele>220.03</ele>
        <time>2019-09-15T14:33:24.000Z</time>
      </trkpt>
      <trkpt lat="45.98434" lon="4.80897">
        <ele>222.07</ele>
        <time>2019-09-15T14:33:29.000Z</time>
      </trkpt>
      <trkpt lat="45.98431" lon="4.80879">
        <ele>222.13</ele>
        <time>2019-09-15T14:33:34.000Z</time>
      </trkpt>
      <trkpt lat="45.98431" lon="4.80864">
        <ele>221.34</ele>
        <time>2019-09-15T14:33:40.000Z</time>
      </trkpt>
      <trkpt lat="45.98432" lon="4.80843">
        <ele>221.4</ele>
        <time>2019-09-15T14:33:45.000Z</time>
      </trkpt>
      <trkpt lat="45.98434" lon="4.80817">
        <ele>222.28</ele>
        <time>2019-09-15T14:33:50.000Z</time>
      </trkpt>
      <trkpt lat="45.98446" lon="4.80798">
        <ele>224.37</ele>
        <time>2019-09-15T14:33:55.000Z</time>
      </trkpt>
      <trkpt lat="45.9846" lon="4.80788">
        <ele>225.14</ele>
        <time>2019-09-15T14:34:00.000Z</time>
      </trkpt>
      <trkpt lat="45.98453" lon="4.80769">
        <ele>226.15</ele>
        <time>2019-09-15T14:34:05.000Z</time>
      </trkpt>
      <trkpt lat="45.98447" lon="4.80742">
        <ele>225.15</ele>
        <time>2019-09-15T14:34:10.000Z</time>
      </trkpt>
      <trkpt lat="45.9844" lon="4.80715">
        <ele>225.92</ele>
        <time>2019-09-15T14:34:15.000Z</time>
      </trkpt>
      <trkpt lat="45.98431" lon="4.80689">
        <ele>225.34</ele>
        <time>2019-09-15T14:34:20.000Z</time>
      </trkpt>
      <trkpt lat="45.98421" lon="4.80667">
        <ele>226.36</ele>
        <time>2019-09-15T14:34:25.000Z</time>
      </trkpt>
      <trkpt lat="45.98411" lon="4.80642">
        <ele>223.91</ele>
        <time>2019-09-15T14:34:30.000Z</time>
      </trkpt>
      <trkpt lat="45.98406" lon="4.80626">
        <ele>221.51</ele>
        <time>2019-09-15T14:34:35.000Z</time>
      </trkpt>
      <trkpt lat="45.98397" lon="4.80602">
        <ele>221.38</ele>
        <time>2019-09-15T14:34:40.000Z</time>
      </trkpt>
      <trkpt lat="45.98382" lon="4.80579">
        <ele>225.27</ele>
        <time>2019-09-15T14:34:45.000Z</time>
      </trkpt>
      <trkpt lat="45.98368" lon="4.80552">
        <ele>220.45</ele>
        <time>2019-09-15T14:34:50.000Z</time>
      </trkpt>
      <trkpt lat="45.98359" lon="4.80523">
        <ele>217.84</ele>
        <time>2019-09-15T14:34:55.000Z</time>
      </trkpt>
      <trkpt lat="45.98355" lon="4.80499">
        <ele>223.04</ele>
        <time>2019-09-15T14:35:00.000Z</time>
      </trkpt>
      <trkpt lat="45.98342" lon="4.80475">
        <ele>221.21</ele>
        <time>2019-09-15T14:35:05.000Z</time>
      </trkpt>
      <trkpt lat="45.98333" lon="4.80442">
        <ele>228.88</ele>
        <time>2019-09-15T14:35:10.000Z</time>
      </trkpt>
      <trkpt lat="45.98325" lon="4.80408">
        <ele>225.4</ele>
        <time>2019-09-15T14:35:15.000Z</time>
      </trkpt>
      <trkpt lat="45.98323" lon="4.80371">
        <ele>222.06</ele>
        <time>2019-09-15T14:35:20.000Z</time>
      </trkpt>
      <trkpt lat="45.98327" lon="4.80337">
        <ele>223.13</ele>
        <time>2019-09-15T14:35:25.000Z</time>
      </trkpt>
      <trkpt lat="45.98333" lon="4.80309">
        <ele>227</ele>
        <time>2019-09-15T14:35:30.000Z</time>
      </trkpt>
      <trkpt lat="45.98342" lon="4.8028">
        <ele>225.38</ele>
        <time>2019-09-15T14:35:35.000Z</time>
      </trkpt>
      <trkpt lat="45.98343" lon="4.80249">
        <ele>226.33</ele>
        <time>2019-09-15T14:35:40.000Z</time>
      </trkpt>
      <trkpt lat="45.98339" lon="4.80237">
        <ele>226.14</ele>
        <time>2019-09-15T14:35:45.000Z</time>
      </trkpt>
      <trkpt lat="45.98334" lon="4.80225">
        <ele>229.63</ele>
        <time>2019-09-15T14:35:57.000Z</time>
      </trkpt>
      <trkpt lat="45.98329" lon="4.80206">
        <ele>230.13</ele>
        <time>2019-09-15T14:36:02.000Z</time>
      </trkpt>
      <trkpt lat="45.98325" lon="4.80181">
        <ele>229.51</ele>
        <time>2019-09-15T14:36:07.000Z</time>
      </trkpt>
      <trkpt lat="45.98314" lon="4.80149">
        <ele>229.38</ele>
        <time>2019-09-15T14:36:12.000Z</time>
      </trkpt>
      <trkpt lat="45.983" lon="4.80113">
        <ele>229.05</ele>
        <time>2019-09-15T14:36:17.000Z</time>
      </trkpt>
      <trkpt lat="45.98287" lon="4.80075">
        <ele>227.38</ele>
        <time>2019-09-15T14:36:22.000Z</time>
      </trkpt>
      <trkpt lat="45.98276" lon="4.80038">
        <ele>226.58</ele>
        <time>2019-09-15T14:36:27.000Z</time>
      </trkpt>
      <trkpt lat="45.98262" lon="4.80004">
        <ele>223.62</ele>
        <time>2019-09-15T14:36:32.000Z</time>
      </trkpt>
      <trkpt lat="45.98249" lon="4.79969">
        <ele>223.39</ele>
        <time>2019-09-15T14:36:37.000Z</time>
      </trkpt>
      <trkpt lat="45.98241" lon="4.79941">
        <ele>222.37</ele>
        <time>2019-09-15T14:36:42.000Z</time>
      </trkpt>
      <trkpt lat="45.98228" lon="4.79921">
        <ele>225.85</ele>
        <time>2019-09-15T14:36:47.000Z</time>
      </trkpt>
      <trkpt lat="45.98218" lon="4.7989">
        <ele>224.43</ele>
        <time>2019-09-15T14:36:52.000Z</time>
      </trkpt>
      <trkpt lat="45.98206" lon="4.79855">
        <ele>227.29</ele>
        <time>2019-09-15T14:36:57.000Z</time>
      </trkpt>
      <trkpt lat="45.98195" lon="4.79825">
        <ele>227.6</ele>
        <time>2019-09-15T14:37:02.000Z</time>
      </trkpt>
      <trkpt lat="45.98187" lon="4.79796">
        <ele>229.12</ele>
        <time>2019-09-15T14:37:07.000Z</time>
      </trkpt>
      <trkpt lat="45.98186" lon="4.7977">
        <ele>228.35</ele>
        <time>2019-09-15T14:37:12.000Z</time>
      </trkpt>
      <trkpt lat="45.98187" lon="4.79741">
        <ele>229.3</ele>
        <time>2019-09-15T14:37:17.000Z</time>
      </trkpt>
      <trkpt lat="45.98163" lon="4.79718">
        <ele>227.43</ele>
        <time>2019-09-15T14:37:22.000Z</time>
      </trkpt>
      <trkpt lat="45.98145" lon="4.79682">
        <ele>224.38</ele>
        <time>2019-09-15T14:37:27.000Z</time>
      </trkpt>
      <trkpt lat="45.98136" lon="4.79638">
        <ele>224.38</ele>
        <time>2019-09-15T14:37:32.000Z</time>
      </trkpt>
      <trkpt lat="45.98129" lon="4.79602">
        <ele>224.36</ele>
        <time>2019-09-15T14:37:37.000Z</time>
      </trkpt>
      <trkpt lat="45.98119" lon="4.79571">
        <ele>226.1</ele>
        <time>2019-09-15T14:37:42.000Z</time>
      </trkpt>
      <trkpt lat="45.98108" lon="4.79544">
        <ele>226.36</ele>
        <time>2019-09-15T14:37:47.000Z</time>
      </trkpt>
      <trkpt lat="45.98098" lon="4.79519">
        <ele>227.35</ele>
        <time>2019-09-15T14:37:52.000Z</time>
      </trkpt>
      <trkpt lat="45.98085" lon="4.79492">
        <ele>228.37</ele>
        <time>2019-09-15T14:37:57.000Z</time>
      </trkpt>
      <trkpt lat="45.98075" lon="4.79468">
        <ele>228.61</ele>
        <time>2019-09-15T14:38:02.000Z</time>
      </trkpt>
      <trkpt lat="45.98067" lon="4.79443">
        <ele>231.11</ele>
        <time>2019-09-15T14:38:07.000Z</time>
      </trkpt>
      <trkpt lat="45.98061" lon="4.7942">
        <ele>231.39</ele>
        <time>2019-09-15T14:38:12.000Z</time>
      </trkpt>
      <trkpt lat="45.9806" lon="4.79399">
        <ele>231.13</ele>
        <time>2019-09-15T14:38:17.000Z</time>
      </trkpt>
      <trkpt lat="45.98067" lon="4.79385">
        <ele>232.36</ele>
        <time>2019-09-15T14:38:22.000Z</time>
      </trkpt>
      <trkpt lat="45.98076" lon="4.79369">
        <ele>236.09</ele>
        <time>2019-09-15T14:38:27.000Z</time>
      </trkpt>
      <trkpt lat="45.98077" lon="4.79348">
        <ele>237.59</ele>
        <time>2019-09-15T14:38:32.000Z</time>
      </trkpt>
      <trkpt lat="45.98069" lon="4.79325">
        <ele>239.3</ele>
        <time>2019-09-15T14:38:37.000Z</time>
      </trkpt>
      <trkpt lat="45.98059" lon="4.79295">
        <ele>237.08</ele>
        <time>2019-09-15T14:38:42.000Z</time>
      </trkpt>
      <trkpt lat="45.9805" lon="4.79267">
        <ele>238.49</ele>
        <time>2019-09-15T14:38:47.000Z</time>
      </trkpt>
      <trkpt lat="45.98051" lon="4.79241">
        <ele>237.37</ele>
        <time>2019-09-15T14:38:52.000Z</time>
      </trkpt>
      <trkpt lat="45.98071" lon="4.79226">
        <ele>236.36</ele>
        <time>2019-09-15T14:38:57.000Z</time>
      </trkpt>
      <trkpt lat="45.98089" lon="4.79213">
        <ele>235.61</ele>
        <time>2019-09-15T14:39:02.000Z</time>
      </trkpt>
      <trkpt lat="45.98105" lon="4.79203">
        <ele>237.05</ele>
        <time>2019-09-15T14:39:07.000Z</time>
      </trkpt>
      <trkpt lat="45.9813" lon="4.79184">
        <ele>241.27</ele>
        <time>2019-09-15T14:39:12.000Z</time>
      </trkpt>
      <trkpt lat="45.98149" lon="4.7917">
        <ele>242.05</ele>
        <time>2019-09-15T14:39:17.000Z</time>
      </trkpt>
      <trkpt lat="45.98173" lon="4.79151">
        <ele>240.37</ele>
        <time>2019-09-15T14:39:22.000Z</time>
      </trkpt>
      <trkpt lat="45.98197" lon="4.7913">
        <ele>241.59</ele>
        <time>2019-09-15T14:39:27.000Z</time>
      </trkpt>
      <trkpt lat="45.9822" lon="4.79114">
        <ele>238.61</ele>
        <time>2019-09-15T14:39:32.000Z</time>
      </trkpt>
      <trkpt lat="45.98246" lon="4.79095">
        <ele>240.06</ele>
        <time>2019-09-15T14:39:37.000Z</time>
      </trkpt>
      <trkpt lat="45.98272" lon="4.79075">
        <ele>239.23</ele>
        <time>2019-09-15T14:39:42.000Z</time>
      </trkpt>
      <trkpt lat="45.98298" lon="4.79056">
        <ele>240.17</ele>
        <time>2019-09-15T14:39:47.000Z</time>
      </trkpt>
      <trkpt lat="45.98323" lon="4.79039">
        <ele>239.36</ele>
        <time>2019-09-15T14:39:52.000Z</time>
      </trkpt>
      <trkpt lat="45.98339" lon="4.79027">
        <ele>240.28</ele>
        <time>2019-09-15T14:39:57.000Z</time>
      </trkpt>
      <trkpt lat="45.98335" lon="4.79007">
        <ele>240.17</ele>
        <time>2019-09-15T14:40:02.000Z</time>
      </trkpt>
      <trkpt lat="45.98326" lon="4.78977">
        <ele>241.34</ele>
        <time>2019-09-15T14:40:07.000Z</time>
      </trkpt>
      <trkpt lat="45.98308" lon="4.7895">
        <ele>241.31</ele>
        <time>2019-09-15T14:40:12.000Z</time>
      </trkpt>
      <trkpt lat="45.98286" lon="4.78919">
        <ele>241.48</ele>
        <time>2019-09-15T14:40:17.000Z</time>
      </trkpt>
      <trkpt lat="45.98266" lon="4.78885">
        <ele>243.48</ele>
        <time>2019-09-15T14:40:22.000Z</time>
      </trkpt>
      <trkpt lat="45.98241" lon="4.78854">
        <ele>243.35</ele>
        <time>2019-09-15T14:40:27.000Z</time>
      </trkpt>
      <trkpt lat="45.98223" lon="4.78823">
        <ele>241.37</ele>
        <time>2019-09-15T14:40:32.000Z</time>
      </trkpt>
      <trkpt lat="45.98205" lon="4.7879">
        <ele>241.34</ele>
        <time>2019-09-15T14:40:37.000Z</time>
      </trkpt>
      <trkpt lat="45.98189" lon="4.78758">
        <ele>239.48</ele>
        <time>2019-09-15T14:40:42.000Z</time>
      </trkpt>
      <trkpt lat="45.98174" lon="4.78725">
        <ele>240.45</ele>
        <time>2019-09-15T14:40:47.000Z</time>
      </trkpt>
      <trkpt lat="45.98159" lon="4.78695">
        <ele>236.07</ele>
        <time>2019-09-15T14:40:52.000Z</time>
      </trkpt>
      <trkpt lat="45.98144" lon="4.78663">
        <ele>238.32</ele>
        <time>2019-09-15T14:40:57.000Z</time>
      </trkpt>
      <trkpt lat="45.98125" lon="4.78633">
        <ele>238.12</ele>
        <time>2019-09-15T14:41:02.000Z</time>
      </trkpt>
      <trkpt lat="45.98106" lon="4.78605">
        <ele>237.41</ele>
        <time>2019-09-15T14:41:07.000Z</time>
      </trkpt>
      <trkpt lat="45.98083" lon="4.78584">
        <ele>236.22</ele>
        <time>2019-09-15T14:41:12.000Z</time>
      </trkpt>
      <trkpt lat="45.98057" lon="4.78564">
        <ele>239.28</ele>
        <time>2019-09-15T14:41:17.000Z</time>
      </trkpt>
      <trkpt lat="45.98032" lon="4.78547">
        <ele>241.27</ele>
        <time>2019-09-15T14:41:22.000Z</time>
      </trkpt>
      <trkpt lat="45.98007" lon="4.78532">
        <ele>242.35</ele>
        <time>2019-09-15T14:41:27.000Z</time>
      </trkpt>
      <trkpt lat="45.97986" lon="4.78519">
        <ele>243.28</ele>
        <time>2019-09-15T14:41:32.000Z</time>
      </trkpt>
      <trkpt lat="45.97967" lon="4.78504">
        <ele>244.11</ele>
        <time>2019-09-15T14:41:37.000Z</time>
      </trkpt>
      <trkpt lat="45.97947" lon="4.78489">
        <ele>246.14</ele>
        <time>2019-09-15T14:41:42.000Z</time>
      </trkpt>
      <trkpt lat="45.97926" lon="4.78473">
        <ele>246.28</ele>
        <time>2019-09-15T14:41:47.000Z</time>
      </trkpt>
      <trkpt lat="45.97903" lon="4.78455">
        <ele>246.53</ele>
        <time>2019-09-15T14:41:52.000Z</time>
      </trkpt>
      <trkpt lat="45.97882" lon="4.78435">
        <ele>247.15</ele>
        <time>2019-09-15T14:41:57.000Z</time>
      </trkpt>
      <trkpt lat="45.9786" lon="4.78412">
        <ele>244.55</ele>
        <time>2019-09-15T14:42:02.000Z</time>
      </trkpt>
      <trkpt lat="45.9784" lon="4.78385">
        <ele>244.54</ele>
        <time>2019-09-15T14:42:07.000Z</time>
      </trkpt>
      <trkpt lat="45.97818" lon="4.78355">
        <ele>246.09</ele>
        <time>2019-09-15T14:42:12.000Z</time>
      </trkpt>
      <trkpt lat="45.97795" lon="4.78333">
        <ele>245.33</ele>
        <time>2019-09-15T14:42:17.000Z</time>
      </trkpt>
      <trkpt lat="45.97773" lon="4.78318">
        <ele>245.52</ele>
        <time>2019-09-15T14:42:22.000Z</time>
      </trkpt>
      <trkpt lat="45.97749" lon="4.78299">
        <ele>244.09</ele>
        <time>2019-09-15T14:42:27.000Z</time>
      </trkpt>
      <trkpt lat="45.9773" lon="4.78276">
        <ele>246.28</ele>
        <time>2019-09-15T14:42:32.000Z</time>
      </trkpt>
      <trkpt lat="45.97715" lon="4.78253">
        <ele>245.35</ele>
        <time>2019-09-15T14:42:37.000Z</time>
      </trkpt>
      <trkpt lat="45.97703" lon="4.78231">
        <ele>247.27</ele>
        <time>2019-09-15T14:42:42.000Z</time>
      </trkpt>
      <trkpt lat="45.97691" lon="4.78208">
        <ele>247.33</ele>
        <time>2019-09-15T14:42:47.000Z</time>
      </trkpt>
      <trkpt lat="45.9768" lon="4.78184">
        <ele>246.59</ele>
        <time>2019-09-15T14:42:52.000Z</time>
      </trkpt>
      <trkpt lat="45.9767" lon="4.78159">
        <ele>246.35</ele>
        <time>2019-09-15T14:42:57.000Z</time>
      </trkpt>
      <trkpt lat="45.97662" lon="4.7813">
        <ele>249.07</ele>
        <time>2019-09-15T14:43:02.000Z</time>
      </trkpt>
      <trkpt lat="45.97654" lon="4.78099">
        <ele>249.34</ele>
        <time>2019-09-15T14:43:07.000Z</time>
      </trkpt>
      <trkpt lat="45.97647" lon="4.78078">
        <ele>249.33</ele>
        <time>2019-09-15T14:43:12.000Z</time>
      </trkpt>
      <trkpt lat="45.9764" lon="4.78065">
        <ele>249.52</ele>
        <time>2019-09-15T14:43:17.000Z</time>
      </trkpt>
      <trkpt lat="45.97636" lon="4.78045">
        <ele>247.6</ele>
        <time>2019-09-15T14:43:22.000Z</time>
      </trkpt>
      <trkpt lat="45.97628" lon="4.7802">
        <ele>247.27</ele>
        <time>2019-09-15T14:43:27.000Z</time>
      </trkpt>
      <trkpt lat="45.97619" lon="4.7799">
        <ele>245.4</ele>
        <time>2019-09-15T14:43:32.000Z</time>
      </trkpt>
      <trkpt lat="45.9761" lon="4.77962">
        <ele>243.59</ele>
        <time>2019-09-15T14:43:37.000Z</time>
      </trkpt>
      <trkpt lat="45.976" lon="4.77932">
        <ele>243.33</ele>
        <time>2019-09-15T14:43:42.000Z</time>
      </trkpt>
      <trkpt lat="45.97585" lon="4.77906">
        <ele>243.35</ele>
        <time>2019-09-15T14:43:47.000Z</time>
      </trkpt>
      <trkpt lat="45.97563" lon="4.77883">
        <ele>244.14</ele>
        <time>2019-09-15T14:43:52.000Z</time>
      </trkpt>
      <trkpt lat="45.97542" lon="4.77865">
        <ele>244.27</ele>
        <time>2019-09-15T14:43:57.000Z</time>
      </trkpt>
      <trkpt lat="45.97527" lon="4.77851">
        <ele>244.33</ele>
        <time>2019-09-15T14:44:02.000Z</time>
      </trkpt>
      <trkpt lat="45.97515" lon="4.77841">
        <ele>246.32</ele>
        <time>2019-09-15T14:44:07.000Z</time>
      </trkpt>
      <trkpt lat="45.97501" lon="4.77826">
        <ele>247.5</ele>
        <time>2019-09-15T14:44:12.000Z</time>
      </trkpt>
      <trkpt lat="45.97486" lon="4.7781">
        <ele>246.39</ele>
        <time>2019-09-15T14:44:17.000Z</time>
      </trkpt>
      <trkpt lat="45.97471" lon="4.77797">
        <ele>247.13</ele>
        <time>2019-09-15T14:44:22.000Z</time>
      </trkpt>
      <trkpt lat="45.97456" lon="4.77782">
        <ele>247.33</ele>
        <time>2019-09-15T14:44:27.000Z</time>
      </trkpt>
      <trkpt lat="45.9744" lon="4.77766">
        <ele>248.26</ele>
        <time>2019-09-15T14:44:32.000Z</time>
      </trkpt>
      <trkpt lat="45.97424" lon="4.77749">
        <ele>248.32</ele>
        <time>2019-09-15T14:44:37.000Z</time>
      </trkpt>
      <trkpt lat="45.97408" lon="4.7773">
        <ele>249.31</ele>
        <time>2019-09-15T14:44:42.000Z</time>
      </trkpt>
      <trkpt lat="45.97391" lon="4.77714">
        <ele>248.34</ele>
        <time>2019-09-15T14:44:47.000Z</time>
      </trkpt>
      <trkpt lat="45.97373" lon="4.77696">
        <ele>247.34</ele>
        <time>2019-09-15T14:44:52.000Z</time>
      </trkpt>
      <trkpt lat="45.97354" lon="4.77677">
        <ele>247.32</ele>
        <time>2019-09-15T14:44:57.000Z</time>
      </trkpt>
      <trkpt lat="45.97333" lon="4.77659">
        <ele>246.39</ele>
        <time>2019-09-15T14:45:02.000Z</time>
      </trkpt>
      <trkpt lat="45.97324" lon="4.77645">
        <ele>246.32</ele>
        <time>2019-09-15T14:45:07.000Z</time>
      </trkpt>
      <trkpt lat="45.97318" lon="4.77636">
        <ele>248.32</ele>
        <time>2019-09-15T14:46:30.000Z</time>
      </trkpt>
      <trkpt lat="45.97309" lon="4.77625">
        <ele>247.59</ele>
        <time>2019-09-15T14:46:35.000Z</time>
      </trkpt>
      <trkpt lat="45.97297" lon="4.77613">
        <ele>246.32</ele>
        <time>2019-09-15T14:46:40.000Z</time>
      </trkpt>
      <trkpt lat="45.97281" lon="4.77596">
        <ele>245.57</ele>
        <time>2019-09-15T14:46:45.000Z</time>
      </trkpt>
      <trkpt lat="45.97267" lon="4.77581">
        <ele>246.32</ele>
        <time>2019-09-15T14:46:50.000Z</time>
      </trkpt>
      <trkpt lat="45.97257" lon="4.77568">
        <ele>246.32</ele>
        <time>2019-09-15T14:46:55.000Z</time>
      </trkpt>
      <trkpt lat="45.97241" lon="4.7755">
        <ele>245.38</ele>
        <time>2019-09-15T14:47:00.000Z</time>
      </trkpt>
      <trkpt lat="45.97226" lon="4.77534">
        <ele>245.38</ele>
        <time>2019-09-15T14:47:05.000Z</time>
      </trkpt>
      <trkpt lat="45.97211" lon="4.77519">
        <ele>245.07</ele>
        <time>2019-09-15T14:47:10.000Z</time>
      </trkpt>
      <trkpt lat="45.97192" lon="4.77502">
        <ele>245.32</ele>
        <time>2019-09-15T14:47:15.000Z</time>
      </trkpt>
      <trkpt lat="45.97178" lon="4.77488">
        <ele>246.31</ele>
        <time>2019-09-15T14:47:20.000Z</time>
      </trkpt>
      <trkpt lat="45.97167" lon="4.77474">
        <ele>247.07</ele>
        <time>2019-09-15T14:47:25.000Z</time>
      </trkpt>
      <trkpt lat="45.97154" lon="4.77464">
        <ele>245.57</ele>
        <time>2019-09-15T14:47:30.000Z</time>
      </trkpt>
      <trkpt lat="45.97139" lon="4.77451">
        <ele>247.07</ele>
        <time>2019-09-15T14:47:35.000Z</time>
      </trkpt>
      <trkpt lat="45.97122" lon="4.77435">
        <ele>247.26</ele>
        <time>2019-09-15T14:47:40.000Z</time>
      </trkpt>
      <trkpt lat="45.97107" lon="4.77417">
        <ele>248.25</ele>
        <time>2019-09-15T14:47:45.000Z</time>
      </trkpt>
      <trkpt lat="45.97091" lon="4.77395">
        <ele>247.57</ele>
        <time>2019-09-15T14:47:50.000Z</time>
      </trkpt>
      <trkpt lat="45.97077" lon="4.77374">
        <ele>248.31</ele>
        <time>2019-09-15T14:47:55.000Z</time>
      </trkpt>
      <trkpt lat="45.97066" lon="4.77353">
        <ele>247.32</ele>
        <time>2019-09-15T14:48:00.000Z</time>
      </trkpt>
      <trkpt lat="45.97057" lon="4.77331">
        <ele>248.07</ele>
        <time>2019-09-15T14:48:05.000Z</time>
      </trkpt>
      <trkpt lat="45.97051" lon="4.77306">
        <ele>249.25</ele>
        <time>2019-09-15T14:48:10.000Z</time>
      </trkpt>
      <trkpt lat="45.97048" lon="4.77278">
        <ele>249.31</ele>
        <time>2019-09-15T14:48:15.000Z</time>
      </trkpt>
      <trkpt lat="45.97042" lon="4.77249">
        <ele>249.31</ele>
        <time>2019-09-15T14:48:20.000Z</time>
      </trkpt>
      <trkpt lat="45.97038" lon="4.77217">
        <ele>248.56</ele>
        <time>2019-09-15T14:48:25.000Z</time>
      </trkpt>
      <trkpt lat="45.97034" lon="4.77182">
        <ele>247.31</ele>
        <time>2019-09-15T14:48:30.000Z</time>
      </trkpt>
      <trkpt lat="45.97031" lon="4.77146">
        <ele>248.11</ele>
        <time>2019-09-15T14:48:35.000Z</time>
      </trkpt>
      <trkpt lat="45.97029" lon="4.77111">
        <ele>247.56</ele>
        <time>2019-09-15T14:48:40.000Z</time>
      </trkpt>
      <trkpt lat="45.97028" lon="4.77078">
        <ele>248.11</ele>
        <time>2019-09-15T14:48:45.000Z</time>
      </trkpt>
      <trkpt lat="45.97025" lon="4.77048">
        <ele>246.33</ele>
        <time>2019-09-15T14:48:50.000Z</time>
      </trkpt>
      <trkpt lat="45.97023" lon="4.77025">
        <ele>245.61</ele>
        <time>2019-09-15T14:48:55.000Z</time>
      </trkpt>
      <trkpt lat="45.97021" lon="4.77">
        <ele>245.31</ele>
        <time>2019-09-15T14:49:00.000Z</time>
      </trkpt>
      <trkpt lat="45.9702" lon="4.76972">
        <ele>245.31</ele>
        <time>2019-09-15T14:49:05.000Z</time>
      </trkpt>
      <trkpt lat="45.97019" lon="4.76937">
        <ele>244.32</ele>
        <time>2019-09-15T14:49:10.000Z</time>
      </trkpt>
      <trkpt lat="45.97017" lon="4.76902">
        <ele>245.06</ele>
        <time>2019-09-15T14:49:15.000Z</time>
      </trkpt>
      <trkpt lat="45.97014" lon="4.76871">
        <ele>244.07</ele>
        <time>2019-09-15T14:49:20.000Z</time>
      </trkpt>
      <trkpt lat="45.97009" lon="4.76848">
        <ele>244.31</ele>
        <time>2019-09-15T14:49:25.000Z</time>
      </trkpt>
      <trkpt lat="45.97006" lon="4.76836">
        <ele>244.3</ele>
        <time>2019-09-15T14:49:31.000Z</time>
      </trkpt>
      <trkpt lat="45.96998" lon="4.76808">
        <ele>244.31</ele>
        <time>2019-09-15T14:49:36.000Z</time>
      </trkpt>
      <trkpt lat="45.96987" lon="4.76774">
        <ele>244.31</ele>
        <time>2019-09-15T14:49:41.000Z</time>
      </trkpt>
      <trkpt lat="45.96977" lon="4.76731">
        <ele>245.05</ele>
        <time>2019-09-15T14:49:46.000Z</time>
      </trkpt>
      <trkpt lat="45.96966" lon="4.7668">
        <ele>244.32</ele>
        <time>2019-09-15T14:49:51.000Z</time>
      </trkpt>
      <trkpt lat="45.96954" lon="4.76625">
        <ele>243.54</ele>
        <time>2019-09-15T14:49:56.000Z</time>
      </trkpt>
      <trkpt lat="45.96945" lon="4.76572">
        <ele>243.34</ele>
        <time>2019-09-15T14:50:01.000Z</time>
      </trkpt>
      <trkpt lat="45.96935" lon="4.76521">
        <ele>243.3</ele>
        <time>2019-09-15T14:50:06.000Z</time>
      </trkpt>
      <trkpt lat="45.96921" lon="4.76472">
        <ele>244.06</ele>
        <time>2019-09-15T14:50:11.000Z</time>
      </trkpt>
      <trkpt lat="45.96911" lon="4.76425">
        <ele>240.58</ele>
        <time>2019-09-15T14:50:16.000Z</time>
      </trkpt>
      <trkpt lat="45.96904" lon="4.76391">
        <ele>241.3</ele>
        <time>2019-09-15T14:50:21.000Z</time>
      </trkpt>
      <trkpt lat="45.96899" lon="4.76365">
        <ele>243.29</ele>
        <time>2019-09-15T14:50:26.000Z</time>
      </trkpt>
      <trkpt lat="45.96892" lon="4.76333">
        <ele>243.34</ele>
        <time>2019-09-15T14:50:31.000Z</time>
      </trkpt>
      <trkpt lat="45.96884" lon="4.76296">
        <ele>242.31</ele>
        <time>2019-09-15T14:50:36.000Z</time>
      </trkpt>
      <trkpt lat="45.96883" lon="4.7625">
        <ele>240.31</ele>
        <time>2019-09-15T14:50:41.000Z</time>
      </trkpt>
      <trkpt lat="45.96889" lon="4.7619">
        <ele>240.05</ele>
        <time>2019-09-15T14:50:46.000Z</time>
      </trkpt>
      <trkpt lat="45.96899" lon="4.76128">
        <ele>235.63</ele>
        <time>2019-09-15T14:50:51.000Z</time>
      </trkpt>
      <trkpt lat="45.96905" lon="4.76067">
        <ele>236.47</ele>
        <time>2019-09-15T14:50:56.000Z</time>
      </trkpt>
      <trkpt lat="45.9691" lon="4.76017">
        <ele>234.37</ele>
        <time>2019-09-15T14:51:01.000Z</time>
      </trkpt>
      <trkpt lat="45.96913" lon="4.75983">
        <ele>234.29</ele>
        <time>2019-09-15T14:51:06.000Z</time>
      </trkpt>
      <trkpt lat="45.96902" lon="4.75969">
        <ele>230.86</ele>
        <time>2019-09-15T14:51:11.000Z</time>
      </trkpt>
      <trkpt lat="45.96878" lon="4.75953">
        <ele>230.29</ele>
        <time>2019-09-15T14:51:16.000Z</time>
      </trkpt>
      <trkpt lat="45.96847" lon="4.7594">
        <ele>224.69</ele>
        <time>2019-09-15T14:51:21.000Z</time>
      </trkpt>
      <trkpt lat="45.96816" lon="4.75925">
        <ele>222.35</ele>
        <time>2019-09-15T14:51:26.000Z</time>
      </trkpt>
      <trkpt lat="45.96784" lon="4.7591">
        <ele>222.06</ele>
        <time>2019-09-15T14:51:31.000Z</time>
      </trkpt>
      <trkpt lat="45.96752" lon="4.75895">
        <ele>221.29</ele>
        <time>2019-09-15T14:51:36.000Z</time>
      </trkpt>
      <trkpt lat="45.9672" lon="4.75879">
        <ele>221.29</ele>
        <time>2019-09-15T14:51:41.000Z</time>
      </trkpt>
      <trkpt lat="45.96685" lon="4.75862">
        <ele>221.29</ele>
        <time>2019-09-15T14:51:46.000Z</time>
      </trkpt>
      <trkpt lat="45.9665" lon="4.75845">
        <ele>220.54</ele>
        <time>2019-09-15T14:51:51.000Z</time>
      </trkpt>
      <trkpt lat="45.96615" lon="4.75827">
        <ele>218.36</ele>
        <time>2019-09-15T14:51:56.000Z</time>
      </trkpt>
      <trkpt lat="45.9658" lon="4.7581">
        <ele>219.27</ele>
        <time>2019-09-15T14:52:01.000Z</time>
      </trkpt>
      <trkpt lat="45.96546" lon="4.75795">
        <ele>217.25</ele>
        <time>2019-09-15T14:52:06.000Z</time>
      </trkpt>
      <trkpt lat="45.96515" lon="4.7578">
        <ele>217.28</ele>
        <time>2019-09-15T14:52:11.000Z</time>
      </trkpt>
      <trkpt lat="45.96483" lon="4.75764">
        <ele>217.22</ele>
        <time>2019-09-15T14:52:16.000Z</time>
      </trkpt>
      <trkpt lat="45.9645" lon="4.75749">
        <ele>217.52</ele>
        <time>2019-09-15T14:52:21.000Z</time>
      </trkpt>
      <trkpt lat="45.96418" lon="4.75731">
        <ele>217.28</ele>
        <time>2019-09-15T14:52:26.000Z</time>
      </trkpt>
      <trkpt lat="45.96382" lon="4.75715">
        <ele>216.28</ele>
        <time>2019-09-15T14:52:31.000Z</time>
      </trkpt>
      <trkpt lat="45.96349" lon="4.75701">
        <ele>219.21</ele>
        <time>2019-09-15T14:52:36.000Z</time>
      </trkpt>
      <trkpt lat="45.96311" lon="4.75696">
        <ele>218.28</ele>
        <time>2019-09-15T14:52:41.000Z</time>
      </trkpt>
      <trkpt lat="45.96275" lon="4.75698">
        <ele>211.85</ele>
        <time>2019-09-15T14:52:46.000Z</time>
      </trkpt>
      <trkpt lat="45.96234" lon="4.75704">
        <ele>209.3</ele>
        <time>2019-09-15T14:52:51.000Z</time>
      </trkpt>
      <trkpt lat="45.96194" lon="4.75707">
        <ele>206.3</ele>
        <time>2019-09-15T14:52:56.000Z</time>
      </trkpt>
      <trkpt lat="45.96151" lon="4.75713">
        <ele>204.28</ele>
        <time>2019-09-15T14:53:01.000Z</time>
      </trkpt>
      <trkpt lat="45.9611" lon="4.75719">
        <ele>203.34</ele>
        <time>2019-09-15T14:53:06.000Z</time>
      </trkpt>
      <trkpt lat="45.96069" lon="4.75724">
        <ele>202.28</ele>
        <time>2019-09-15T14:53:11.000Z</time>
      </trkpt>
      <trkpt lat="45.96031" lon="4.75726">
        <ele>202.23</ele>
        <time>2019-09-15T14:53:16.000Z</time>
      </trkpt>
      <trkpt lat="45.95993" lon="4.75731">
        <ele>201.29</ele>
        <time>2019-09-15T14:53:21.000Z</time>
      </trkpt>
      <trkpt lat="45.95956" lon="4.75736">
        <ele>199.34</ele>
        <time>2019-09-15T14:53:26.000Z</time>
      </trkpt>
      <trkpt lat="45.95921" lon="4.7574">
        <ele>199.23</ele>
        <time>2019-09-15T14:53:31.000Z</time>
      </trkpt>
      <trkpt lat="45.95886" lon="4.75745">
        <ele>197.77</ele>
        <time>2019-09-15T14:53:36.000Z</time>
      </trkpt>
      <trkpt lat="45.95859" lon="4.75746">
        <ele>196.34</ele>
        <time>2019-09-15T14:53:41.000Z</time>
      </trkpt>
      <trkpt lat="45.95848" lon="4.75722">
        <ele>199.19</ele>
        <time>2019-09-15T14:53:46.000Z</time>
      </trkpt>
      <trkpt lat="45.95838" lon="4.7569">
        <ele>200.51</ele>
        <time>2019-09-15T14:53:51.000Z</time>
      </trkpt>
      <trkpt lat="45.95824" lon="4.75657">
        <ele>200.27</ele>
        <time>2019-09-15T14:53:56.000Z</time>
      </trkpt>
      <trkpt lat="45.95818" lon="4.75629">
        <ele>200.27</ele>
        <time>2019-09-15T14:54:01.000Z</time>
      </trkpt>
      <trkpt lat="45.95812" lon="4.75618">
        <ele>201.27</ele>
        <time>2019-09-15T14:54:23.000Z</time>
      </trkpt>
      <trkpt lat="45.95804" lon="4.75585">
        <ele>201.02</ele>
        <time>2019-09-15T14:54:28.000Z</time>
      </trkpt>
      <trkpt lat="45.95794" lon="4.75553">
        <ele>201.08</ele>
        <time>2019-09-15T14:54:33.000Z</time>
      </trkpt>
      <trkpt lat="45.95783" lon="4.75517">
        <ele>201.52</ele>
        <time>2019-09-15T14:54:38.000Z</time>
      </trkpt>
      <trkpt lat="45.95769" lon="4.7548">
        <ele>201.27</ele>
        <time>2019-09-15T14:54:43.000Z</time>
      </trkpt>
      <trkpt lat="45.95754" lon="4.75443">
        <ele>200.27</ele>
        <time>2019-09-15T14:54:48.000Z</time>
      </trkpt>
      <trkpt lat="45.95737" lon="4.75406">
        <ele>200.28</ele>
        <time>2019-09-15T14:54:53.000Z</time>
      </trkpt>
      <trkpt lat="45.95719" lon="4.75375">
        <ele>200.27</ele>
        <time>2019-09-15T14:54:58.000Z</time>
      </trkpt>
      <trkpt lat="45.95704" lon="4.75348">
        <ele>200.28</ele>
        <time>2019-09-15T14:55:03.000Z</time>
      </trkpt>
      <trkpt lat="45.95695" lon="4.75337">
        <ele>201.26</ele>
        <time>2019-09-15T14:55:08.000Z</time>
      </trkpt>
      <trkpt lat="45.9568" lon="4.75326">
        <ele>200.05</ele>
        <time>2019-09-15T14:55:13.000Z</time>
      </trkpt>
      <trkpt lat="45.95668" lon="4.75312">
        <ele>198.3</ele>
        <time>2019-09-15T14:55:18.000Z</time>
      </trkpt>
      <trkpt lat="45.95654" lon="4.75295">
        <ele>200.01</ele>
        <time>2019-09-15T14:55:23.000Z</time>
      </trkpt>
      <trkpt lat="45.95636" lon="4.75278">
        <ele>200.32</ele>
        <time>2019-09-15T14:55:28.000Z</time>
      </trkpt>
      <trkpt lat="45.95617" lon="4.75256">
        <ele>200.26</ele>
        <time>2019-09-15T14:55:33.000Z</time>
      </trkpt>
      <trkpt lat="45.95597" lon="4.75232">
        <ele>200.26</ele>
        <time>2019-09-15T14:55:38.000Z</time>
      </trkpt>
      <trkpt lat="45.95579" lon="4.75206">
        <ele>200.28</ele>
        <time>2019-09-15T14:55:43.000Z</time>
      </trkpt>
      <trkpt lat="45.95561" lon="4.75179">
        <ele>199.51</ele>
        <time>2019-09-15T14:55:48.000Z</time>
      </trkpt>
      <trkpt lat="45.95546" lon="4.7515">
        <ele>199.26</ele>
        <time>2019-09-15T14:55:53.000Z</time>
      </trkpt>
      <trkpt lat="45.95529" lon="4.75123">
        <ele>200.2</ele>
        <time>2019-09-15T14:55:58.000Z</time>
      </trkpt>
      <trkpt lat="45.95511" lon="4.75093">
        <ele>201.95</ele>
        <time>2019-09-15T14:56:03.000Z</time>
      </trkpt>
      <trkpt lat="45.9549" lon="4.75068">
        <ele>200.51</ele>
        <time>2019-09-15T14:56:08.000Z</time>
      </trkpt>
      <trkpt lat="45.95469" lon="4.75043">
        <ele>201.25</ele>
        <time>2019-09-15T14:56:13.000Z</time>
      </trkpt>
      <trkpt lat="45.95447" lon="4.75022">
        <ele>200.26</ele>
        <time>2019-09-15T14:56:18.000Z</time>
      </trkpt>
      <trkpt lat="45.95425" lon="4.74999">
        <ele>200.26</ele>
        <time>2019-09-15T14:56:23.000Z</time>
      </trkpt>
      <trkpt lat="45.95404" lon="4.74975">
        <ele>198.24</ele>
        <time>2019-09-15T14:56:28.000Z</time>
      </trkpt>
      <trkpt lat="45.95384" lon="4.7495">
        <ele>197.07</ele>
        <time>2019-09-15T14:56:33.000Z</time>
      </trkpt>
      <trkpt lat="45.95363" lon="4.74923">
        <ele>197.24</ele>
        <time>2019-09-15T14:56:38.000Z</time>
      </trkpt>
      <trkpt lat="45.95343" lon="4.74896">
        <ele>199</ele>
        <time>2019-09-15T14:56:43.000Z</time>
      </trkpt>
      <trkpt lat="45.95323" lon="4.74869">
        <ele>197.32</ele>
        <time>2019-09-15T14:56:48.000Z</time>
      </trkpt>
      <trkpt lat="45.95301" lon="4.74844">
        <ele>198</ele>
        <time>2019-09-15T14:56:53.000Z</time>
      </trkpt>
      <trkpt lat="45.95278" lon="4.74821">
        <ele>197.25</ele>
        <time>2019-09-15T14:56:58.000Z</time>
      </trkpt>
      <trkpt lat="45.95255" lon="4.74798">
        <ele>197.24</ele>
        <time>2019-09-15T14:57:03.000Z</time>
      </trkpt>
      <trkpt lat="45.95232" lon="4.74775">
        <ele>197.25</ele>
        <time>2019-09-15T14:57:08.000Z</time>
      </trkpt>
      <trkpt lat="45.9521" lon="4.74749">
        <ele>196.26</ele>
        <time>2019-09-15T14:57:13.000Z</time>
      </trkpt>
      <trkpt lat="45.95188" lon="4.74725">
        <ele>196.31</ele>
        <time>2019-09-15T14:57:18.000Z</time>
      </trkpt>
      <trkpt lat="45.95167" lon="4.74703">
        <ele>196.51</ele>
        <time>2019-09-15T14:57:23.000Z</time>
      </trkpt>
      <trkpt lat="45.95146" lon="4.74678">
        <ele>197.25</ele>
        <time>2019-09-15T14:57:28.000Z</time>
      </trkpt>
      <trkpt lat="45.95127" lon="4.7466">
        <ele>196.5</ele>
        <time>2019-09-15T14:57:33.000Z</time>
      </trkpt>
      <trkpt lat="45.95115" lon="4.74661">
        <ele>195.27</ele>
        <time>2019-09-15T14:57:38.000Z</time>
      </trkpt>
      <trkpt lat="45.95102" lon="4.74681">
        <ele>197.48</ele>
        <time>2019-09-15T14:57:43.000Z</time>
      </trkpt>
      <trkpt lat="45.95094" lon="4.74702">
        <ele>196.3</ele>
        <time>2019-09-15T14:57:48.000Z</time>
      </trkpt>
      <trkpt lat="45.95084" lon="4.74696">
        <ele>197.43</ele>
        <time>2019-09-15T14:57:54.000Z</time>
      </trkpt>
      <trkpt lat="45.9507" lon="4.74667">
        <ele>196.25</ele>
        <time>2019-09-15T14:57:59.000Z</time>
      </trkpt>
      <trkpt lat="45.95054" lon="4.74639">
        <ele>195.26</ele>
        <time>2019-09-15T14:58:04.000Z</time>
      </trkpt>
      <trkpt lat="45.95036" lon="4.74605">
        <ele>196.23</ele>
        <time>2019-09-15T14:58:09.000Z</time>
      </trkpt>
      <trkpt lat="45.95019" lon="4.7457">
        <ele>196.43</ele>
        <time>2019-09-15T14:58:14.000Z</time>
      </trkpt>
      <trkpt lat="45.95" lon="4.74532">
        <ele>196.18</ele>
        <time>2019-09-15T14:58:19.000Z</time>
      </trkpt>
      <trkpt lat="45.9498" lon="4.74495">
        <ele>196.99</ele>
        <time>2019-09-15T14:58:24.000Z</time>
      </trkpt>
      <trkpt lat="45.94961" lon="4.74455">
        <ele>198.19</ele>
        <time>2019-09-15T14:58:29.000Z</time>
      </trkpt>
      <trkpt lat="45.94941" lon="4.74416">
        <ele>197.24</ele>
        <time>2019-09-15T14:58:34.000Z</time>
      </trkpt>
      <trkpt lat="45.9492" lon="4.74375">
        <ele>196.3</ele>
        <time>2019-09-15T14:58:39.000Z</time>
      </trkpt>
      <trkpt lat="45.94897" lon="4.74334">
        <ele>196.24</ele>
        <time>2019-09-15T14:58:44.000Z</time>
      </trkpt>
      <trkpt lat="45.94874" lon="4.7429">
        <ele>197.17</ele>
        <time>2019-09-15T14:58:49.000Z</time>
      </trkpt>
      <trkpt lat="45.94852" lon="4.74245">
        <ele>197.24</ele>
        <time>2019-09-15T14:58:54.000Z</time>
      </trkpt>
      <trkpt lat="45.94829" lon="4.74203">
        <ele>196.23</ele>
        <time>2019-09-15T14:58:59.000Z</time>
      </trkpt>
      <trkpt lat="45.94807" lon="4.74162">
        <ele>197.23</ele>
        <time>2019-09-15T14:59:04.000Z</time>
      </trkpt>
      <trkpt lat="45.94783" lon="4.74121">
        <ele>198.04</ele>
        <time>2019-09-15T14:59:09.000Z</time>
      </trkpt>
      <trkpt lat="45.94757" lon="4.74087">
        <ele>196.79</ele>
        <time>2019-09-15T14:59:14.000Z</time>
      </trkpt>
      <trkpt lat="45.94731" lon="4.74051">
        <ele>195.23</ele>
        <time>2019-09-15T14:59:19.000Z</time>
      </trkpt>
      <trkpt lat="45.94704" lon="4.74016">
        <ele>196.04</ele>
        <time>2019-09-15T14:59:24.000Z</time>
      </trkpt>
      <trkpt lat="45.94679" lon="4.73981">
        <ele>196.04</ele>
        <time>2019-09-15T14:59:29.000Z</time>
      </trkpt>
      <trkpt lat="45.94653" lon="4.73946">
        <ele>195.29</ele>
        <time>2019-09-15T14:59:34.000Z</time>
      </trkpt>
      <trkpt lat="45.94627" lon="4.73912">
        <ele>195.23</ele>
        <time>2019-09-15T14:59:39.000Z</time>
      </trkpt>
      <trkpt lat="45.94601" lon="4.7388">
        <ele>197.15</ele>
        <time>2019-09-15T14:59:44.000Z</time>
      </trkpt>
      <trkpt lat="45.94574" lon="4.73852">
        <ele>192.28</ele>
        <time>2019-09-15T14:59:49.000Z</time>
      </trkpt>
      <trkpt lat="45.94544" lon="4.73822">
        <ele>192.21</ele>
        <time>2019-09-15T14:59:54.000Z</time>
      </trkpt>
      <trkpt lat="45.94513" lon="4.73793">
        <ele>190.48</ele>
        <time>2019-09-15T14:59:59.000Z</time>
      </trkpt>
      <trkpt lat="45.94489" lon="4.7376">
        <ele>189.99</ele>
        <time>2019-09-15T15:00:04.000Z</time>
      </trkpt>
      <trkpt lat="45.94488" lon="4.73717">
        <ele>188.29</ele>
        <time>2019-09-15T15:00:09.000Z</time>
      </trkpt>
      <trkpt lat="45.94494" lon="4.73669">
        <ele>188.28</ele>
        <time>2019-09-15T15:00:14.000Z</time>
      </trkpt>
      <trkpt lat="45.94501" lon="4.7362">
        <ele>187.47</ele>
        <time>2019-09-15T15:00:19.000Z</time>
      </trkpt>
      <trkpt lat="45.94503" lon="4.73568">
        <ele>187.22</ele>
        <time>2019-09-15T15:00:24.000Z</time>
      </trkpt>
      <trkpt lat="45.94504" lon="4.73511">
        <ele>189.14</ele>
        <time>2019-09-15T15:00:29.000Z</time>
      </trkpt>
      <trkpt lat="45.94503" lon="4.7345">
        <ele>187.47</ele>
        <time>2019-09-15T15:00:34.000Z</time>
      </trkpt>
      <trkpt lat="45.945" lon="4.73392">
        <ele>186.23</ele>
        <time>2019-09-15T15:00:39.000Z</time>
      </trkpt>
      <trkpt lat="45.94495" lon="4.73333">
        <ele>183.47</ele>
        <time>2019-09-15T15:00:44.000Z</time>
      </trkpt>
      <trkpt lat="45.94488" lon="4.73273">
        <ele>181.35</ele>
        <time>2019-09-15T15:00:49.000Z</time>
      </trkpt>
      <trkpt lat="45.94481" lon="4.73214">
        <ele>173.87</ele>
        <time>2019-09-15T15:00:54.000Z</time>
      </trkpt>
      <trkpt lat="45.94473" lon="4.73154">
        <ele>174.21</ele>
        <time>2019-09-15T15:00:59.000Z</time>
      </trkpt>
      <trkpt lat="45.94467" lon="4.731">
        <ele>173.23</ele>
        <time>2019-09-15T15:01:04.000Z</time>
      </trkpt>
      <trkpt lat="45.94478" lon="4.73079">
        <ele>172.27</ele>
        <time>2019-09-15T15:01:09.000Z</time>
      </trkpt>
      <trkpt lat="45.94497" lon="4.73094">
        <ele>172.21</ele>
        <time>2019-09-15T15:01:14.000Z</time>
      </trkpt>
      <trkpt lat="45.94489" lon="4.73099">
        <ele>173.2</ele>
        <time>2019-09-15T15:01:21.000Z</time>
      </trkpt>
      <trkpt lat="45.94499" lon="4.73097">
        <ele>173.01</ele>
        <time>2019-09-15T15:01:31.000Z</time>
      </trkpt>
      <trkpt lat="45.94517" lon="4.73101">
        <ele>174.15</ele>
        <time>2019-09-15T15:01:36.000Z</time>
      </trkpt>
      <trkpt lat="45.94536" lon="4.73108">
        <ele>173.03</ele>
        <time>2019-09-15T15:01:41.000Z</time>
      </trkpt>
      <trkpt lat="45.94554" lon="4.7311">
        <ele>175.95</ele>
        <time>2019-09-15T15:01:46.000Z</time>
      </trkpt>
      <trkpt lat="45.94553" lon="4.73093">
        <ele>174.23</ele>
        <time>2019-09-15T15:01:51.000Z</time>
      </trkpt>
      <trkpt lat="45.94553" lon="4.73067">
        <ele>177.03</ele>
        <time>2019-09-15T15:01:56.000Z</time>
      </trkpt>
      <trkpt lat="45.94552" lon="4.73038">
        <ele>175.35</ele>
        <time>2019-09-15T15:02:01.000Z</time>
      </trkpt>
      <trkpt lat="45.94544" lon="4.73018">
        <ele>172.45</ele>
        <time>2019-09-15T15:02:06.000Z</time>
      </trkpt>
      <trkpt lat="45.94523" lon="4.73012">
        <ele>171.99</ele>
        <time>2019-09-15T15:02:11.000Z</time>
      </trkpt>
      <trkpt lat="45.94496" lon="4.73011">
        <ele>172.21</ele>
        <time>2019-09-15T15:02:16.000Z</time>
      </trkpt>
      <trkpt lat="45.9447" lon="4.73013">
        <ele>172.21</ele>
        <time>2019-09-15T15:02:21.000Z</time>
      </trkpt>
      <trkpt lat="45.94445" lon="4.73017">
        <ele>172.21</ele>
        <time>2019-09-15T15:02:26.000Z</time>
      </trkpt>
      <trkpt lat="45.94431" lon="4.73037">
        <ele>171.46</ele>
        <time>2019-09-15T15:02:31.000Z</time>
      </trkpt>
      <trkpt lat="45.94412" lon="4.73063">
        <ele>169.52</ele>
        <time>2019-09-15T15:02:36.000Z</time>
      </trkpt>
      <trkpt lat="45.94391" lon="4.73086">
        <ele>169.22</ele>
        <time>2019-09-15T15:02:41.000Z</time>
      </trkpt>
      <trkpt lat="45.94364" lon="4.73105">
        <ele>172.07</ele>
        <time>2019-09-15T15:02:46.000Z</time>
      </trkpt>
      <trkpt lat="45.9434" lon="4.73121">
        <ele>172.21</ele>
        <time>2019-09-15T15:02:51.000Z</time>
      </trkpt>
      <trkpt lat="45.94318" lon="4.73141">
        <ele>170.27</ele>
        <time>2019-09-15T15:02:56.000Z</time>
      </trkpt>
      <trkpt lat="45.94296" lon="4.73157">
        <ele>170.16</ele>
        <time>2019-09-15T15:03:01.000Z</time>
      </trkpt>
      <trkpt lat="45.94282" lon="4.73175">
        <ele>169.21</ele>
        <time>2019-09-15T15:03:06.000Z</time>
      </trkpt>
      <trkpt lat="45.94271" lon="4.73178">
        <ele>170.44</ele>
        <time>2019-09-15T15:03:11.000Z</time>
      </trkpt>
      <trkpt lat="45.94255" lon="4.73193">
        <ele>169.27</ele>
        <time>2019-09-15T15:03:16.000Z</time>
      </trkpt>
      <trkpt lat="45.94234" lon="4.7321">
        <ele>169.02</ele>
        <time>2019-09-15T15:03:21.000Z</time>
      </trkpt>
      <trkpt lat="45.94214" lon="4.73224">
        <ele>168.27</ele>
        <time>2019-09-15T15:03:26.000Z</time>
      </trkpt>
      <trkpt lat="45.9419" lon="4.73242">
        <ele>171.21</ele>
        <time>2019-09-15T15:03:31.000Z</time>
      </trkpt>
      <trkpt lat="45.94169" lon="4.73264">
        <ele>171.2</ele>
        <time>2019-09-15T15:03:36.000Z</time>
      </trkpt>
      <trkpt lat="45.94146" lon="4.73285">
        <ele>170.23</ele>
        <time>2019-09-15T15:03:41.000Z</time>
      </trkpt>
      <trkpt lat="45.94129" lon="4.73313">
        <ele>171.02</ele>
        <time>2019-09-15T15:03:46.000Z</time>
      </trkpt>
      <trkpt lat="45.9411" lon="4.73342">
        <ele>169.07</ele>
        <time>2019-09-15T15:03:51.000Z</time>
      </trkpt>
      <trkpt lat="45.94086" lon="4.73378">
        <ele>170.21</ele>
        <time>2019-09-15T15:03:56.000Z</time>
      </trkpt>
      <trkpt lat="45.94068" lon="4.73412">
        <ele>169.22</ele>
        <time>2019-09-15T15:04:01.000Z</time>
      </trkpt>
      <trkpt lat="45.94049" lon="4.73447">
        <ele>171.9</ele>
        <time>2019-09-15T15:04:06.000Z</time>
      </trkpt>
      <trkpt lat="45.94028" lon="4.73479">
        <ele>174.15</ele>
        <time>2019-09-15T15:04:11.000Z</time>
      </trkpt>
      <trkpt lat="45.94009" lon="4.73513">
        <ele>173.24</ele>
        <time>2019-09-15T15:04:16.000Z</time>
      </trkpt>
      <trkpt lat="45.9399" lon="4.73551">
        <ele>174.95</ele>
        <time>2019-09-15T15:04:21.000Z</time>
      </trkpt>
      <trkpt lat="45.93976" lon="4.73591">
        <ele>175.21</ele>
        <time>2019-09-15T15:04:26.000Z</time>
      </trkpt>
      <trkpt lat="45.93966" lon="4.73633">
        <ele>174.26</ele>
        <time>2019-09-15T15:04:31.000Z</time>
      </trkpt>
      <trkpt lat="45.93958" lon="4.73673">
        <ele>173.99</ele>
        <time>2019-09-15T15:04:36.000Z</time>
      </trkpt>
      <trkpt lat="45.93951" lon="4.73715">
        <ele>174.03</ele>
        <time>2019-09-15T15:04:41.000Z</time>
      </trkpt>
      <trkpt lat="45.93947" lon="4.73759">
        <ele>174.22</ele>
        <time>2019-09-15T15:04:46.000Z</time>
      </trkpt>
      <trkpt lat="45.93946" lon="4.73803">
        <ele>173.09</ele>
        <time>2019-09-15T15:04:51.000Z</time>
      </trkpt>
      <trkpt lat="45.93942" lon="4.73846">
        <ele>172.96</ele>
        <time>2019-09-15T15:04:56.000Z</time>
      </trkpt>
      <trkpt lat="45.93937" lon="4.7389">
        <ele>172.23</ele>
        <time>2019-09-15T15:05:01.000Z</time>
      </trkpt>
      <trkpt lat="45.93931" lon="4.73933">
        <ele>172.45</ele>
        <time>2019-09-15T15:05:06.000Z</time>
      </trkpt>
      <trkpt lat="45.93928" lon="4.73975">
        <ele>172.22</ele>
        <time>2019-09-15T15:05:11.000Z</time>
      </trkpt>
      <trkpt lat="45.93923" lon="4.74017">
        <ele>172.22</ele>
        <time>2019-09-15T15:05:16.000Z</time>
      </trkpt>
      <trkpt lat="45.93915" lon="4.74059">
        <ele>173.03</ele>
        <time>2019-09-15T15:05:21.000Z</time>
      </trkpt>
      <trkpt lat="45.93913" lon="4.74103">
        <ele>172.28</ele>
        <time>2019-09-15T15:05:26.000Z</time>
      </trkpt>
      <trkpt lat="45.9391" lon="4.74147">
        <ele>172.27</ele>
        <time>2019-09-15T15:05:31.000Z</time>
      </trkpt>
      <trkpt lat="45.93908" lon="4.7419">
        <ele>169.59</ele>
        <time>2019-09-15T15:05:36.000Z</time>
      </trkpt>
      <trkpt lat="45.93906" lon="4.74228">
        <ele>172</ele>
        <time>2019-09-15T15:05:41.000Z</time>
      </trkpt>
      <trkpt lat="45.93904" lon="4.74268">
        <ele>172.22</ele>
        <time>2019-09-15T15:05:46.000Z</time>
      </trkpt>
      <trkpt lat="45.93902" lon="4.74309">
        <ele>172.22</ele>
        <time>2019-09-15T15:05:51.000Z</time>
      </trkpt>
      <trkpt lat="45.93903" lon="4.74354">
        <ele>173.03</ele>
        <time>2019-09-15T15:05:56.000Z</time>
      </trkpt>
      <trkpt lat="45.93904" lon="4.74397">
        <ele>173.97</ele>
        <time>2019-09-15T15:06:01.000Z</time>
      </trkpt>
      <trkpt lat="45.93908" lon="4.74442">
        <ele>172.24</ele>
        <time>2019-09-15T15:06:06.000Z</time>
      </trkpt>
      <trkpt lat="45.93908" lon="4.74483">
        <ele>173.4</ele>
        <time>2019-09-15T15:06:11.000Z</time>
      </trkpt>
      <trkpt lat="45.93906" lon="4.74526">
        <ele>172.48</ele>
        <time>2019-09-15T15:06:16.000Z</time>
      </trkpt>
      <trkpt lat="45.939" lon="4.74569">
        <ele>172.04</ele>
        <time>2019-09-15T15:06:21.000Z</time>
      </trkpt>
      <trkpt lat="45.93891" lon="4.7461">
        <ele>172.17</ele>
        <time>2019-09-15T15:06:26.000Z</time>
      </trkpt>
      <trkpt lat="45.93877" lon="4.74652">
        <ele>172.23</ele>
        <time>2019-09-15T15:06:31.000Z</time>
      </trkpt>
      <trkpt lat="45.93863" lon="4.74692">
        <ele>173.23</ele>
        <time>2019-09-15T15:06:36.000Z</time>
      </trkpt>
      <trkpt lat="45.93845" lon="4.74734">
        <ele>173.21</ele>
        <time>2019-09-15T15:06:41.000Z</time>
      </trkpt>
      <trkpt lat="45.93826" lon="4.74773">
        <ele>175.9</ele>
        <time>2019-09-15T15:06:46.000Z</time>
      </trkpt>
      <trkpt lat="45.93806" lon="4.74812">
        <ele>175.22</ele>
        <time>2019-09-15T15:06:51.000Z</time>
      </trkpt>
      <trkpt lat="45.93791" lon="4.74846">
        <ele>176.67</ele>
        <time>2019-09-15T15:06:56.000Z</time>
      </trkpt>
      <trkpt lat="45.93768" lon="4.74879">
        <ele>175.24</ele>
        <time>2019-09-15T15:07:01.000Z</time>
      </trkpt>
      <trkpt lat="45.93748" lon="4.74915">
        <ele>174.23</ele>
        <time>2019-09-15T15:07:06.000Z</time>
      </trkpt>
      <trkpt lat="45.9373" lon="4.74955">
        <ele>175.18</ele>
        <time>2019-09-15T15:07:11.000Z</time>
      </trkpt>
      <trkpt lat="45.93713" lon="4.74991">
        <ele>175.42</ele>
        <time>2019-09-15T15:07:16.000Z</time>
      </trkpt>
      <trkpt lat="45.93696" lon="4.75023">
        <ele>175.19</ele>
        <time>2019-09-15T15:07:21.000Z</time>
      </trkpt>
      <trkpt lat="45.93682" lon="4.75059">
        <ele>174.54</ele>
        <time>2019-09-15T15:07:26.000Z</time>
      </trkpt>
      <trkpt lat="45.93671" lon="4.75095">
        <ele>172.31</ele>
        <time>2019-09-15T15:07:31.000Z</time>
      </trkpt>
      <trkpt lat="45.93654" lon="4.75128">
        <ele>171.06</ele>
        <time>2019-09-15T15:07:36.000Z</time>
      </trkpt>
      <trkpt lat="45.93639" lon="4.75164">
        <ele>170.28</ele>
        <time>2019-09-15T15:07:41.000Z</time>
      </trkpt>
      <trkpt lat="45.93628" lon="4.75202">
        <ele>169.24</ele>
        <time>2019-09-15T15:07:46.000Z</time>
      </trkpt>
      <trkpt lat="45.93613" lon="4.75241">
        <ele>171.98</ele>
        <time>2019-09-15T15:07:51.000Z</time>
      </trkpt>
      <trkpt lat="45.93605" lon="4.7528">
        <ele>172.53</ele>
        <time>2019-09-15T15:07:56.000Z</time>
      </trkpt>
      <trkpt lat="45.93597" lon="4.75329">
        <ele>172.16</ele>
        <time>2019-09-15T15:08:01.000Z</time>
      </trkpt>
      <trkpt lat="45.93598" lon="4.75371">
        <ele>170.44</ele>
        <time>2019-09-15T15:08:06.000Z</time>
      </trkpt>
      <trkpt lat="45.93588" lon="4.75413">
        <ele>168.73</ele>
        <time>2019-09-15T15:08:11.000Z</time>
      </trkpt>
      <trkpt lat="45.9358" lon="4.75455">
        <ele>165.51</ele>
        <time>2019-09-15T15:08:16.000Z</time>
      </trkpt>
      <trkpt lat="45.9357" lon="4.75496">
        <ele>167.17</ele>
        <time>2019-09-15T15:08:21.000Z</time>
      </trkpt>
      <trkpt lat="45.93562" lon="4.7554">
        <ele>167.3</ele>
        <time>2019-09-15T15:08:26.000Z</time>
      </trkpt>
      <trkpt lat="45.93556" lon="4.7558">
        <ele>168.28</ele>
        <time>2019-09-15T15:08:31.000Z</time>
      </trkpt>
      <trkpt lat="45.93548" lon="4.75624">
        <ele>166.59</ele>
        <time>2019-09-15T15:08:36.000Z</time>
      </trkpt>
      <trkpt lat="45.93541" lon="4.75669">
        <ele>166.24</ele>
        <time>2019-09-15T15:08:41.000Z</time>
      </trkpt>
      <trkpt lat="45.93531" lon="4.75717">
        <ele>168.18</ele>
        <time>2019-09-15T15:08:46.000Z</time>
      </trkpt>
      <trkpt lat="45.93527" lon="4.75758">
        <ele>168.29</ele>
        <time>2019-09-15T15:08:51.000Z</time>
      </trkpt>
      <trkpt lat="45.93531" lon="4.75797">
        <ele>166.79</ele>
        <time>2019-09-15T15:08:56.000Z</time>
      </trkpt>
      <trkpt lat="45.93533" lon="4.75844">
        <ele>166</ele>
        <time>2019-09-15T15:09:01.000Z</time>
      </trkpt>
      <trkpt lat="45.93545" lon="4.75885">
        <ele>160.5</ele>
        <time>2019-09-15T15:09:06.000Z</time>
      </trkpt>
      <trkpt lat="45.93555" lon="4.75929">
        <ele>161.92</ele>
        <time>2019-09-15T15:09:11.000Z</time>
      </trkpt>
      <trkpt lat="45.93568" lon="4.75972">
        <ele>164.15</ele>
        <time>2019-09-15T15:09:16.000Z</time>
      </trkpt>
      <trkpt lat="45.93579" lon="4.76011">
        <ele>166.98</ele>
        <time>2019-09-15T15:09:21.000Z</time>
      </trkpt>
      <trkpt lat="45.93594" lon="4.76051">
        <ele>165.19</ele>
        <time>2019-09-15T15:09:26.000Z</time>
      </trkpt>
      <trkpt lat="45.93604" lon="4.76093">
        <ele>166.19</ele>
        <time>2019-09-15T15:09:31.000Z</time>
      </trkpt>
      <trkpt lat="45.93615" lon="4.76132">
        <ele>166.31</ele>
        <time>2019-09-15T15:09:36.000Z</time>
      </trkpt>
      <trkpt lat="45.93631" lon="4.76175">
        <ele>167</ele>
        <time>2019-09-15T15:09:41.000Z</time>
      </trkpt>
      <trkpt lat="45.93644" lon="4.76215">
        <ele>169.23</ele>
        <time>2019-09-15T15:09:46.000Z</time>
      </trkpt>
      <trkpt lat="45.93658" lon="4.76252">
        <ele>168.49</ele>
        <time>2019-09-15T15:09:51.000Z</time>
      </trkpt>
      <trkpt lat="45.93674" lon="4.76291">
        <ele>166.32</ele>
        <time>2019-09-15T15:09:56.000Z</time>
      </trkpt>
      <trkpt lat="45.93681" lon="4.76323">
        <ele>166.25</ele>
        <time>2019-09-15T15:10:01.000Z</time>
      </trkpt>
      <trkpt lat="45.93694" lon="4.76356">
        <ele>168</ele>
        <time>2019-09-15T15:10:06.000Z</time>
      </trkpt>
      <trkpt lat="45.93706" lon="4.7639">
        <ele>168.31</ele>
        <time>2019-09-15T15:10:11.000Z</time>
      </trkpt>
      <trkpt lat="45.93718" lon="4.76421">
        <ele>171.19</ele>
        <time>2019-09-15T15:10:16.000Z</time>
      </trkpt>
      <trkpt lat="45.93727" lon="4.76453">
        <ele>171.07</ele>
        <time>2019-09-15T15:10:21.000Z</time>
      </trkpt>
      <trkpt lat="45.93739" lon="4.76488">
        <ele>171.07</ele>
        <time>2019-09-15T15:10:26.000Z</time>
      </trkpt>
      <trkpt lat="45.93753" lon="4.76523">
        <ele>170.32</ele>
        <time>2019-09-15T15:10:31.000Z</time>
      </trkpt>
      <trkpt lat="45.93763" lon="4.7656">
        <ele>170.26</ele>
        <time>2019-09-15T15:10:36.000Z</time>
      </trkpt>
      <trkpt lat="45.93777" lon="4.76597">
        <ele>171.26</ele>
        <time>2019-09-15T15:10:41.000Z</time>
      </trkpt>
      <trkpt lat="45.93787" lon="4.76623">
        <ele>170.33</ele>
        <time>2019-09-15T15:10:46.000Z</time>
      </trkpt>
      <trkpt lat="45.93792" lon="4.76636">
        <ele>172.26</ele>
        <time>2019-09-15T15:10:53.000Z</time>
      </trkpt>
      <trkpt lat="45.93801" lon="4.76654">
        <ele>170.51</ele>
        <time>2019-09-15T15:10:58.000Z</time>
      </trkpt>
      <trkpt lat="45.93814" lon="4.76686">
        <ele>171.26</ele>
        <time>2019-09-15T15:11:03.000Z</time>
      </trkpt>
      <trkpt lat="45.93831" lon="4.76716">
        <ele>171.26</ele>
        <time>2019-09-15T15:11:08.000Z</time>
      </trkpt>
      <trkpt lat="45.93849" lon="4.76745">
        <ele>172.28</ele>
        <time>2019-09-15T15:11:13.000Z</time>
      </trkpt>
      <trkpt lat="45.93866" lon="4.76776">
        <ele>172.21</ele>
        <time>2019-09-15T15:11:18.000Z</time>
      </trkpt>
      <trkpt lat="45.93885" lon="4.76806">
        <ele>173.01</ele>
        <time>2019-09-15T15:11:23.000Z</time>
      </trkpt>
      <trkpt lat="45.93904" lon="4.76834">
        <ele>173.26</ele>
        <time>2019-09-15T15:11:28.000Z</time>
      </trkpt>
      <trkpt lat="45.93922" lon="4.76862">
        <ele>172.7</ele>
        <time>2019-09-15T15:11:33.000Z</time>
      </trkpt>
      <trkpt lat="45.93938" lon="4.76893">
        <ele>173.02</ele>
        <time>2019-09-15T15:11:38.000Z</time>
      </trkpt>
      <trkpt lat="45.93943" lon="4.76933">
        <ele>172.28</ele>
        <time>2019-09-15T15:11:43.000Z</time>
      </trkpt>
      <trkpt lat="45.93953" lon="4.76974">
        <ele>172.22</ele>
        <time>2019-09-15T15:11:48.000Z</time>
      </trkpt>
      <trkpt lat="45.93964" lon="4.77013">
        <ele>170.39</ele>
        <time>2019-09-15T15:11:53.000Z</time>
      </trkpt>
      <trkpt lat="45.93976" lon="4.77053">
        <ele>170.27</ele>
        <time>2019-09-15T15:11:58.000Z</time>
      </trkpt>
      <trkpt lat="45.93986" lon="4.77095">
        <ele>171.25</ele>
        <time>2019-09-15T15:12:03.000Z</time>
      </trkpt>
      <trkpt lat="45.93994" lon="4.77134">
        <ele>172.07</ele>
        <time>2019-09-15T15:12:08.000Z</time>
      </trkpt>
      <trkpt lat="45.94" lon="4.77175">
        <ele>170.41</ele>
        <time>2019-09-15T15:12:13.000Z</time>
      </trkpt>
      <trkpt lat="45.94003" lon="4.77216">
        <ele>170.21</ele>
        <time>2019-09-15T15:12:18.000Z</time>
      </trkpt>
      <trkpt lat="45.93996" lon="4.77256">
        <ele>169.29</ele>
        <time>2019-09-15T15:12:23.000Z</time>
      </trkpt>
      <trkpt lat="45.93999" lon="4.77291">
        <ele>170.96</ele>
        <time>2019-09-15T15:12:28.000Z</time>
      </trkpt>
      <trkpt lat="45.94005" lon="4.77314">
        <ele>170.34</ele>
        <time>2019-09-15T15:12:33.000Z</time>
      </trkpt>
      <trkpt lat="45.94002" lon="4.77341">
        <ele>170.04</ele>
        <time>2019-09-15T15:12:38.000Z</time>
      </trkpt>
      <trkpt lat="45.93999" lon="4.77371">
        <ele>170.46</ele>
        <time>2019-09-15T15:12:43.000Z</time>
      </trkpt>
      <trkpt lat="45.94006" lon="4.77381">
        <ele>171.27</ele>
        <time>2019-09-15T15:12:49.000Z</time>
      </trkpt>
      <trkpt lat="45.94003" lon="4.77409">
        <ele>172.26</ele>
        <time>2019-09-15T15:12:54.000Z</time>
      </trkpt>
      <trkpt lat="45.93999" lon="4.77447">
        <ele>171.28</ele>
        <time>2019-09-15T15:12:59.000Z</time>
      </trkpt>
      <trkpt lat="45.93993" lon="4.7749">
        <ele>172.27</ele>
        <time>2019-09-15T15:13:04.000Z</time>
      </trkpt>
      <trkpt lat="45.93987" lon="4.77534">
        <ele>170.36</ele>
        <time>2019-09-15T15:13:09.000Z</time>
      </trkpt>
      <trkpt lat="45.9398" lon="4.77577">
        <ele>171.27</ele>
        <time>2019-09-15T15:13:14.000Z</time>
      </trkpt>
      <trkpt lat="45.93971" lon="4.77623">
        <ele>172.26</ele>
        <time>2019-09-15T15:13:19.000Z</time>
      </trkpt>
      <trkpt lat="45.9396" lon="4.77667">
        <ele>172.28</ele>
        <time>2019-09-15T15:13:24.000Z</time>
      </trkpt>
      <trkpt lat="45.93947" lon="4.77709">
        <ele>173.03</ele>
        <time>2019-09-15T15:13:29.000Z</time>
      </trkpt>
      <trkpt lat="45.93929" lon="4.7775">
        <ele>174.28</ele>
        <time>2019-09-15T15:13:34.000Z</time>
      </trkpt>
      <trkpt lat="45.93911" lon="4.77789">
        <ele>174.28</ele>
        <time>2019-09-15T15:13:39.000Z</time>
      </trkpt>
      <trkpt lat="45.939" lon="4.77826">
        <ele>174.33</ele>
        <time>2019-09-15T15:13:44.000Z</time>
      </trkpt>
      <trkpt lat="45.9389" lon="4.77862">
        <ele>175.52</ele>
        <time>2019-09-15T15:13:49.000Z</time>
      </trkpt>
      <trkpt lat="45.93871" lon="4.77887">
        <ele>175.34</ele>
        <time>2019-09-15T15:13:54.000Z</time>
      </trkpt>
      <trkpt lat="45.93848" lon="4.77919">
        <ele>172.54</ele>
        <time>2019-09-15T15:13:59.000Z</time>
      </trkpt>
      <trkpt lat="45.93825" lon="4.7795">
        <ele>173.33</ele>
        <time>2019-09-15T15:14:04.000Z</time>
      </trkpt>
      <trkpt lat="45.93807" lon="4.77978">
        <ele>171.54</ele>
        <time>2019-09-15T15:14:09.000Z</time>
      </trkpt>
      <trkpt lat="45.93784" lon="4.78007">
        <ele>170.27</ele>
        <time>2019-09-15T15:14:14.000Z</time>
      </trkpt>
      <trkpt lat="45.93761" lon="4.78037">
        <ele>172.22</ele>
        <time>2019-09-15T15:14:19.000Z</time>
      </trkpt>
      <trkpt lat="45.93737" lon="4.78069">
        <ele>173.27</ele>
        <time>2019-09-15T15:14:24.000Z</time>
      </trkpt>
      <trkpt lat="45.93712" lon="4.78099">
        <ele>173.28</ele>
        <time>2019-09-15T15:14:29.000Z</time>
      </trkpt>
      <trkpt lat="45.93687" lon="4.78125">
        <ele>173.28</ele>
        <time>2019-09-15T15:14:34.000Z</time>
      </trkpt>
      <trkpt lat="45.93659" lon="4.78145">
        <ele>172.3</ele>
        <time>2019-09-15T15:14:39.000Z</time>
      </trkpt>
      <trkpt lat="45.93631" lon="4.78162">
        <ele>171.28</ele>
        <time>2019-09-15T15:14:44.000Z</time>
      </trkpt>
      <trkpt lat="45.93601" lon="4.78177">
        <ele>172.28</ele>
        <time>2019-09-15T15:14:49.000Z</time>
      </trkpt>
      <trkpt lat="45.93571" lon="4.78193">
        <ele>172.47</ele>
        <time>2019-09-15T15:14:54.000Z</time>
      </trkpt>
      <trkpt lat="45.93542" lon="4.78212">
        <ele>173.22</ele>
        <time>2019-09-15T15:14:59.000Z</time>
      </trkpt>
      <trkpt lat="45.93516" lon="4.78234">
        <ele>174.97</ele>
        <time>2019-09-15T15:15:04.000Z</time>
      </trkpt>
      <trkpt lat="45.9349" lon="4.78259">
        <ele>174.53</ele>
        <time>2019-09-15T15:15:09.000Z</time>
      </trkpt>
      <trkpt lat="45.93463" lon="4.78284">
        <ele>176.03</ele>
        <time>2019-09-15T15:15:14.000Z</time>
      </trkpt>
      <trkpt lat="45.93437" lon="4.78307">
        <ele>175.02</ele>
        <time>2019-09-15T15:15:19.000Z</time>
      </trkpt>
      <trkpt lat="45.93405" lon="4.78326">
        <ele>177.22</ele>
        <time>2019-09-15T15:15:24.000Z</time>
      </trkpt>
      <trkpt lat="45.93377" lon="4.78347">
        <ele>173.86</ele>
        <time>2019-09-15T15:15:29.000Z</time>
      </trkpt>
      <trkpt lat="45.9335" lon="4.78369">
        <ele>175.46</ele>
        <time>2019-09-15T15:15:34.000Z</time>
      </trkpt>
      <trkpt lat="45.93324" lon="4.78389">
        <ele>173.35</ele>
        <time>2019-09-15T15:15:39.000Z</time>
      </trkpt>
      <trkpt lat="45.93295" lon="4.78409">
        <ele>172.3</ele>
        <time>2019-09-15T15:15:44.000Z</time>
      </trkpt>
      <trkpt lat="45.93265" lon="4.78431">
        <ele>172.48</ele>
        <time>2019-09-15T15:15:49.000Z</time>
      </trkpt>
      <trkpt lat="45.93237" lon="4.7845">
        <ele>172.29</ele>
        <time>2019-09-15T15:15:54.000Z</time>
      </trkpt>
      <trkpt lat="45.93209" lon="4.78471">
        <ele>171.29</ele>
        <time>2019-09-15T15:15:59.000Z</time>
      </trkpt>
      <trkpt lat="45.93181" lon="4.78489">
        <ele>173.21</ele>
        <time>2019-09-15T15:16:04.000Z</time>
      </trkpt>
      <trkpt lat="45.93155" lon="4.7851">
        <ele>173.35</ele>
        <time>2019-09-15T15:16:09.000Z</time>
      </trkpt>
      <trkpt lat="45.9313" lon="4.78529">
        <ele>172.3</ele>
        <time>2019-09-15T15:16:14.000Z</time>
      </trkpt>
      <trkpt lat="45.93101" lon="4.78551">
        <ele>172.27</ele>
        <time>2019-09-15T15:16:19.000Z</time>
      </trkpt>
      <trkpt lat="45.93073" lon="4.78571">
        <ele>171.05</ele>
        <time>2019-09-15T15:16:24.000Z</time>
      </trkpt>
      <trkpt lat="45.93045" lon="4.78591">
        <ele>171.1</ele>
        <time>2019-09-15T15:16:29.000Z</time>
      </trkpt>
      <trkpt lat="45.93016" lon="4.7861">
        <ele>170.55</ele>
        <time>2019-09-15T15:16:34.000Z</time>
      </trkpt>
      <trkpt lat="45.92994" lon="4.78633">
        <ele>168.16</ele>
        <time>2019-09-15T15:16:39.000Z</time>
      </trkpt>
      <trkpt lat="45.92964" lon="4.78646">
        <ele>167.29</ele>
        <time>2019-09-15T15:16:44.000Z</time>
      </trkpt>
      <trkpt lat="45.92938" lon="4.78669">
        <ele>168.22</ele>
        <time>2019-09-15T15:16:49.000Z</time>
      </trkpt>
      <trkpt lat="45.92915" lon="4.78684">
        <ele>165.42</ele>
        <time>2019-09-15T15:16:54.000Z</time>
      </trkpt>
      <trkpt lat="45.92884" lon="4.78706">
        <ele>168.16</ele>
        <time>2019-09-15T15:16:59.000Z</time>
      </trkpt>
      <trkpt lat="45.92867" lon="4.78722">
        <ele>167.27</ele>
        <time>2019-09-15T15:17:04.000Z</time>
      </trkpt>
      <trkpt lat="45.92845" lon="4.78742">
        <ele>166.3</ele>
        <time>2019-09-15T15:17:09.000Z</time>
      </trkpt>
      <trkpt lat="45.92826" lon="4.78755">
        <ele>166.3</ele>
        <time>2019-09-15T15:17:14.000Z</time>
      </trkpt>
      <trkpt lat="45.92804" lon="4.78769">
        <ele>164.58</ele>
        <time>2019-09-15T15:17:19.000Z</time>
      </trkpt>
      <trkpt lat="45.9278" lon="4.78787">
        <ele>166.45</ele>
        <time>2019-09-15T15:17:24.000Z</time>
      </trkpt>
      <trkpt lat="45.9276" lon="4.78801">
        <ele>166.3</ele>
        <time>2019-09-15T15:17:29.000Z</time>
      </trkpt>
      <trkpt lat="45.92738" lon="4.78813">
        <ele>167.28</ele>
        <time>2019-09-15T15:17:34.000Z</time>
      </trkpt>
      <trkpt lat="45.92715" lon="4.78826">
        <ele>168.99</ele>
        <time>2019-09-15T15:17:39.000Z</time>
      </trkpt>
      <trkpt lat="45.92694" lon="4.78841">
        <ele>170.26</ele>
        <time>2019-09-15T15:17:44.000Z</time>
      </trkpt>
      <trkpt lat="45.92672" lon="4.78855">
        <ele>170.3</ele>
        <time>2019-09-15T15:17:49.000Z</time>
      </trkpt>
      <trkpt lat="45.92654" lon="4.78864">
        <ele>172.78</ele>
        <time>2019-09-15T15:17:54.000Z</time>
      </trkpt>
      <trkpt lat="45.9264" lon="4.78873">
        <ele>172.28</ele>
        <time>2019-09-15T15:17:59.000Z</time>
      </trkpt>
      <trkpt lat="45.92622" lon="4.78885">
        <ele>169.86</ele>
        <time>2019-09-15T15:18:04.000Z</time>
      </trkpt>
      <trkpt lat="45.92596" lon="4.78899">
        <ele>173.78</ele>
        <time>2019-09-15T15:18:09.000Z</time>
      </trkpt>
      <trkpt lat="45.92576" lon="4.7891">
        <ele>169.35</ele>
        <time>2019-09-15T15:18:14.000Z</time>
      </trkpt>
      <trkpt lat="45.9255" lon="4.78915">
        <ele>170.97</ele>
        <time>2019-09-15T15:18:19.000Z</time>
      </trkpt>
      <trkpt lat="45.92526" lon="4.78932">
        <ele>170.34</ele>
        <time>2019-09-15T15:18:24.000Z</time>
      </trkpt>
      <trkpt lat="45.92507" lon="4.78945">
        <ele>171.03</ele>
        <time>2019-09-15T15:18:29.000Z</time>
      </trkpt>
      <trkpt lat="45.92483" lon="4.78965">
        <ele>170.47</ele>
        <time>2019-09-15T15:18:34.000Z</time>
      </trkpt>
      <trkpt lat="45.92464" lon="4.78988">
        <ele>167.31</ele>
        <time>2019-09-15T15:18:39.000Z</time>
      </trkpt>
      <trkpt lat="45.92445" lon="4.79013">
        <ele>165.37</ele>
        <time>2019-09-15T15:18:44.000Z</time>
      </trkpt>
      <trkpt lat="45.92427" lon="4.79037">
        <ele>166.45</ele>
        <time>2019-09-15T15:18:49.000Z</time>
      </trkpt>
      <trkpt lat="45.92411" lon="4.79065">
        <ele>167.28</ele>
        <time>2019-09-15T15:18:54.000Z</time>
      </trkpt>
      <trkpt lat="45.92395" lon="4.79087">
        <ele>167.47</ele>
        <time>2019-09-15T15:18:59.000Z</time>
      </trkpt>
      <trkpt lat="45.92387" lon="4.79103">
        <ele>166.36</ele>
        <time>2019-09-15T15:19:04.000Z</time>
      </trkpt>
      <trkpt lat="45.92373" lon="4.79125">
        <ele>168.02</ele>
        <time>2019-09-15T15:19:09.000Z</time>
      </trkpt>
      <trkpt lat="45.92356" lon="4.7915">
        <ele>168.52</ele>
        <time>2019-09-15T15:19:14.000Z</time>
      </trkpt>
      <trkpt lat="45.92344" lon="4.79171">
        <ele>168.33</ele>
        <time>2019-09-15T15:19:19.000Z</time>
      </trkpt>
      <trkpt lat="45.92334" lon="4.792">
        <ele>165.79</ele>
        <time>2019-09-15T15:19:24.000Z</time>
      </trkpt>
      <trkpt lat="45.92323" lon="4.7923">
        <ele>166.16</ele>
        <time>2019-09-15T15:19:29.000Z</time>
      </trkpt>
      <trkpt lat="45.92314" lon="4.7927">
        <ele>164.54</ele>
        <time>2019-09-15T15:19:34.000Z</time>
      </trkpt>
      <trkpt lat="45.92315" lon="4.7931">
        <ele>166.52</ele>
        <time>2019-09-15T15:19:39.000Z</time>
      </trkpt>
      <trkpt lat="45.9232" lon="4.79344">
        <ele>165.29</ele>
        <time>2019-09-15T15:19:44.000Z</time>
      </trkpt>
      <trkpt lat="45.9232" lon="4.79382">
        <ele>165.35</ele>
        <time>2019-09-15T15:19:49.000Z</time>
      </trkpt>
      <trkpt lat="45.92324" lon="4.7942">
        <ele>165.3</ele>
        <time>2019-09-15T15:19:54.000Z</time>
      </trkpt>
      <trkpt lat="45.92325" lon="4.79462">
        <ele>166.47</ele>
        <time>2019-09-15T15:19:59.000Z</time>
      </trkpt>
      <trkpt lat="45.92332" lon="4.79505">
        <ele>168.21</ele>
        <time>2019-09-15T15:20:04.000Z</time>
      </trkpt>
      <trkpt lat="45.92335" lon="4.79548">
        <ele>169.52</ele>
        <time>2019-09-15T15:20:09.000Z</time>
      </trkpt>
      <trkpt lat="45.9234" lon="4.79586">
        <ele>167.35</ele>
        <time>2019-09-15T15:20:14.000Z</time>
      </trkpt>
      <trkpt lat="45.92343" lon="4.79629">
        <ele>169.28</ele>
        <time>2019-09-15T15:20:19.000Z</time>
      </trkpt>
      <trkpt lat="45.92349" lon="4.79667">
        <ele>168.11</ele>
        <time>2019-09-15T15:20:24.000Z</time>
      </trkpt>
      <trkpt lat="45.92358" lon="4.79712">
        <ele>165.42</ele>
        <time>2019-09-15T15:20:29.000Z</time>
      </trkpt>
      <trkpt lat="45.92359" lon="4.79747">
        <ele>165.47</ele>
        <time>2019-09-15T15:20:34.000Z</time>
      </trkpt>
      <trkpt lat="45.92357" lon="4.79787">
        <ele>166.01</ele>
        <time>2019-09-15T15:20:39.000Z</time>
      </trkpt>
      <trkpt lat="45.92359" lon="4.79829">
        <ele>167.29</ele>
        <time>2019-09-15T15:20:44.000Z</time>
      </trkpt>
      <trkpt lat="45.92365" lon="4.79867">
        <ele>166.56</ele>
        <time>2019-09-15T15:20:49.000Z</time>
      </trkpt>
      <trkpt lat="45.92365" lon="4.79906">
        <ele>166.23</ele>
        <time>2019-09-15T15:20:54.000Z</time>
      </trkpt>
      <trkpt lat="45.9237" lon="4.79948">
        <ele>165.3</ele>
        <time>2019-09-15T15:20:59.000Z</time>
      </trkpt>
      <trkpt lat="45.92374" lon="4.79991">
        <ele>167.28</ele>
        <time>2019-09-15T15:21:04.000Z</time>
      </trkpt>
      <trkpt lat="45.92377" lon="4.80034">
        <ele>166.6</ele>
        <time>2019-09-15T15:21:09.000Z</time>
      </trkpt>
      <trkpt lat="45.92381" lon="4.80078">
        <ele>166.05</ele>
        <time>2019-09-15T15:21:14.000Z</time>
      </trkpt>
      <trkpt lat="45.92379" lon="4.80121">
        <ele>165.55</ele>
        <time>2019-09-15T15:21:19.000Z</time>
      </trkpt>
      <trkpt lat="45.92375" lon="4.80162">
        <ele>169.91</ele>
        <time>2019-09-15T15:21:24.000Z</time>
      </trkpt>
      <trkpt lat="45.92371" lon="4.80203">
        <ele>171</ele>
        <time>2019-09-15T15:21:29.000Z</time>
      </trkpt>
      <trkpt lat="45.92365" lon="4.80242">
        <ele>170.8</ele>
        <time>2019-09-15T15:21:34.000Z</time>
      </trkpt>
      <trkpt lat="45.92355" lon="4.80283">
        <ele>172.27</ele>
        <time>2019-09-15T15:21:39.000Z</time>
      </trkpt>
      <trkpt lat="45.9235" lon="4.80324">
        <ele>170.32</ele>
        <time>2019-09-15T15:21:44.000Z</time>
      </trkpt>
      <trkpt lat="45.92341" lon="4.80366">
        <ele>172.23</ele>
        <time>2019-09-15T15:21:49.000Z</time>
      </trkpt>
      <trkpt lat="45.92331" lon="4.80411">
        <ele>173.87</ele>
        <time>2019-09-15T15:21:54.000Z</time>
      </trkpt>
      <trkpt lat="45.92324" lon="4.80453">
        <ele>173.43</ele>
        <time>2019-09-15T15:21:59.000Z</time>
      </trkpt>
      <trkpt lat="45.92318" lon="4.80495">
        <ele>172.32</ele>
        <time>2019-09-15T15:22:04.000Z</time>
      </trkpt>
      <trkpt lat="45.92312" lon="4.80536">
        <ele>170.39</ele>
        <time>2019-09-15T15:22:09.000Z</time>
      </trkpt>
      <trkpt lat="45.92305" lon="4.80578">
        <ele>170.26</ele>
        <time>2019-09-15T15:22:14.000Z</time>
      </trkpt>
      <trkpt lat="45.92297" lon="4.80619">
        <ele>170.31</ele>
        <time>2019-09-15T15:22:19.000Z</time>
      </trkpt>
      <trkpt lat="45.92289" lon="4.80657">
        <ele>170.06</ele>
        <time>2019-09-15T15:22:24.000Z</time>
      </trkpt>
      <trkpt lat="45.92278" lon="4.80695">
        <ele>170.56</ele>
        <time>2019-09-15T15:22:29.000Z</time>
      </trkpt>
      <trkpt lat="45.92269" lon="4.80736">
        <ele>170.56</ele>
        <time>2019-09-15T15:22:34.000Z</time>
      </trkpt>
      <trkpt lat="45.92258" lon="4.8077">
        <ele>168.31</ele>
        <time>2019-09-15T15:22:39.000Z</time>
      </trkpt>
      <trkpt lat="45.92241" lon="4.80806">
        <ele>169.36</ele>
        <time>2019-09-15T15:22:44.000Z</time>
      </trkpt>
      <trkpt lat="45.92225" lon="4.80839">
        <ele>169.08</ele>
        <time>2019-09-15T15:22:49.000Z</time>
      </trkpt>
      <trkpt lat="45.9221" lon="4.80872">
        <ele>169.55</ele>
        <time>2019-09-15T15:22:54.000Z</time>
      </trkpt>
      <trkpt lat="45.92192" lon="4.809">
        <ele>169.31</ele>
        <time>2019-09-15T15:22:59.000Z</time>
      </trkpt>
      <trkpt lat="45.92174" lon="4.80932">
        <ele>170.31</ele>
        <time>2019-09-15T15:23:04.000Z</time>
      </trkpt>
      <trkpt lat="45.92157" lon="4.8096">
        <ele>170.27</ele>
        <time>2019-09-15T15:23:09.000Z</time>
      </trkpt>
      <trkpt lat="45.9213" lon="4.80985">
        <ele>174.04</ele>
        <time>2019-09-15T15:23:14.000Z</time>
      </trkpt>
      <trkpt lat="45.92112" lon="4.81013">
        <ele>172.56</ele>
        <time>2019-09-15T15:23:19.000Z</time>
      </trkpt>
      <trkpt lat="45.92091" lon="4.81031">
        <ele>167.66</ele>
        <time>2019-09-15T15:23:24.000Z</time>
      </trkpt>
      <trkpt lat="45.92066" lon="4.8105">
        <ele>167.33</ele>
        <time>2019-09-15T15:23:29.000Z</time>
      </trkpt>
      <trkpt lat="45.92051" lon="4.81065">
        <ele>168.06</ele>
        <time>2019-09-15T15:23:34.000Z</time>
      </trkpt>
      <trkpt lat="45.92032" lon="4.81078">
        <ele>169.26</ele>
        <time>2019-09-15T15:23:39.000Z</time>
      </trkpt>
      <trkpt lat="45.92009" lon="4.81096">
        <ele>170.24</ele>
        <time>2019-09-15T15:23:44.000Z</time>
      </trkpt>
      <trkpt lat="45.91989" lon="4.81111">
        <ele>169.27</ele>
        <time>2019-09-15T15:23:49.000Z</time>
      </trkpt>
      <trkpt lat="45.91971" lon="4.8112">
        <ele>168.58</ele>
        <time>2019-09-15T15:23:54.000Z</time>
      </trkpt>
      <trkpt lat="45.91956" lon="4.81129">
        <ele>169.44</ele>
        <time>2019-09-15T15:23:59.000Z</time>
      </trkpt>
      <trkpt lat="45.91943" lon="4.81136">
        <ele>169.3</ele>
        <time>2019-09-15T15:24:04.000Z</time>
      </trkpt>
      <trkpt lat="45.91917" lon="4.81147">
        <ele>171.05</ele>
        <time>2019-09-15T15:24:09.000Z</time>
      </trkpt>
      <trkpt lat="45.91906" lon="4.81156">
        <ele>168.63</ele>
        <time>2019-09-15T15:24:14.000Z</time>
      </trkpt>
      <trkpt lat="45.91896" lon="4.81158">
        <ele>169.06</ele>
        <time>2019-09-15T15:24:20.000Z</time>
      </trkpt>
      <trkpt lat="45.91876" lon="4.81163">
        <ele>170.26</ele>
        <time>2019-09-15T15:24:25.000Z</time>
      </trkpt>
      <trkpt lat="45.91853" lon="4.81174">
        <ele>168.56</ele>
        <time>2019-09-15T15:24:30.000Z</time>
      </trkpt>
      <trkpt lat="45.91826" lon="4.8118">
        <ele>167.31</ele>
        <time>2019-09-15T15:24:35.000Z</time>
      </trkpt>
      <trkpt lat="45.91798" lon="4.81184">
        <ele>171.07</ele>
        <time>2019-09-15T15:24:40.000Z</time>
      </trkpt>
      <trkpt lat="45.91772" lon="4.8119">
        <ele>168.33</ele>
        <time>2019-09-15T15:24:45.000Z</time>
      </trkpt>
      <trkpt lat="45.91743" lon="4.81193">
        <ele>170.24</ele>
        <time>2019-09-15T15:24:50.000Z</time>
      </trkpt>
      <trkpt lat="45.91715" lon="4.81199">
        <ele>169.31</ele>
        <time>2019-09-15T15:24:55.000Z</time>
      </trkpt>
      <trkpt lat="45.91688" lon="4.81202">
        <ele>170.12</ele>
        <time>2019-09-15T15:25:00.000Z</time>
      </trkpt>
      <trkpt lat="45.91659" lon="4.81207">
        <ele>171.31</ele>
        <time>2019-09-15T15:25:05.000Z</time>
      </trkpt>
      <trkpt lat="45.91635" lon="4.81206">
        <ele>169.34</ele>
        <time>2019-09-15T15:25:10.000Z</time>
      </trkpt>
      <trkpt lat="45.91607" lon="4.81209">
        <ele>169.66</ele>
        <time>2019-09-15T15:25:15.000Z</time>
      </trkpt>
      <trkpt lat="45.91578" lon="4.81209">
        <ele>171.42</ele>
        <time>2019-09-15T15:25:20.000Z</time>
      </trkpt>
      <trkpt lat="45.91549" lon="4.8121">
        <ele>170.32</ele>
        <time>2019-09-15T15:25:25.000Z</time>
      </trkpt>
      <trkpt lat="45.91522" lon="4.81212">
        <ele>169.31</ele>
        <time>2019-09-15T15:25:30.000Z</time>
      </trkpt>
      <trkpt lat="45.91492" lon="4.81214">
        <ele>170.31</ele>
        <time>2019-09-15T15:25:35.000Z</time>
      </trkpt>
      <trkpt lat="45.91464" lon="4.81212">
        <ele>169.62</ele>
        <time>2019-09-15T15:25:40.000Z</time>
      </trkpt>
      <trkpt lat="45.91436" lon="4.81201">
        <ele>169.29</ele>
        <time>2019-09-15T15:25:45.000Z</time>
      </trkpt>
      <trkpt lat="45.91418" lon="4.81192">
        <ele>171.23</ele>
        <time>2019-09-15T15:25:50.000Z</time>
      </trkpt>
      <trkpt lat="45.91408" lon="4.81178">
        <ele>170.07</ele>
        <time>2019-09-15T15:25:55.000Z</time>
      </trkpt>
      <trkpt lat="45.91387" lon="4.81169">
        <ele>169.12</ele>
        <time>2019-09-15T15:26:00.000Z</time>
      </trkpt>
      <trkpt lat="45.91365" lon="4.81164">
        <ele>169.55</ele>
        <time>2019-09-15T15:26:05.000Z</time>
      </trkpt>
      <trkpt lat="45.91341" lon="4.81162">
        <ele>170.29</ele>
        <time>2019-09-15T15:26:10.000Z</time>
      </trkpt>
      <trkpt lat="45.91315" lon="4.81162">
        <ele>170.31</ele>
        <time>2019-09-15T15:26:15.000Z</time>
      </trkpt>
      <trkpt lat="45.91288" lon="4.81161">
        <ele>170.12</ele>
        <time>2019-09-15T15:26:20.000Z</time>
      </trkpt>
      <trkpt lat="45.91261" lon="4.81161">
        <ele>171.06</ele>
        <time>2019-09-15T15:26:25.000Z</time>
      </trkpt>
      <trkpt lat="45.91235" lon="4.81159">
        <ele>171.54</ele>
        <time>2019-09-15T15:26:30.000Z</time>
      </trkpt>
      <trkpt lat="45.91209" lon="4.81159">
        <ele>171.3</ele>
        <time>2019-09-15T15:26:35.000Z</time>
      </trkpt>
      <trkpt lat="45.91183" lon="4.81162">
        <ele>172.29</ele>
        <time>2019-09-15T15:26:40.000Z</time>
      </trkpt>
      <trkpt lat="45.91158" lon="4.81164">
        <ele>172.3</ele>
        <time>2019-09-15T15:26:45.000Z</time>
      </trkpt>
      <trkpt lat="45.91132" lon="4.81167">
        <ele>171.54</ele>
        <time>2019-09-15T15:26:50.000Z</time>
      </trkpt>
      <trkpt lat="45.91107" lon="4.81169">
        <ele>171.3</ele>
        <time>2019-09-15T15:26:55.000Z</time>
      </trkpt>
      <trkpt lat="45.91081" lon="4.81173">
        <ele>172.24</ele>
        <time>2019-09-15T15:27:00.000Z</time>
      </trkpt>
      <trkpt lat="45.91063" lon="4.81176">
        <ele>172.3</ele>
        <time>2019-09-15T15:27:05.000Z</time>
      </trkpt>
      <trkpt lat="45.91049" lon="4.81184">
        <ele>173.3</ele>
        <time>2019-09-15T15:27:10.000Z</time>
      </trkpt>
      <trkpt lat="45.91038" lon="4.81193">
        <ele>173.48</ele>
        <time>2019-09-15T15:27:15.000Z</time>
      </trkpt>
      <trkpt lat="45.91028" lon="4.81207">
        <ele>173.41</ele>
        <time>2019-09-15T15:27:20.000Z</time>
      </trkpt>
      <trkpt lat="45.91019" lon="4.81228">
        <ele>175.21</ele>
        <time>2019-09-15T15:27:25.000Z</time>
      </trkpt>
      <trkpt lat="45.91006" lon="4.81241">
        <ele>175.26</ele>
        <time>2019-09-15T15:27:30.000Z</time>
      </trkpt>
      <trkpt lat="45.90991" lon="4.81247">
        <ele>174.31</ele>
        <time>2019-09-15T15:27:35.000Z</time>
      </trkpt>
      <trkpt lat="45.9097" lon="4.8124">
        <ele>174.3</ele>
        <time>2019-09-15T15:27:40.000Z</time>
      </trkpt>
      <trkpt lat="45.90945" lon="4.81233">
        <ele>172.36</ele>
        <time>2019-09-15T15:27:45.000Z</time>
      </trkpt>
      <trkpt lat="45.90916" lon="4.81226">
        <ele>172.3</ele>
        <time>2019-09-15T15:27:50.000Z</time>
      </trkpt>
      <trkpt lat="45.90886" lon="4.81219">
        <ele>171.55</ele>
        <time>2019-09-15T15:27:55.000Z</time>
      </trkpt>
      <trkpt lat="45.90856" lon="4.81213">
        <ele>172.3</ele>
        <time>2019-09-15T15:28:00.000Z</time>
      </trkpt>
      <trkpt lat="45.90825" lon="4.81201">
        <ele>172.3</ele>
        <time>2019-09-15T15:28:05.000Z</time>
      </trkpt>
      <trkpt lat="45.90792" lon="4.81192">
        <ele>172.3</ele>
        <time>2019-09-15T15:28:10.000Z</time>
      </trkpt>
      <trkpt lat="45.90761" lon="4.81185">
        <ele>173.29</ele>
        <time>2019-09-15T15:28:15.000Z</time>
      </trkpt>
      <trkpt lat="45.90731" lon="4.81171">
        <ele>173.06</ele>
        <time>2019-09-15T15:28:20.000Z</time>
      </trkpt>
      <trkpt lat="45.90701" lon="4.81154">
        <ele>173.49</ele>
        <time>2019-09-15T15:28:25.000Z</time>
      </trkpt>
      <trkpt lat="45.90673" lon="4.81134">
        <ele>173.3</ele>
        <time>2019-09-15T15:28:30.000Z</time>
      </trkpt>
      <trkpt lat="45.90646" lon="4.81113">
        <ele>172.55</ele>
        <time>2019-09-15T15:28:35.000Z</time>
      </trkpt>
      <trkpt lat="45.9062" lon="4.81087">
        <ele>173.3</ele>
        <time>2019-09-15T15:28:40.000Z</time>
      </trkpt>
      <trkpt lat="45.90597" lon="4.81063">
        <ele>172.6</ele>
        <time>2019-09-15T15:28:45.000Z</time>
      </trkpt>
      <trkpt lat="45.90583" lon="4.81047">
        <ele>172.3</ele>
        <time>2019-09-15T15:28:50.000Z</time>
      </trkpt>
      <trkpt lat="45.90576" lon="4.81038">
        <ele>172.29</ele>
        <time>2019-09-15T15:29:04.000Z</time>
      </trkpt>
      <trkpt lat="45.90562" lon="4.81021">
        <ele>170.55</ele>
        <time>2019-09-15T15:29:09.000Z</time>
      </trkpt>
      <trkpt lat="45.90547" lon="4.81008">
        <ele>172.23</ele>
        <time>2019-09-15T15:29:14.000Z</time>
      </trkpt>
      <trkpt lat="45.90534" lon="4.80989">
        <ele>172.34</ele>
        <time>2019-09-15T15:29:19.000Z</time>
      </trkpt>
      <trkpt lat="45.90518" lon="4.80969">
        <ele>172.29</ele>
        <time>2019-09-15T15:29:24.000Z</time>
      </trkpt>
      <trkpt lat="45.90499" lon="4.80948">
        <ele>171.29</ele>
        <time>2019-09-15T15:29:29.000Z</time>
      </trkpt>
      <trkpt lat="45.90483" lon="4.80924">
        <ele>172.04</ele>
        <time>2019-09-15T15:29:34.000Z</time>
      </trkpt>
      <trkpt lat="45.90473" lon="4.80899">
        <ele>172.29</ele>
        <time>2019-09-15T15:29:39.000Z</time>
      </trkpt>
      <trkpt lat="45.90459" lon="4.80879">
        <ele>171</ele>
        <time>2019-09-15T15:29:44.000Z</time>
      </trkpt>
      <trkpt lat="45.90446" lon="4.80851">
        <ele>173.09</ele>
        <time>2019-09-15T15:29:49.000Z</time>
      </trkpt>
      <trkpt lat="45.90436" lon="4.80822">
        <ele>172.11</ele>
        <time>2019-09-15T15:29:54.000Z</time>
      </trkpt>
      <trkpt lat="45.90422" lon="4.80794">
        <ele>172.35</ele>
        <time>2019-09-15T15:29:59.000Z</time>
      </trkpt>
      <trkpt lat="45.90406" lon="4.80772">
        <ele>170.54</ele>
        <time>2019-09-15T15:30:04.000Z</time>
      </trkpt>
      <trkpt lat="45.9039" lon="4.8075">
        <ele>170.28</ele>
        <time>2019-09-15T15:30:09.000Z</time>
      </trkpt>
      <trkpt lat="45.90376" lon="4.80719">
        <ele>172.03</ele>
        <time>2019-09-15T15:30:14.000Z</time>
      </trkpt>
      <trkpt lat="45.90356" lon="4.80694">
        <ele>171.3</ele>
        <time>2019-09-15T15:30:19.000Z</time>
      </trkpt>
      <trkpt lat="45.90339" lon="4.80675">
        <ele>171.29</ele>
        <time>2019-09-15T15:30:24.000Z</time>
      </trkpt>
      <trkpt lat="45.90317" lon="4.80643">
        <ele>171.28</ele>
        <time>2019-09-15T15:30:29.000Z</time>
      </trkpt>
      <trkpt lat="45.90292" lon="4.80623">
        <ele>170.3</ele>
        <time>2019-09-15T15:30:34.000Z</time>
      </trkpt>
      <trkpt lat="45.90268" lon="4.80602">
        <ele>171.22</ele>
        <time>2019-09-15T15:30:39.000Z</time>
      </trkpt>
      <trkpt lat="45.90244" lon="4.80583">
        <ele>170.35</ele>
        <time>2019-09-15T15:30:44.000Z</time>
      </trkpt>
      <trkpt lat="45.90217" lon="4.80566">
        <ele>170.28</ele>
        <time>2019-09-15T15:30:49.000Z</time>
      </trkpt>
      <trkpt lat="45.90191" lon="4.80551">
        <ele>170.53</ele>
        <time>2019-09-15T15:30:54.000Z</time>
      </trkpt>
      <trkpt lat="45.90163" lon="4.80539">
        <ele>170.28</ele>
        <time>2019-09-15T15:30:59.000Z</time>
      </trkpt>
      <trkpt lat="45.90133" lon="4.80528">
        <ele>170.28</ele>
        <time>2019-09-15T15:31:04.000Z</time>
      </trkpt>
      <trkpt lat="45.90103" lon="4.80521">
        <ele>170.51</ele>
        <time>2019-09-15T15:31:09.000Z</time>
      </trkpt>
      <trkpt lat="45.90076" lon="4.80514">
        <ele>170.05</ele>
        <time>2019-09-15T15:31:14.000Z</time>
      </trkpt>
      <trkpt lat="45.90046" lon="4.80508">
        <ele>169.53</ele>
        <time>2019-09-15T15:31:19.000Z</time>
      </trkpt>
      <trkpt lat="45.90018" lon="4.80504">
        <ele>171.03</ele>
        <time>2019-09-15T15:31:24.000Z</time>
      </trkpt>
      <trkpt lat="45.89988" lon="4.80504">
        <ele>170.72</ele>
        <time>2019-09-15T15:31:29.000Z</time>
      </trkpt>
      <trkpt lat="45.89959" lon="4.80511">
        <ele>168.28</ele>
        <time>2019-09-15T15:31:34.000Z</time>
      </trkpt>
      <trkpt lat="45.89929" lon="4.80518">
        <ele>168.5</ele>
        <time>2019-09-15T15:31:39.000Z</time>
      </trkpt>
      <trkpt lat="45.89902" lon="4.80533">
        <ele>168.22</ele>
        <time>2019-09-15T15:31:44.000Z</time>
      </trkpt>
      <trkpt lat="45.89876" lon="4.8055">
        <ele>168.27</ele>
        <time>2019-09-15T15:31:49.000Z</time>
      </trkpt>
      <trkpt lat="45.89848" lon="4.80566">
        <ele>170.02</ele>
        <time>2019-09-15T15:31:54.000Z</time>
      </trkpt>
      <trkpt lat="45.89826" lon="4.8058">
        <ele>170.27</ele>
        <time>2019-09-15T15:31:59.000Z</time>
      </trkpt>
      <trkpt lat="45.89817" lon="4.8059">
        <ele>168.53</ele>
        <time>2019-09-15T15:32:04.000Z</time>
      </trkpt>
      <trkpt lat="45.89799" lon="4.80602">
        <ele>169.28</ele>
        <time>2019-09-15T15:32:09.000Z</time>
      </trkpt>
      <trkpt lat="45.89777" lon="4.80619">
        <ele>169.22</ele>
        <time>2019-09-15T15:32:14.000Z</time>
      </trkpt>
      <trkpt lat="45.89755" lon="4.8064">
        <ele>168.34</ele>
        <time>2019-09-15T15:32:19.000Z</time>
      </trkpt>
      <trkpt lat="45.89731" lon="4.80661">
        <ele>167.34</ele>
        <time>2019-09-15T15:32:24.000Z</time>
      </trkpt>
      <trkpt lat="45.89702" lon="4.80677">
        <ele>169.15</ele>
        <time>2019-09-15T15:32:29.000Z</time>
      </trkpt>
      <trkpt lat="45.89677" lon="4.80691">
        <ele>170.26</ele>
        <time>2019-09-15T15:32:34.000Z</time>
      </trkpt>
      <trkpt lat="45.89653" lon="4.80705">
        <ele>168.4</ele>
        <time>2019-09-15T15:32:39.000Z</time>
      </trkpt>
      <trkpt lat="45.89625" lon="4.8071">
        <ele>167.28</ele>
        <time>2019-09-15T15:32:44.000Z</time>
      </trkpt>
      <trkpt lat="45.896" lon="4.80711">
        <ele>166.29</ele>
        <time>2019-09-15T15:32:49.000Z</time>
      </trkpt>
      <trkpt lat="45.89583" lon="4.80711">
        <ele>166.34</ele>
        <time>2019-09-15T15:32:54.000Z</time>
      </trkpt>
      <trkpt lat="45.89559" lon="4.8072">
        <ele>167.26</ele>
        <time>2019-09-15T15:32:59.000Z</time>
      </trkpt>
      <trkpt lat="45.89527" lon="4.80739">
        <ele>165.46</ele>
        <time>2019-09-15T15:33:04.000Z</time>
      </trkpt>
      <trkpt lat="45.89499" lon="4.80751">
        <ele>170.93</ele>
        <time>2019-09-15T15:33:09.000Z</time>
      </trkpt>
      <trkpt lat="45.89472" lon="4.80768">
        <ele>168.05</ele>
        <time>2019-09-15T15:33:14.000Z</time>
      </trkpt>
      <trkpt lat="45.89444" lon="4.80785">
        <ele>168.23</ele>
        <time>2019-09-15T15:33:19.000Z</time>
      </trkpt>
      <trkpt lat="45.89435" lon="4.80791">
        <ele>171.26</ele>
        <time>2019-09-15T15:33:26.000Z</time>
      </trkpt>
      <trkpt lat="45.89425" lon="4.80797">
        <ele>173.02</ele>
        <time>2019-09-15T15:33:31.000Z</time>
      </trkpt>
      <trkpt lat="45.89409" lon="4.80807">
        <ele>173.28</ele>
        <time>2019-09-15T15:33:36.000Z</time>
      </trkpt>
      <trkpt lat="45.89391" lon="4.80818">
        <ele>174.03</ele>
        <time>2019-09-15T15:33:41.000Z</time>
      </trkpt>
      <trkpt lat="45.89373" lon="4.80829">
        <ele>172.3</ele>
        <time>2019-09-15T15:33:46.000Z</time>
      </trkpt>
      <trkpt lat="45.89356" lon="4.8084">
        <ele>171.34</ele>
        <time>2019-09-15T15:33:51.000Z</time>
      </trkpt>
      <trkpt lat="45.89336" lon="4.80849">
        <ele>172.21</ele>
        <time>2019-09-15T15:33:56.000Z</time>
      </trkpt>
      <trkpt lat="45.89316" lon="4.80861">
        <ele>172.32</ele>
        <time>2019-09-15T15:34:01.000Z</time>
      </trkpt>
      <trkpt lat="45.89296" lon="4.80872">
        <ele>173.27</ele>
        <time>2019-09-15T15:34:06.000Z</time>
      </trkpt>
      <trkpt lat="45.89276" lon="4.80885">
        <ele>172.34</ele>
        <time>2019-09-15T15:34:11.000Z</time>
      </trkpt>
      <trkpt lat="45.89257" lon="4.80898">
        <ele>174.01</ele>
        <time>2019-09-15T15:34:16.000Z</time>
      </trkpt>
      <trkpt lat="45.89237" lon="4.80915">
        <ele>175.01</ele>
        <time>2019-09-15T15:34:21.000Z</time>
      </trkpt>
      <trkpt lat="45.89224" lon="4.80926">
        <ele>174.27</ele>
        <time>2019-09-15T15:34:26.000Z</time>
      </trkpt>
      <trkpt lat="45.89215" lon="4.80932">
        <ele>172.28</ele>
        <time>2019-09-15T15:34:31.000Z</time>
      </trkpt>
      <trkpt lat="45.89203" lon="4.80938">
        <ele>171.34</ele>
        <time>2019-09-15T15:34:36.000Z</time>
      </trkpt>
      <trkpt lat="45.89187" lon="4.80948">
        <ele>170.03</ele>
        <time>2019-09-15T15:34:41.000Z</time>
      </trkpt>
      <trkpt lat="45.89169" lon="4.80962">
        <ele>170.28</ele>
        <time>2019-09-15T15:34:46.000Z</time>
      </trkpt>
      <trkpt lat="45.89147" lon="4.80979">
        <ele>171.27</ele>
        <time>2019-09-15T15:34:51.000Z</time>
      </trkpt>
      <trkpt lat="45.89127" lon="4.80994">
        <ele>171.52</ele>
        <time>2019-09-15T15:34:56.000Z</time>
      </trkpt>
      <trkpt lat="45.89108" lon="4.81009">
        <ele>171.28</ele>
        <time>2019-09-15T15:35:01.000Z</time>
      </trkpt>
      <trkpt lat="45.89086" lon="4.81027">
        <ele>170.34</ele>
        <time>2019-09-15T15:35:06.000Z</time>
      </trkpt>
      <trkpt lat="45.89064" lon="4.81041">
        <ele>171.46</ele>
        <time>2019-09-15T15:35:11.000Z</time>
      </trkpt>
      <trkpt lat="45.8904" lon="4.8106">
        <ele>174.19</ele>
        <time>2019-09-15T15:35:16.000Z</time>
      </trkpt>
      <trkpt lat="45.8902" lon="4.81075">
        <ele>173.51</ele>
        <time>2019-09-15T15:35:21.000Z</time>
      </trkpt>
      <trkpt lat="45.88999" lon="4.81089">
        <ele>172.25</ele>
        <time>2019-09-15T15:35:26.000Z</time>
      </trkpt>
      <trkpt lat="45.88981" lon="4.81099">
        <ele>172.21</ele>
        <time>2019-09-15T15:35:31.000Z</time>
      </trkpt>
      <trkpt lat="45.88955" lon="4.81117">
        <ele>170.31</ele>
        <time>2019-09-15T15:35:36.000Z</time>
      </trkpt>
      <trkpt lat="45.88935" lon="4.81132">
        <ele>169.53</ele>
        <time>2019-09-15T15:35:41.000Z</time>
      </trkpt>
      <trkpt lat="45.88916" lon="4.81148">
        <ele>170.98</ele>
        <time>2019-09-15T15:35:46.000Z</time>
      </trkpt>
      <trkpt lat="45.88899" lon="4.81165">
        <ele>172.21</ele>
        <time>2019-09-15T15:35:51.000Z</time>
      </trkpt>
      <trkpt lat="45.88881" lon="4.8118">
        <ele>174.66</ele>
        <time>2019-09-15T15:35:56.000Z</time>
      </trkpt>
      <trkpt lat="45.88863" lon="4.81196">
        <ele>176.96</ele>
        <time>2019-09-15T15:36:01.000Z</time>
      </trkpt>
      <trkpt lat="45.88845" lon="4.81212">
        <ele>175.53</ele>
        <time>2019-09-15T15:36:06.000Z</time>
      </trkpt>
      <trkpt lat="45.88826" lon="4.81231">
        <ele>176.26</ele>
        <time>2019-09-15T15:36:11.000Z</time>
      </trkpt>
      <trkpt lat="45.88806" lon="4.81251">
        <ele>175.23</ele>
        <time>2019-09-15T15:36:16.000Z</time>
      </trkpt>
      <trkpt lat="45.88784" lon="4.81272">
        <ele>176.09</ele>
        <time>2019-09-15T15:36:21.000Z</time>
      </trkpt>
      <trkpt lat="45.88762" lon="4.81297">
        <ele>177.96</ele>
        <time>2019-09-15T15:36:26.000Z</time>
      </trkpt>
      <trkpt lat="45.88742" lon="4.81322">
        <ele>179.46</ele>
        <time>2019-09-15T15:36:31.000Z</time>
      </trkpt>
      <trkpt lat="45.88725" lon="4.81344">
        <ele>178.29</ele>
        <time>2019-09-15T15:36:36.000Z</time>
      </trkpt>
      <trkpt lat="45.88708" lon="4.81366">
        <ele>176.49</ele>
        <time>2019-09-15T15:36:41.000Z</time>
      </trkpt>
      <trkpt lat="45.88689" lon="4.81388">
        <ele>176.22</ele>
        <time>2019-09-15T15:36:46.000Z</time>
      </trkpt>
      <trkpt lat="45.88671" lon="4.81412">
        <ele>173.09</ele>
        <time>2019-09-15T15:36:51.000Z</time>
      </trkpt>
      <trkpt lat="45.88657" lon="4.81433">
        <ele>169.28</ele>
        <time>2019-09-15T15:36:56.000Z</time>
      </trkpt>
      <trkpt lat="45.88638" lon="4.81458">
        <ele>171.21</ele>
        <time>2019-09-15T15:37:01.000Z</time>
      </trkpt>
      <trkpt lat="45.8862" lon="4.81484">
        <ele>172.28</ele>
        <time>2019-09-15T15:37:06.000Z</time>
      </trkpt>
      <trkpt lat="45.88601" lon="4.81508">
        <ele>171.34</ele>
        <time>2019-09-15T15:37:11.000Z</time>
      </trkpt>
      <trkpt lat="45.88582" lon="4.81533">
        <ele>172.47</ele>
        <time>2019-09-15T15:37:16.000Z</time>
      </trkpt>
      <trkpt lat="45.88562" lon="4.81557">
        <ele>172.28</ele>
        <time>2019-09-15T15:37:21.000Z</time>
      </trkpt>
      <trkpt lat="45.88542" lon="4.81579">
        <ele>171.78</ele>
        <time>2019-09-15T15:37:26.000Z</time>
      </trkpt>
      <trkpt lat="45.88523" lon="4.81601">
        <ele>168.41</ele>
        <time>2019-09-15T15:37:31.000Z</time>
      </trkpt>
      <trkpt lat="45.88503" lon="4.81624">
        <ele>169.02</ele>
        <time>2019-09-15T15:37:36.000Z</time>
      </trkpt>
      <trkpt lat="45.88486" lon="4.81647">
        <ele>168.28</ele>
        <time>2019-09-15T15:37:41.000Z</time>
      </trkpt>
      <trkpt lat="45.88467" lon="4.81668">
        <ele>165.55</ele>
        <time>2019-09-15T15:37:46.000Z</time>
      </trkpt>
      <trkpt lat="45.88447" lon="4.81697">
        <ele>172.02</ele>
        <time>2019-09-15T15:37:51.000Z</time>
      </trkpt>
      <trkpt lat="45.8843" lon="4.81724">
        <ele>171.34</ele>
        <time>2019-09-15T15:37:56.000Z</time>
      </trkpt>
      <trkpt lat="45.88413" lon="4.81751">
        <ele>171.14</ele>
        <time>2019-09-15T15:38:01.000Z</time>
      </trkpt>
      <trkpt lat="45.88399" lon="4.8178">
        <ele>172.27</ele>
        <time>2019-09-15T15:38:06.000Z</time>
      </trkpt>
      <trkpt lat="45.88384" lon="4.81805">
        <ele>171.54</ele>
        <time>2019-09-15T15:38:11.000Z</time>
      </trkpt>
      <trkpt lat="45.88369" lon="4.81837">
        <ele>169.33</ele>
        <time>2019-09-15T15:38:16.000Z</time>
      </trkpt>
      <trkpt lat="45.88355" lon="4.81869">
        <ele>170.11</ele>
        <time>2019-09-15T15:38:21.000Z</time>
      </trkpt>
      <trkpt lat="45.88343" lon="4.819">
        <ele>170.47</ele>
        <time>2019-09-15T15:38:26.000Z</time>
      </trkpt>
      <trkpt lat="45.8833" lon="4.8193">
        <ele>171.03</ele>
        <time>2019-09-15T15:38:31.000Z</time>
      </trkpt>
      <trkpt lat="45.88318" lon="4.81965">
        <ele>172.27</ele>
        <time>2019-09-15T15:38:36.000Z</time>
      </trkpt>
      <trkpt lat="45.88303" lon="4.81999">
        <ele>173.03</ele>
        <time>2019-09-15T15:38:41.000Z</time>
      </trkpt>
      <trkpt lat="45.88289" lon="4.82035">
        <ele>174.28</ele>
        <time>2019-09-15T15:38:46.000Z</time>
      </trkpt>
      <trkpt lat="45.88275" lon="4.82071">
        <ele>173.35</ele>
        <time>2019-09-15T15:38:51.000Z</time>
      </trkpt>
      <trkpt lat="45.88262" lon="4.82105">
        <ele>172.29</ele>
        <time>2019-09-15T15:38:56.000Z</time>
      </trkpt>
      <trkpt lat="45.88249" lon="4.82137">
        <ele>173.22</ele>
        <time>2019-09-15T15:39:01.000Z</time>
      </trkpt>
      <trkpt lat="45.88238" lon="4.8217">
        <ele>172.36</ele>
        <time>2019-09-15T15:39:06.000Z</time>
      </trkpt>
      <trkpt lat="45.8823" lon="4.82202">
        <ele>173.29</ele>
        <time>2019-09-15T15:39:11.000Z</time>
      </trkpt>
      <trkpt lat="45.88222" lon="4.8223">
        <ele>173.33</ele>
        <time>2019-09-15T15:39:16.000Z</time>
      </trkpt>
      <trkpt lat="45.88208" lon="4.82258">
        <ele>172.3</ele>
        <time>2019-09-15T15:39:21.000Z</time>
      </trkpt>
      <trkpt lat="45.88203" lon="4.82292">
        <ele>171.47</ele>
        <time>2019-09-15T15:39:26.000Z</time>
      </trkpt>
      <trkpt lat="45.88195" lon="4.82319">
        <ele>170.72</ele>
        <time>2019-09-15T15:39:31.000Z</time>
      </trkpt>
      <trkpt lat="45.88188" lon="4.82351">
        <ele>170.29</ele>
        <time>2019-09-15T15:39:36.000Z</time>
      </trkpt>
      <trkpt lat="45.8818" lon="4.82383">
        <ele>172.02</ele>
        <time>2019-09-15T15:39:41.000Z</time>
      </trkpt>
      <trkpt lat="45.88168" lon="4.82414">
        <ele>171.29</ele>
        <time>2019-09-15T15:39:46.000Z</time>
      </trkpt>
      <trkpt lat="45.8816" lon="4.82449">
        <ele>169.3</ele>
        <time>2019-09-15T15:39:51.000Z</time>
      </trkpt>
      <trkpt lat="45.88151" lon="4.8248">
        <ele>166.41</ele>
        <time>2019-09-15T15:39:56.000Z</time>
      </trkpt>
      <trkpt lat="45.88143" lon="4.82515">
        <ele>168.32</ele>
        <time>2019-09-15T15:40:01.000Z</time>
      </trkpt>
      <trkpt lat="45.88135" lon="4.8255">
        <ele>169.23</ele>
        <time>2019-09-15T15:40:06.000Z</time>
      </trkpt>
      <trkpt lat="45.88127" lon="4.82587">
        <ele>172.21</ele>
        <time>2019-09-15T15:40:11.000Z</time>
      </trkpt>
      <trkpt lat="45.88118" lon="4.82623">
        <ele>172.53</ele>
        <time>2019-09-15T15:40:16.000Z</time>
      </trkpt>
      <trkpt lat="45.88107" lon="4.82658">
        <ele>171.31</ele>
        <time>2019-09-15T15:40:21.000Z</time>
      </trkpt>
      <trkpt lat="45.88099" lon="4.82694">
        <ele>171.03</ele>
        <time>2019-09-15T15:40:26.000Z</time>
      </trkpt>
      <trkpt lat="45.88092" lon="4.82732">
        <ele>171.54</ele>
        <time>2019-09-15T15:40:31.000Z</time>
      </trkpt>
      <trkpt lat="45.88088" lon="4.82763">
        <ele>173.53</ele>
        <time>2019-09-15T15:40:36.000Z</time>
      </trkpt>
      <trkpt lat="45.88084" lon="4.82796">
        <ele>173.24</ele>
        <time>2019-09-15T15:40:41.000Z</time>
      </trkpt>
      <trkpt lat="45.88077" lon="4.82836">
        <ele>171.55</ele>
        <time>2019-09-15T15:40:46.000Z</time>
      </trkpt>
      <trkpt lat="45.8807" lon="4.82878">
        <ele>170.55</ele>
        <time>2019-09-15T15:40:51.000Z</time>
      </trkpt>
      <trkpt lat="45.88065" lon="4.8292">
        <ele>172.05</ele>
        <time>2019-09-15T15:40:56.000Z</time>
      </trkpt>
      <trkpt lat="45.88055" lon="4.82963">
        <ele>169.38</ele>
        <time>2019-09-15T15:41:01.000Z</time>
      </trkpt>
      <trkpt lat="45.88051" lon="4.83006">
        <ele>171.1</ele>
        <time>2019-09-15T15:41:06.000Z</time>
      </trkpt>
      <trkpt lat="45.88047" lon="4.83048">
        <ele>171.3</ele>
        <time>2019-09-15T15:41:11.000Z</time>
      </trkpt>
      <trkpt lat="45.88043" lon="4.83087">
        <ele>170.32</ele>
        <time>2019-09-15T15:41:16.000Z</time>
      </trkpt>
      <trkpt lat="45.8804" lon="4.83126">
        <ele>171.3</ele>
        <time>2019-09-15T15:41:21.000Z</time>
      </trkpt>
      <trkpt lat="45.88033" lon="4.83171">
        <ele>169.62</ele>
        <time>2019-09-15T15:41:26.000Z</time>
      </trkpt>
      <trkpt lat="45.88029" lon="4.83215">
        <ele>164.7</ele>
        <time>2019-09-15T15:41:31.000Z</time>
      </trkpt>
      <trkpt lat="45.88026" lon="4.83253">
        <ele>166.99</ele>
        <time>2019-09-15T15:41:36.000Z</time>
      </trkpt>
      <trkpt lat="45.88019" lon="4.83295">
        <ele>169.11</ele>
        <time>2019-09-15T15:41:41.000Z</time>
      </trkpt>
      <trkpt lat="45.88015" lon="4.83334">
        <ele>170.24</ele>
        <time>2019-09-15T15:41:46.000Z</time>
      </trkpt>
      <trkpt lat="45.88009" lon="4.83376">
        <ele>170.32</ele>
        <time>2019-09-15T15:41:51.000Z</time>
      </trkpt>
      <trkpt lat="45.87999" lon="4.83414">
        <ele>170.31</ele>
        <time>2019-09-15T15:41:56.000Z</time>
      </trkpt>
      <trkpt lat="45.8799" lon="4.83454">
        <ele>171.1</ele>
        <time>2019-09-15T15:42:01.000Z</time>
      </trkpt>
      <trkpt lat="45.87978" lon="4.83493">
        <ele>173.17</ele>
        <time>2019-09-15T15:42:06.000Z</time>
      </trkpt>
      <trkpt lat="45.87971" lon="4.83532">
        <ele>171.4</ele>
        <time>2019-09-15T15:42:11.000Z</time>
      </trkpt>
      <trkpt lat="45.87964" lon="4.83565">
        <ele>170.62</ele>
        <time>2019-09-15T15:42:16.000Z</time>
      </trkpt>
      <trkpt lat="45.87947" lon="4.83606">
        <ele>169.37</ele>
        <time>2019-09-15T15:42:21.000Z</time>
      </trkpt>
      <trkpt lat="45.87936" lon="4.83641">
        <ele>170.4</ele>
        <time>2019-09-15T15:42:26.000Z</time>
      </trkpt>
      <trkpt lat="45.87926" lon="4.83646">
        <ele>172.29</ele>
        <time>2019-09-15T15:42:33.000Z</time>
      </trkpt>
      <trkpt lat="45.87913" lon="4.8365">
        <ele>172.37</ele>
        <time>2019-09-15T15:42:38.000Z</time>
      </trkpt>
      <trkpt lat="45.87898" lon="4.8367">
        <ele>171.62</ele>
        <time>2019-09-15T15:42:43.000Z</time>
      </trkpt>
      <trkpt lat="45.8788" lon="4.83695">
        <ele>171.5</ele>
        <time>2019-09-15T15:42:48.000Z</time>
      </trkpt>
      <trkpt lat="45.87861" lon="4.83718">
        <ele>172.31</ele>
        <time>2019-09-15T15:42:53.000Z</time>
      </trkpt>
      <trkpt lat="45.8784" lon="4.83738">
        <ele>172.37</ele>
        <time>2019-09-15T15:42:58.000Z</time>
      </trkpt>
      <trkpt lat="45.87816" lon="4.83755">
        <ele>173.31</ele>
        <time>2019-09-15T15:43:03.000Z</time>
      </trkpt>
      <trkpt lat="45.87793" lon="4.83771">
        <ele>172.26</ele>
        <time>2019-09-15T15:43:08.000Z</time>
      </trkpt>
      <trkpt lat="45.87773" lon="4.83783">
        <ele>169.57</ele>
        <time>2019-09-15T15:43:13.000Z</time>
      </trkpt>
      <trkpt lat="45.87752" lon="4.83798">
        <ele>168.52</ele>
        <time>2019-09-15T15:43:18.000Z</time>
      </trkpt>
      <trkpt lat="45.87725" lon="4.83801">
        <ele>167.21</ele>
        <time>2019-09-15T15:43:23.000Z</time>
      </trkpt>
      <trkpt lat="45.87706" lon="4.83801">
        <ele>170.99</ele>
        <time>2019-09-15T15:43:28.000Z</time>
      </trkpt>
      <trkpt lat="45.87685" lon="4.83802">
        <ele>172.06</ele>
        <time>2019-09-15T15:43:33.000Z</time>
      </trkpt>
      <trkpt lat="45.87673" lon="4.83809">
        <ele>174.05</ele>
        <time>2019-09-15T15:43:38.000Z</time>
      </trkpt>
      <trkpt lat="45.8766" lon="4.83811">
        <ele>174.31</ele>
        <time>2019-09-15T15:43:43.000Z</time>
      </trkpt>
      <trkpt lat="45.87643" lon="4.83815">
        <ele>175.06</ele>
        <time>2019-09-15T15:43:48.000Z</time>
      </trkpt>
      <trkpt lat="45.87623" lon="4.83811">
        <ele>174.12</ele>
        <time>2019-09-15T15:43:53.000Z</time>
      </trkpt>
      <trkpt lat="45.87601" lon="4.83805">
        <ele>172.5</ele>
        <time>2019-09-15T15:43:58.000Z</time>
      </trkpt>
      <trkpt lat="45.87576" lon="4.83798">
        <ele>171.37</ele>
        <time>2019-09-15T15:44:03.000Z</time>
      </trkpt>
      <trkpt lat="45.87547" lon="4.83779">
        <ele>171.3</ele>
        <time>2019-09-15T15:44:08.000Z</time>
      </trkpt>
      <trkpt lat="45.87517" lon="4.83771">
        <ele>171.37</ele>
        <time>2019-09-15T15:44:13.000Z</time>
      </trkpt>
      <trkpt lat="45.87488" lon="4.83769">
        <ele>170.36</ele>
        <time>2019-09-15T15:44:18.000Z</time>
      </trkpt>
      <trkpt lat="45.87459" lon="4.83762">
        <ele>170.31</ele>
        <time>2019-09-15T15:44:23.000Z</time>
      </trkpt>
      <trkpt lat="45.8743" lon="4.83755">
        <ele>170.31</ele>
        <time>2019-09-15T15:44:28.000Z</time>
      </trkpt>
      <trkpt lat="45.874" lon="4.83756">
        <ele>169.31</ele>
        <time>2019-09-15T15:44:33.000Z</time>
      </trkpt>
      <trkpt lat="45.8737" lon="4.83748">
        <ele>170.36</ele>
        <time>2019-09-15T15:44:38.000Z</time>
      </trkpt>
      <trkpt lat="45.87341" lon="4.83743">
        <ele>169.32</ele>
        <time>2019-09-15T15:44:43.000Z</time>
      </trkpt>
      <trkpt lat="45.87312" lon="4.83736">
        <ele>170.24</ele>
        <time>2019-09-15T15:44:48.000Z</time>
      </trkpt>
      <trkpt lat="45.87283" lon="4.83732">
        <ele>169.37</ele>
        <time>2019-09-15T15:44:53.000Z</time>
      </trkpt>
      <trkpt lat="45.87254" lon="4.83724">
        <ele>169.31</ele>
        <time>2019-09-15T15:44:58.000Z</time>
      </trkpt>
      <trkpt lat="45.87226" lon="4.83726">
        <ele>169.24</ele>
        <time>2019-09-15T15:45:03.000Z</time>
      </trkpt>
      <trkpt lat="45.87211" lon="4.83727">
        <ele>168.35</ele>
        <time>2019-09-15T15:45:08.000Z</time>
      </trkpt>
      <trkpt lat="45.8719" lon="4.83726">
        <ele>170.05</ele>
        <time>2019-09-15T15:45:13.000Z</time>
      </trkpt>
      <trkpt lat="45.87167" lon="4.83722">
        <ele>168.51</ele>
        <time>2019-09-15T15:45:18.000Z</time>
      </trkpt>
      <trkpt lat="45.87142" lon="4.83716">
        <ele>167.37</ele>
        <time>2019-09-15T15:45:23.000Z</time>
      </trkpt>
      <trkpt lat="45.87119" lon="4.83711">
        <ele>169.24</ele>
        <time>2019-09-15T15:45:28.000Z</time>
      </trkpt>
      <trkpt lat="45.87095" lon="4.83707">
        <ele>167.57</ele>
        <time>2019-09-15T15:45:33.000Z</time>
      </trkpt>
      <trkpt lat="45.87071" lon="4.83707">
        <ele>165.56</ele>
        <time>2019-09-15T15:45:38.000Z</time>
      </trkpt>
      <trkpt lat="45.87047" lon="4.83704">
        <ele>167.04</ele>
        <time>2019-09-15T15:45:43.000Z</time>
      </trkpt>
      <trkpt lat="45.8703" lon="4.83704">
        <ele>168.05</ele>
        <time>2019-09-15T15:45:48.000Z</time>
      </trkpt>
      <trkpt lat="45.87009" lon="4.83701">
        <ele>169.05</ele>
        <time>2019-09-15T15:45:53.000Z</time>
      </trkpt>
      <trkpt lat="45.86988" lon="4.83701">
        <ele>170.05</ele>
        <time>2019-09-15T15:45:58.000Z</time>
      </trkpt>
      <trkpt lat="45.86968" lon="4.83704">
        <ele>170.24</ele>
        <time>2019-09-15T15:46:03.000Z</time>
      </trkpt>
      <trkpt lat="45.86946" lon="4.83704">
        <ele>168.57</ele>
        <time>2019-09-15T15:46:08.000Z</time>
      </trkpt>
      <trkpt lat="45.86921" lon="4.8371">
        <ele>168.3</ele>
        <time>2019-09-15T15:46:13.000Z</time>
      </trkpt>
      <trkpt lat="45.86895" lon="4.83715">
        <ele>169.24</ele>
        <time>2019-09-15T15:46:18.000Z</time>
      </trkpt>
      <trkpt lat="45.86871" lon="4.83719">
        <ele>170.3</ele>
        <time>2019-09-15T15:46:23.000Z</time>
      </trkpt>
      <trkpt lat="45.86848" lon="4.83738">
        <ele>170.29</ele>
        <time>2019-09-15T15:46:28.000Z</time>
      </trkpt>
      <trkpt lat="45.86822" lon="4.83756">
        <ele>171.36</ele>
        <time>2019-09-15T15:46:33.000Z</time>
      </trkpt>
      <trkpt lat="45.86799" lon="4.83769">
        <ele>171.3</ele>
        <time>2019-09-15T15:46:38.000Z</time>
      </trkpt>
      <trkpt lat="45.86774" lon="4.83786">
        <ele>173.05</ele>
        <time>2019-09-15T15:46:43.000Z</time>
      </trkpt>
      <trkpt lat="45.86754" lon="4.83805">
        <ele>172.5</ele>
        <time>2019-09-15T15:46:48.000Z</time>
      </trkpt>
      <trkpt lat="45.86735" lon="4.8382">
        <ele>170.61</ele>
        <time>2019-09-15T15:46:53.000Z</time>
      </trkpt>
      <trkpt lat="45.86714" lon="4.83839">
        <ele>170.05</ele>
        <time>2019-09-15T15:46:58.000Z</time>
      </trkpt>
      <trkpt lat="45.86693" lon="4.83862">
        <ele>171.07</ele>
        <time>2019-09-15T15:47:03.000Z</time>
      </trkpt>
      <trkpt lat="45.86674" lon="4.83884">
        <ele>172.36</ele>
        <time>2019-09-15T15:47:08.000Z</time>
      </trkpt>
      <trkpt lat="45.86654" lon="4.83907">
        <ele>173.3</ele>
        <time>2019-09-15T15:47:13.000Z</time>
      </trkpt>
      <trkpt lat="45.86635" lon="4.8393">
        <ele>172.48</ele>
        <time>2019-09-15T15:47:18.000Z</time>
      </trkpt>
      <trkpt lat="45.86622" lon="4.83946">
        <ele>171.75</ele>
        <time>2019-09-15T15:47:23.000Z</time>
      </trkpt>
      <trkpt lat="45.86606" lon="4.83955">
        <ele>172.24</ele>
        <time>2019-09-15T15:47:28.000Z</time>
      </trkpt>
      <trkpt lat="45.86592" lon="4.83958">
        <ele>172.06</ele>
        <time>2019-09-15T15:47:33.000Z</time>
      </trkpt>
      <trkpt lat="45.86569" lon="4.83964">
        <ele>170.38</ele>
        <time>2019-09-15T15:47:38.000Z</time>
      </trkpt>
      <trkpt lat="45.86543" lon="4.83969">
        <ele>172.28</ele>
        <time>2019-09-15T15:47:43.000Z</time>
      </trkpt>
      <trkpt lat="45.86515" lon="4.83979">
        <ele>172.32</ele>
        <time>2019-09-15T15:47:48.000Z</time>
      </trkpt>
      <trkpt lat="45.86486" lon="4.83989">
        <ele>173.3</ele>
        <time>2019-09-15T15:47:53.000Z</time>
      </trkpt>
      <trkpt lat="45.86458" lon="4.83998">
        <ele>173.05</ele>
        <time>2019-09-15T15:47:58.000Z</time>
      </trkpt>
      <trkpt lat="45.86429" lon="4.8401">
        <ele>173.29</ele>
        <time>2019-09-15T15:48:03.000Z</time>
      </trkpt>
      <trkpt lat="45.864" lon="4.84018">
        <ele>172.3</ele>
        <time>2019-09-15T15:48:08.000Z</time>
      </trkpt>
      <trkpt lat="45.86371" lon="4.84024">
        <ele>171.23</ele>
        <time>2019-09-15T15:48:13.000Z</time>
      </trkpt>
      <trkpt lat="45.86342" lon="4.84031">
        <ele>171.8</ele>
        <time>2019-09-15T15:48:18.000Z</time>
      </trkpt>
      <trkpt lat="45.86315" lon="4.84038">
        <ele>171.31</ele>
        <time>2019-09-15T15:48:23.000Z</time>
      </trkpt>
      <trkpt lat="45.86286" lon="4.84044">
        <ele>172.28</ele>
        <time>2019-09-15T15:48:28.000Z</time>
      </trkpt>
      <trkpt lat="45.86257" lon="4.84052">
        <ele>174.03</ele>
        <time>2019-09-15T15:48:33.000Z</time>
      </trkpt>
      <trkpt lat="45.86227" lon="4.84059">
        <ele>175.3</ele>
        <time>2019-09-15T15:48:38.000Z</time>
      </trkpt>
      <trkpt lat="45.862" lon="4.84066">
        <ele>173.32</ele>
        <time>2019-09-15T15:48:43.000Z</time>
      </trkpt>
      <trkpt lat="45.86169" lon="4.84073">
        <ele>174.97</ele>
        <time>2019-09-15T15:48:48.000Z</time>
      </trkpt>
      <trkpt lat="45.86142" lon="4.84081">
        <ele>172.07</ele>
        <time>2019-09-15T15:48:53.000Z</time>
      </trkpt>
      <trkpt lat="45.86114" lon="4.84088">
        <ele>172.05</ele>
        <time>2019-09-15T15:48:58.000Z</time>
      </trkpt>
      <trkpt lat="45.86084" lon="4.84095">
        <ele>172.36</ele>
        <time>2019-09-15T15:49:03.000Z</time>
      </trkpt>
      <trkpt lat="45.86055" lon="4.84103">
        <ele>171.55</ele>
        <time>2019-09-15T15:49:08.000Z</time>
      </trkpt>
      <trkpt lat="45.86025" lon="4.8411">
        <ele>172.29</ele>
        <time>2019-09-15T15:49:13.000Z</time>
      </trkpt>
      <trkpt lat="45.85996" lon="4.84118">
        <ele>172.3</ele>
        <time>2019-09-15T15:49:18.000Z</time>
      </trkpt>
      <trkpt lat="45.85968" lon="4.84124">
        <ele>170.99</ele>
        <time>2019-09-15T15:49:23.000Z</time>
      </trkpt>
      <trkpt lat="45.85938" lon="4.84129">
        <ele>172.22</ele>
        <time>2019-09-15T15:49:28.000Z</time>
      </trkpt>
      <trkpt lat="45.85908" lon="4.84128">
        <ele>171.31</ele>
        <time>2019-09-15T15:49:33.000Z</time>
      </trkpt>
      <trkpt lat="45.85878" lon="4.84123">
        <ele>170.55</ele>
        <time>2019-09-15T15:49:38.000Z</time>
      </trkpt>
      <trkpt lat="45.85849" lon="4.84112">
        <ele>171.29</ele>
        <time>2019-09-15T15:49:43.000Z</time>
      </trkpt>
      <trkpt lat="45.85823" lon="4.84098">
        <ele>169.36</ele>
        <time>2019-09-15T15:49:48.000Z</time>
      </trkpt>
      <trkpt lat="45.85794" lon="4.84085">
        <ele>169.28</ele>
        <time>2019-09-15T15:49:53.000Z</time>
      </trkpt>
      <trkpt lat="45.85767" lon="4.8407">
        <ele>168.3</ele>
        <time>2019-09-15T15:49:58.000Z</time>
      </trkpt>
      <trkpt lat="45.8574" lon="4.84056">
        <ele>170.22</ele>
        <time>2019-09-15T15:50:03.000Z</time>
      </trkpt>
      <trkpt lat="45.85711" lon="4.84046">
        <ele>169.31</ele>
        <time>2019-09-15T15:50:08.000Z</time>
      </trkpt>
      <trkpt lat="45.85683" lon="4.84032">
        <ele>170.29</ele>
        <time>2019-09-15T15:50:13.000Z</time>
      </trkpt>
      <trkpt lat="45.85656" lon="4.84019">
        <ele>171.25</ele>
        <time>2019-09-15T15:50:18.000Z</time>
      </trkpt>
      <trkpt lat="45.85628" lon="4.84007">
        <ele>171.05</ele>
        <time>2019-09-15T15:50:23.000Z</time>
      </trkpt>
      <trkpt lat="45.85601" lon="4.83992">
        <ele>170.6</ele>
        <time>2019-09-15T15:50:28.000Z</time>
      </trkpt>
      <trkpt lat="45.85575" lon="4.83974">
        <ele>169.29</ele>
        <time>2019-09-15T15:50:33.000Z</time>
      </trkpt>
      <trkpt lat="45.85543" lon="4.8396">
        <ele>168.29</ele>
        <time>2019-09-15T15:50:38.000Z</time>
      </trkpt>
      <trkpt lat="45.85513" lon="4.83945">
        <ele>170.08</ele>
        <time>2019-09-15T15:50:43.000Z</time>
      </trkpt>
      <trkpt lat="45.85484" lon="4.83928">
        <ele>170.1</ele>
        <time>2019-09-15T15:50:48.000Z</time>
      </trkpt>
      <trkpt lat="45.85452" lon="4.83912">
        <ele>170.28</ele>
        <time>2019-09-15T15:50:53.000Z</time>
      </trkpt>
      <trkpt lat="45.85422" lon="4.83897">
        <ele>171.04</ele>
        <time>2019-09-15T15:50:58.000Z</time>
      </trkpt>
      <trkpt lat="45.85391" lon="4.83883">
        <ele>170.35</ele>
        <time>2019-09-15T15:51:03.000Z</time>
      </trkpt>
      <trkpt lat="45.85358" lon="4.83869">
        <ele>170.35</ele>
        <time>2019-09-15T15:51:08.000Z</time>
      </trkpt>
      <trkpt lat="45.85328" lon="4.83856">
        <ele>171.33</ele>
        <time>2019-09-15T15:51:13.000Z</time>
      </trkpt>
      <trkpt lat="45.85296" lon="4.83842">
        <ele>172.03</ele>
        <time>2019-09-15T15:51:18.000Z</time>
      </trkpt>
      <trkpt lat="45.8527" lon="4.83834">
        <ele>172.28</ele>
        <time>2019-09-15T15:51:23.000Z</time>
      </trkpt>
      <trkpt lat="45.85239" lon="4.83827">
        <ele>171.53</ele>
        <time>2019-09-15T15:51:28.000Z</time>
      </trkpt>
      <trkpt lat="45.85209" lon="4.83818">
        <ele>171.4</ele>
        <time>2019-09-15T15:51:33.000Z</time>
      </trkpt>
      <trkpt lat="45.85178" lon="4.83808">
        <ele>170.3</ele>
        <time>2019-09-15T15:51:38.000Z</time>
      </trkpt>
      <trkpt lat="45.85147" lon="4.83799">
        <ele>173.06</ele>
        <time>2019-09-15T15:51:43.000Z</time>
      </trkpt>
      <trkpt lat="45.85114" lon="4.83789">
        <ele>172.29</ele>
        <time>2019-09-15T15:51:48.000Z</time>
      </trkpt>
      <trkpt lat="45.8508" lon="4.83781">
        <ele>173.03</ele>
        <time>2019-09-15T15:51:53.000Z</time>
      </trkpt>
      <trkpt lat="45.8505" lon="4.83771">
        <ele>172.47</ele>
        <time>2019-09-15T15:51:58.000Z</time>
      </trkpt>
      <trkpt lat="45.85017" lon="4.8376">
        <ele>172.29</ele>
        <time>2019-09-15T15:52:03.000Z</time>
      </trkpt>
      <trkpt lat="45.84994" lon="4.83746">
        <ele>172.96</ele>
        <time>2019-09-15T15:52:08.000Z</time>
      </trkpt>
      <trkpt lat="45.84967" lon="4.83724">
        <ele>172.28</ele>
        <time>2019-09-15T15:52:13.000Z</time>
      </trkpt>
      <trkpt lat="45.84941" lon="4.83724">
        <ele>171.53</ele>
        <time>2019-09-15T15:52:18.000Z</time>
      </trkpt>
      <trkpt lat="45.84912" lon="4.83708">
        <ele>172.26</ele>
        <time>2019-09-15T15:52:23.000Z</time>
      </trkpt>
      <trkpt lat="45.84881" lon="4.83694">
        <ele>174.02</ele>
        <time>2019-09-15T15:52:28.000Z</time>
      </trkpt>
      <trkpt lat="45.84856" lon="4.83679">
        <ele>170.36</ele>
        <time>2019-09-15T15:52:33.000Z</time>
      </trkpt>
      <trkpt lat="45.84824" lon="4.83663">
        <ele>171.21</ele>
        <time>2019-09-15T15:52:38.000Z</time>
      </trkpt>
      <trkpt lat="45.84792" lon="4.83646">
        <ele>172.27</ele>
        <time>2019-09-15T15:52:43.000Z</time>
      </trkpt>
      <trkpt lat="45.84761" lon="4.83633">
        <ele>174.32</ele>
        <time>2019-09-15T15:52:48.000Z</time>
      </trkpt>
      <trkpt lat="45.84729" lon="4.83615">
        <ele>172.34</ele>
        <time>2019-09-15T15:52:53.000Z</time>
      </trkpt>
      <trkpt lat="45.84696" lon="4.83597">
        <ele>172.27</ele>
        <time>2019-09-15T15:52:58.000Z</time>
      </trkpt>
      <trkpt lat="45.84666" lon="4.83581">
        <ele>172.28</ele>
        <time>2019-09-15T15:53:03.000Z</time>
      </trkpt>
      <trkpt lat="45.84639" lon="4.83566">
        <ele>172.47</ele>
        <time>2019-09-15T15:53:08.000Z</time>
      </trkpt>
      <trkpt lat="45.84612" lon="4.83552">
        <ele>173.96</ele>
        <time>2019-09-15T15:53:13.000Z</time>
      </trkpt>
      <trkpt lat="45.84611" lon="4.83525">
        <ele>173.27</ele>
        <time>2019-09-15T15:53:18.000Z</time>
      </trkpt>
      <trkpt lat="45.84587" lon="4.83507">
        <ele>172.27</ele>
        <time>2019-09-15T15:53:23.000Z</time>
      </trkpt>
      <trkpt lat="45.84561" lon="4.83492">
        <ele>171.33</ele>
        <time>2019-09-15T15:53:28.000Z</time>
      </trkpt>
      <trkpt lat="45.84536" lon="4.8348">
        <ele>170.27</ele>
        <time>2019-09-15T15:53:33.000Z</time>
      </trkpt>
      <trkpt lat="45.84511" lon="4.83466">
        <ele>168.35</ele>
        <time>2019-09-15T15:53:38.000Z</time>
      </trkpt>
      <trkpt lat="45.8449" lon="4.83453">
        <ele>169.27</ele>
        <time>2019-09-15T15:53:43.000Z</time>
      </trkpt>
      <trkpt lat="45.84466" lon="4.83447">
        <ele>169.21</ele>
        <time>2019-09-15T15:53:48.000Z</time>
      </trkpt>
      <trkpt lat="45.84438" lon="4.83437">
        <ele>168.1</ele>
        <time>2019-09-15T15:53:53.000Z</time>
      </trkpt>
      <trkpt lat="45.84411" lon="4.83427">
        <ele>169.22</ele>
        <time>2019-09-15T15:53:58.000Z</time>
      </trkpt>
      <trkpt lat="45.84385" lon="4.83416">
        <ele>169.27</ele>
        <time>2019-09-15T15:54:03.000Z</time>
      </trkpt>
      <trkpt lat="45.84362" lon="4.83409">
        <ele>169.27</ele>
        <time>2019-09-15T15:54:08.000Z</time>
      </trkpt>
      <trkpt lat="45.84334" lon="4.83399">
        <ele>170.2</ele>
        <time>2019-09-15T15:54:13.000Z</time>
      </trkpt>
      <trkpt lat="45.84308" lon="4.83387">
        <ele>170.26</ele>
        <time>2019-09-15T15:54:18.000Z</time>
      </trkpt>
      <trkpt lat="45.84282" lon="4.83383">
        <ele>171.26</ele>
        <time>2019-09-15T15:54:23.000Z</time>
      </trkpt>
      <trkpt lat="45.84254" lon="4.83371">
        <ele>171.26</ele>
        <time>2019-09-15T15:54:28.000Z</time>
      </trkpt>
      <trkpt lat="45.84227" lon="4.83362">
        <ele>169.76</ele>
        <time>2019-09-15T15:54:33.000Z</time>
      </trkpt>
      <trkpt lat="45.84198" lon="4.83351">
        <ele>169.04</ele>
        <time>2019-09-15T15:54:38.000Z</time>
      </trkpt>
      <trkpt lat="45.8417" lon="4.83339">
        <ele>169.32</ele>
        <time>2019-09-15T15:54:43.000Z</time>
      </trkpt>
      <trkpt lat="45.84142" lon="4.83329">
        <ele>169.32</ele>
        <time>2019-09-15T15:54:48.000Z</time>
      </trkpt>
      <trkpt lat="45.84113" lon="4.83321">
        <ele>168.22</ele>
        <time>2019-09-15T15:54:53.000Z</time>
      </trkpt>
      <trkpt lat="45.84088" lon="4.83313">
        <ele>169.26</ele>
        <time>2019-09-15T15:54:58.000Z</time>
      </trkpt>
      <trkpt lat="45.84065" lon="4.83307">
        <ele>170.26</ele>
        <time>2019-09-15T15:55:03.000Z</time>
      </trkpt>
      <trkpt lat="45.84036" lon="4.83306">
        <ele>170.45</ele>
        <time>2019-09-15T15:55:08.000Z</time>
      </trkpt>
      <trkpt lat="45.84006" lon="4.83305">
        <ele>169.09</ele>
        <time>2019-09-15T15:55:13.000Z</time>
      </trkpt>
      <trkpt lat="45.8398" lon="4.83308">
        <ele>168.26</ele>
        <time>2019-09-15T15:55:18.000Z</time>
      </trkpt>
      <trkpt lat="45.83971" lon="4.8331">
        <ele>168.26</ele>
        <time>2019-09-15T15:55:23.000Z</time>
      </trkpt>
      <trkpt lat="45.83957" lon="4.83312">
        <ele>170.24</ele>
        <time>2019-09-15T15:55:28.000Z</time>
      </trkpt>
      <trkpt lat="45.83934" lon="4.83319">
        <ele>170.26</ele>
        <time>2019-09-15T15:55:33.000Z</time>
      </trkpt>
      <trkpt lat="45.83909" lon="4.83324">
        <ele>170.26</ele>
        <time>2019-09-15T15:55:38.000Z</time>
      </trkpt>
      <trkpt lat="45.83883" lon="4.83336">
        <ele>170.26</ele>
        <time>2019-09-15T15:55:43.000Z</time>
      </trkpt>
      <trkpt lat="45.83856" lon="4.83347">
        <ele>171.25</ele>
        <time>2019-09-15T15:55:48.000Z</time>
      </trkpt>
      <trkpt lat="45.83831" lon="4.83363">
        <ele>171.26</ele>
        <time>2019-09-15T15:55:53.000Z</time>
      </trkpt>
      <trkpt lat="45.83808" lon="4.83373">
        <ele>170.26</ele>
        <time>2019-09-15T15:55:58.000Z</time>
      </trkpt>
      <trkpt lat="45.83798" lon="4.83383">
        <ele>169.32</ele>
        <time>2019-09-15T15:56:09.000Z</time>
      </trkpt>
      <trkpt lat="45.83777" lon="4.83396">
        <ele>169.26</ele>
        <time>2019-09-15T15:56:14.000Z</time>
      </trkpt>
      <trkpt lat="45.83754" lon="4.83409">
        <ele>167.29</ele>
        <time>2019-09-15T15:56:19.000Z</time>
      </trkpt>
      <trkpt lat="45.83731" lon="4.83426">
        <ele>168.2</ele>
        <time>2019-09-15T15:56:24.000Z</time>
      </trkpt>
      <trkpt lat="45.83713" lon="4.83443">
        <ele>167.45</ele>
        <time>2019-09-15T15:56:29.000Z</time>
      </trkpt>
      <trkpt lat="45.83692" lon="4.83466">
        <ele>166.26</ele>
        <time>2019-09-15T15:56:34.000Z</time>
      </trkpt>
      <trkpt lat="45.8367" lon="4.83491">
        <ele>167.2</ele>
        <time>2019-09-15T15:56:39.000Z</time>
      </trkpt>
      <trkpt lat="45.83648" lon="4.83516">
        <ele>169.18</ele>
        <time>2019-09-15T15:56:44.000Z</time>
      </trkpt>
      <trkpt lat="45.83635" lon="4.83538">
        <ele>167.33</ele>
        <time>2019-09-15T15:56:49.000Z</time>
      </trkpt>
      <trkpt lat="45.83623" lon="4.83557">
        <ele>169.21</ele>
        <time>2019-09-15T15:56:54.000Z</time>
      </trkpt>
      <trkpt lat="45.83613" lon="4.83576">
        <ele>168.51</ele>
        <time>2019-09-15T15:56:59.000Z</time>
      </trkpt>
      <trkpt lat="45.83605" lon="4.83592">
        <ele>169.01</ele>
        <time>2019-09-15T15:57:04.000Z</time>
      </trkpt>
      <trkpt lat="45.83595" lon="4.83613">
        <ele>169.26</ele>
        <time>2019-09-15T15:57:09.000Z</time>
      </trkpt>
      <trkpt lat="45.83585" lon="4.83634">
        <ele>170</ele>
        <time>2019-09-15T15:57:14.000Z</time>
      </trkpt>
      <trkpt lat="45.83573" lon="4.8366">
        <ele>170.26</ele>
        <time>2019-09-15T15:57:19.000Z</time>
      </trkpt>
      <trkpt lat="45.83561" lon="4.83689">
        <ele>170.32</ele>
        <time>2019-09-15T15:57:24.000Z</time>
      </trkpt>
      <trkpt lat="45.83549" lon="4.83715">
        <ele>169.27</ele>
        <time>2019-09-15T15:57:29.000Z</time>
      </trkpt>
      <trkpt lat="45.83536" lon="4.83744">
        <ele>170.26</ele>
        <time>2019-09-15T15:57:34.000Z</time>
      </trkpt>
      <trkpt lat="45.83524" lon="4.83775">
        <ele>169.28</ele>
        <time>2019-09-15T15:57:39.000Z</time>
      </trkpt>
      <trkpt lat="45.83512" lon="4.83806">
        <ele>169.26</ele>
        <time>2019-09-15T15:57:44.000Z</time>
      </trkpt>
      <trkpt lat="45.83503" lon="4.83833">
        <ele>169.28</ele>
        <time>2019-09-15T15:57:49.000Z</time>
      </trkpt>
      <trkpt lat="45.83495" lon="4.83864">
        <ele>167.28</ele>
        <time>2019-09-15T15:57:54.000Z</time>
      </trkpt>
      <trkpt lat="45.83487" lon="4.83899">
        <ele>168.02</ele>
        <time>2019-09-15T15:57:59.000Z</time>
      </trkpt>
      <trkpt lat="45.83478" lon="4.83934">
        <ele>168.21</ele>
        <time>2019-09-15T15:58:04.000Z</time>
      </trkpt>
      <trkpt lat="45.83472" lon="4.83972">
        <ele>167.28</ele>
        <time>2019-09-15T15:58:09.000Z</time>
      </trkpt>
      <trkpt lat="45.83462" lon="4.84008">
        <ele>167.52</ele>
        <time>2019-09-15T15:58:14.000Z</time>
      </trkpt>
      <trkpt lat="45.83452" lon="4.84046">
        <ele>168.27</ele>
        <time>2019-09-15T15:58:19.000Z</time>
      </trkpt>
      <trkpt lat="45.83444" lon="4.84082">
        <ele>168.25</ele>
        <time>2019-09-15T15:58:24.000Z</time>
      </trkpt>
      <trkpt lat="45.83439" lon="4.84092">
        <ele>170.19</ele>
        <time>2019-09-15T15:58:30.000Z</time>
      </trkpt>
      <trkpt lat="45.83436" lon="4.84111">
        <ele>170.08</ele>
        <time>2019-09-15T15:58:35.000Z</time>
      </trkpt>
      <trkpt lat="45.83433" lon="4.8413">
        <ele>170.27</ele>
        <time>2019-09-15T15:58:40.000Z</time>
      </trkpt>
      <trkpt lat="45.8343" lon="4.84151">
        <ele>170.32</ele>
        <time>2019-09-15T15:58:45.000Z</time>
      </trkpt>
      <trkpt lat="45.8343" lon="4.84164">
        <ele>173</ele>
        <time>2019-09-15T15:58:51.000Z</time>
      </trkpt>
      <trkpt lat="45.83427" lon="4.84177">
        <ele>172.27</ele>
        <time>2019-09-15T15:58:57.000Z</time>
      </trkpt>
      <trkpt lat="45.83423" lon="4.84194">
        <ele>173.27</ele>
        <time>2019-09-15T15:59:02.000Z</time>
      </trkpt>
      <trkpt lat="45.83421" lon="4.84217">
        <ele>172.32</ele>
        <time>2019-09-15T15:59:07.000Z</time>
      </trkpt>
      <trkpt lat="45.83415" lon="4.84247">
        <ele>173.26</ele>
        <time>2019-09-15T15:59:12.000Z</time>
      </trkpt>
      <trkpt lat="45.83404" lon="4.84277">
        <ele>173.47</ele>
        <time>2019-09-15T15:59:17.000Z</time>
      </trkpt>
      <trkpt lat="45.83391" lon="4.84314">
        <ele>174.21</ele>
        <time>2019-09-15T15:59:22.000Z</time>
      </trkpt>
      <trkpt lat="45.83379" lon="4.84354">
        <ele>174.27</ele>
        <time>2019-09-15T15:59:27.000Z</time>
      </trkpt>
      <trkpt lat="45.83369" lon="4.84392">
        <ele>174.27</ele>
        <time>2019-09-15T15:59:32.000Z</time>
      </trkpt>
      <trkpt lat="45.83357" lon="4.84432">
        <ele>174.52</ele>
        <time>2019-09-15T15:59:37.000Z</time>
      </trkpt>
      <trkpt lat="45.83346" lon="4.84472">
        <ele>174.28</ele>
        <time>2019-09-15T15:59:42.000Z</time>
      </trkpt>
      <trkpt lat="45.83334" lon="4.84514">
        <ele>175.52</ele>
        <time>2019-09-15T15:59:47.000Z</time>
      </trkpt>
      <trkpt lat="45.83323" lon="4.84552">
        <ele>174.03</ele>
        <time>2019-09-15T15:59:52.000Z</time>
      </trkpt>
      <trkpt lat="45.83313" lon="4.84593">
        <ele>175.27</ele>
        <time>2019-09-15T15:59:57.000Z</time>
      </trkpt>
      <trkpt lat="45.83301" lon="4.84637">
        <ele>174.28</ele>
        <time>2019-09-15T16:00:02.000Z</time>
      </trkpt>
      <trkpt lat="45.83292" lon="4.84679">
        <ele>172.54</ele>
        <time>2019-09-15T16:00:07.000Z</time>
      </trkpt>
      <trkpt lat="45.83281" lon="4.8472">
        <ele>173.28</ele>
        <time>2019-09-15T16:00:12.000Z</time>
      </trkpt>
      <trkpt lat="45.83274" lon="4.84747">
        <ele>172.59</ele>
        <time>2019-09-15T16:00:17.000Z</time>
      </trkpt>
      <trkpt lat="45.83267" lon="4.84774">
        <ele>172.47</ele>
        <time>2019-09-15T16:00:22.000Z</time>
      </trkpt>
      <trkpt lat="45.83257" lon="4.84803">
        <ele>174.03</ele>
        <time>2019-09-15T16:00:27.000Z</time>
      </trkpt>
      <trkpt lat="45.83246" lon="4.84832">
        <ele>174.28</ele>
        <time>2019-09-15T16:00:32.000Z</time>
      </trkpt>
      <trkpt lat="45.83236" lon="4.84858">
        <ele>174.28</ele>
        <time>2019-09-15T16:00:37.000Z</time>
      </trkpt>
      <trkpt lat="45.83221" lon="4.84852">
        <ele>175.22</ele>
        <time>2019-09-15T16:00:42.000Z</time>
      </trkpt>
      <trkpt lat="45.83204" lon="4.84834">
        <ele>175.09</ele>
        <time>2019-09-15T16:00:47.000Z</time>
      </trkpt>
      <trkpt lat="45.83186" lon="4.84814">
        <ele>176.22</ele>
        <time>2019-09-15T16:00:52.000Z</time>
      </trkpt>
      <trkpt lat="45.83166" lon="4.84794">
        <ele>177.26</ele>
        <time>2019-09-15T16:00:57.000Z</time>
      </trkpt>
      <trkpt lat="45.8314" lon="4.84771">
        <ele>178.22</ele>
        <time>2019-09-15T16:01:02.000Z</time>
      </trkpt>
      <trkpt lat="45.83113" lon="4.84745">
        <ele>176.54</ele>
        <time>2019-09-15T16:01:07.000Z</time>
      </trkpt>
      <trkpt lat="45.83094" lon="4.84712">
        <ele>175.53</ele>
        <time>2019-09-15T16:01:12.000Z</time>
      </trkpt>
      <trkpt lat="45.83077" lon="4.84737">
        <ele>175.98</ele>
        <time>2019-09-15T16:01:17.000Z</time>
      </trkpt>
      <trkpt lat="45.83061" lon="4.84779">
        <ele>174.54</ele>
        <time>2019-09-15T16:01:22.000Z</time>
      </trkpt>
      <trkpt lat="45.83042" lon="4.84819">
        <ele>174.22</ele>
        <time>2019-09-15T16:01:27.000Z</time>
      </trkpt>
      <trkpt lat="45.83018" lon="4.84864">
        <ele>174.04</ele>
        <time>2019-09-15T16:01:32.000Z</time>
      </trkpt>
      <trkpt lat="45.82996" lon="4.84907">
        <ele>174.28</ele>
        <time>2019-09-15T16:01:37.000Z</time>
      </trkpt>
      <trkpt lat="45.8297" lon="4.84945">
        <ele>173.28</ele>
        <time>2019-09-15T16:01:42.000Z</time>
      </trkpt>
      <trkpt lat="45.82946" lon="4.84982">
        <ele>173.09</ele>
        <time>2019-09-15T16:01:47.000Z</time>
      </trkpt>
      <trkpt lat="45.82919" lon="4.85017">
        <ele>172.53</ele>
        <time>2019-09-15T16:01:52.000Z</time>
      </trkpt>
      <trkpt lat="45.82889" lon="4.85048">
        <ele>171.11</ele>
        <time>2019-09-15T16:01:57.000Z</time>
      </trkpt>
      <trkpt lat="45.82863" lon="4.85077">
        <ele>170.28</ele>
        <time>2019-09-15T16:02:02.000Z</time>
      </trkpt>
      <trkpt lat="45.82832" lon="4.85106">
        <ele>171.27</ele>
        <time>2019-09-15T16:02:07.000Z</time>
      </trkpt>
      <trkpt lat="45.82806" lon="4.85132">
        <ele>171.22</ele>
        <time>2019-09-15T16:02:12.000Z</time>
      </trkpt>
      <trkpt lat="45.82775" lon="4.85157">
        <ele>171.47</ele>
        <time>2019-09-15T16:02:17.000Z</time>
      </trkpt>
      <trkpt lat="45.82746" lon="4.8518">
        <ele>170.41</ele>
        <time>2019-09-15T16:02:22.000Z</time>
      </trkpt>
      <trkpt lat="45.82716" lon="4.85204">
        <ele>174</ele>
        <time>2019-09-15T16:02:27.000Z</time>
      </trkpt>
      <trkpt lat="45.82686" lon="4.85226">
        <ele>173.47</ele>
        <time>2019-09-15T16:02:32.000Z</time>
      </trkpt>
      <trkpt lat="45.82657" lon="4.85247">
        <ele>174.09</ele>
        <time>2019-09-15T16:02:37.000Z</time>
      </trkpt>
      <trkpt lat="45.82629" lon="4.85264">
        <ele>175.26</ele>
        <time>2019-09-15T16:02:42.000Z</time>
      </trkpt>
      <trkpt lat="45.82609" lon="4.85277">
        <ele>173.42</ele>
        <time>2019-09-15T16:02:47.000Z</time>
      </trkpt>
      <trkpt lat="45.82599" lon="4.85282">
        <ele>178.29</ele>
        <time>2019-09-15T16:03:01.000Z</time>
      </trkpt>
      <trkpt lat="45.82582" lon="4.85293">
        <ele>178.29</ele>
        <time>2019-09-15T16:03:06.000Z</time>
      </trkpt>
      <trkpt lat="45.82562" lon="4.85309">
        <ele>176.54</ele>
        <time>2019-09-15T16:03:11.000Z</time>
      </trkpt>
      <trkpt lat="45.82537" lon="4.85326">
        <ele>176.53</ele>
        <time>2019-09-15T16:03:16.000Z</time>
      </trkpt>
      <trkpt lat="45.82513" lon="4.85342">
        <ele>175.3</ele>
        <time>2019-09-15T16:03:21.000Z</time>
      </trkpt>
      <trkpt lat="45.82488" lon="4.8536">
        <ele>176.05</ele>
        <time>2019-09-15T16:03:26.000Z</time>
      </trkpt>
      <trkpt lat="45.82461" lon="4.85378">
        <ele>179.97</ele>
        <time>2019-09-15T16:03:31.000Z</time>
      </trkpt>
      <trkpt lat="45.82436" lon="4.85393">
        <ele>175.53</ele>
        <time>2019-09-15T16:03:36.000Z</time>
      </trkpt>
      <trkpt lat="45.82408" lon="4.85406">
        <ele>173.24</ele>
        <time>2019-09-15T16:03:41.000Z</time>
      </trkpt>
      <trkpt lat="45.8238" lon="4.8542">
        <ele>175.27</ele>
        <time>2019-09-15T16:03:46.000Z</time>
      </trkpt>
      <trkpt lat="45.82347" lon="4.85435">
        <ele>176.05</ele>
        <time>2019-09-15T16:03:51.000Z</time>
      </trkpt>
      <trkpt lat="45.82315" lon="4.85447">
        <ele>174.36</ele>
        <time>2019-09-15T16:03:56.000Z</time>
      </trkpt>
      <trkpt lat="45.82282" lon="4.85457">
        <ele>172.31</ele>
        <time>2019-09-15T16:04:01.000Z</time>
      </trkpt>
      <trkpt lat="45.8225" lon="4.85466">
        <ele>172.29</ele>
        <time>2019-09-15T16:04:06.000Z</time>
      </trkpt>
      <trkpt lat="45.82237" lon="4.85468">
        <ele>173.22</ele>
        <time>2019-09-15T16:04:11.000Z</time>
      </trkpt>
      <trkpt lat="45.82225" lon="4.85472">
        <ele>173.22</ele>
        <time>2019-09-15T16:04:22.000Z</time>
      </trkpt>
      <trkpt lat="45.82202" lon="4.85477">
        <ele>172.29</ele>
        <time>2019-09-15T16:04:27.000Z</time>
      </trkpt>
      <trkpt lat="45.82176" lon="4.85476">
        <ele>172.05</ele>
        <time>2019-09-15T16:04:32.000Z</time>
      </trkpt>
      <trkpt lat="45.82148" lon="4.85482">
        <ele>175.02</ele>
        <time>2019-09-15T16:04:37.000Z</time>
      </trkpt>
      <trkpt lat="45.82121" lon="4.85479">
        <ele>175.22</ele>
        <time>2019-09-15T16:04:42.000Z</time>
      </trkpt>
      <trkpt lat="45.82091" lon="4.85476">
        <ele>172.55</ele>
        <time>2019-09-15T16:04:47.000Z</time>
      </trkpt>
      <trkpt lat="45.82056" lon="4.85473">
        <ele>174.22</ele>
        <time>2019-09-15T16:04:52.000Z</time>
      </trkpt>
      <trkpt lat="45.82025" lon="4.85466">
        <ele>175.22</ele>
        <time>2019-09-15T16:04:57.000Z</time>
      </trkpt>
      <trkpt lat="45.81991" lon="4.85457">
        <ele>175.46</ele>
        <time>2019-09-15T16:05:02.000Z</time>
      </trkpt>
      <trkpt lat="45.81959" lon="4.85443">
        <ele>173.25</ele>
        <time>2019-09-15T16:05:07.000Z</time>
      </trkpt>
      <trkpt lat="45.81924" lon="4.8543">
        <ele>173.34</ele>
        <time>2019-09-15T16:05:12.000Z</time>
      </trkpt>
      <trkpt lat="45.81895" lon="4.8541">
        <ele>172.29</ele>
        <time>2019-09-15T16:05:17.000Z</time>
      </trkpt>
      <trkpt lat="45.81865" lon="4.85387">
        <ele>171.28</ele>
        <time>2019-09-15T16:05:22.000Z</time>
      </trkpt>
      <trkpt lat="45.81835" lon="4.85363">
        <ele>172.2</ele>
        <time>2019-09-15T16:05:27.000Z</time>
      </trkpt>
      <trkpt lat="45.8181" lon="4.85337">
        <ele>170.31</ele>
        <time>2019-09-15T16:05:32.000Z</time>
      </trkpt>
      <trkpt lat="45.81782" lon="4.85305">
        <ele>171.4</ele>
        <time>2019-09-15T16:05:37.000Z</time>
      </trkpt>
      <trkpt lat="45.81759" lon="4.85271">
        <ele>169.35</ele>
        <time>2019-09-15T16:05:42.000Z</time>
      </trkpt>
      <trkpt lat="45.81737" lon="4.85231">
        <ele>169.23</ele>
        <time>2019-09-15T16:05:47.000Z</time>
      </trkpt>
      <trkpt lat="45.81717" lon="4.85194">
        <ele>169.01</ele>
        <time>2019-09-15T16:05:52.000Z</time>
      </trkpt>
      <trkpt lat="45.81697" lon="4.85154">
        <ele>170.21</ele>
        <time>2019-09-15T16:05:57.000Z</time>
      </trkpt>
      <trkpt lat="45.81679" lon="4.85114">
        <ele>170.22</ele>
        <time>2019-09-15T16:06:02.000Z</time>
      </trkpt>
      <trkpt lat="45.81663" lon="4.85074">
        <ele>170.22</ele>
        <time>2019-09-15T16:06:07.000Z</time>
      </trkpt>
      <trkpt lat="45.81646" lon="4.85035">
        <ele>170.51</ele>
        <time>2019-09-15T16:06:12.000Z</time>
      </trkpt>
      <trkpt lat="45.81631" lon="4.84994">
        <ele>170.27</ele>
        <time>2019-09-15T16:06:17.000Z</time>
      </trkpt>
      <trkpt lat="45.81615" lon="4.84954">
        <ele>170.03</ele>
        <time>2019-09-15T16:06:22.000Z</time>
      </trkpt>
      <trkpt lat="45.81599" lon="4.84913">
        <ele>170.22</ele>
        <time>2019-09-15T16:06:27.000Z</time>
      </trkpt>
      <trkpt lat="45.81582" lon="4.84872">
        <ele>169.28</ele>
        <time>2019-09-15T16:06:32.000Z</time>
      </trkpt>
      <trkpt lat="45.81565" lon="4.84833">
        <ele>171</ele>
        <time>2019-09-15T16:06:37.000Z</time>
      </trkpt>
      <trkpt lat="45.81557" lon="4.84809">
        <ele>170.26</ele>
        <time>2019-09-15T16:06:42.000Z</time>
      </trkpt>
      <trkpt lat="45.81553" lon="4.84797">
        <ele>171.25</ele>
        <time>2019-09-15T16:06:47.000Z</time>
      </trkpt>
      <trkpt lat="45.81545" lon="4.8477">
        <ele>172.26</ele>
        <time>2019-09-15T16:06:52.000Z</time>
      </trkpt>
      <trkpt lat="45.81534" lon="4.84737">
        <ele>170.33</ele>
        <time>2019-09-15T16:06:57.000Z</time>
      </trkpt>
      <trkpt lat="45.81524" lon="4.84701">
        <ele>170.26</ele>
        <time>2019-09-15T16:07:02.000Z</time>
      </trkpt>
      <trkpt lat="45.81516" lon="4.84671">
        <ele>172</ele>
        <time>2019-09-15T16:07:07.000Z</time>
      </trkpt>
      <trkpt lat="45.81505" lon="4.84643">
        <ele>175</ele>
        <time>2019-09-15T16:07:12.000Z</time>
      </trkpt>
      <trkpt lat="45.81494" lon="4.84619">
        <ele>175.96</ele>
        <time>2019-09-15T16:07:17.000Z</time>
      </trkpt>
      <trkpt lat="45.81471" lon="4.84593">
        <ele>175.25</ele>
        <time>2019-09-15T16:07:22.000Z</time>
      </trkpt>
      <trkpt lat="45.81446" lon="4.84561">
        <ele>174.33</ele>
        <time>2019-09-15T16:07:27.000Z</time>
      </trkpt>
      <trkpt lat="45.81419" lon="4.84527">
        <ele>172.32</ele>
        <time>2019-09-15T16:07:32.000Z</time>
      </trkpt>
      <trkpt lat="45.8139" lon="4.84493">
        <ele>170.33</ele>
        <time>2019-09-15T16:07:37.000Z</time>
      </trkpt>
      <trkpt lat="45.81362" lon="4.84461">
        <ele>168.46</ele>
        <time>2019-09-15T16:07:42.000Z</time>
      </trkpt>
      <trkpt lat="45.81334" lon="4.84424">
        <ele>169.19</ele>
        <time>2019-09-15T16:07:47.000Z</time>
      </trkpt>
      <trkpt lat="45.81306" lon="4.84392">
        <ele>168.44</ele>
        <time>2019-09-15T16:07:52.000Z</time>
      </trkpt>
      <trkpt lat="45.8128" lon="4.8436">
        <ele>168.25</ele>
        <time>2019-09-15T16:07:57.000Z</time>
      </trkpt>
      <trkpt lat="45.81253" lon="4.84331">
        <ele>170.18</ele>
        <time>2019-09-15T16:08:02.000Z</time>
      </trkpt>
      <trkpt lat="45.81225" lon="4.84305">
        <ele>170.25</ele>
        <time>2019-09-15T16:08:07.000Z</time>
      </trkpt>
      <trkpt lat="45.81195" lon="4.84281">
        <ele>169.5</ele>
        <time>2019-09-15T16:08:12.000Z</time>
      </trkpt>
      <trkpt lat="45.81163" lon="4.84259">
        <ele>168.51</ele>
        <time>2019-09-15T16:08:17.000Z</time>
      </trkpt>
      <trkpt lat="45.81131" lon="4.84241">
        <ele>168.26</ele>
        <time>2019-09-15T16:08:22.000Z</time>
      </trkpt>
      <trkpt lat="45.81098" lon="4.84222">
        <ele>167.48</ele>
        <time>2019-09-15T16:08:27.000Z</time>
      </trkpt>
      <trkpt lat="45.81064" lon="4.84209">
        <ele>167.49</ele>
        <time>2019-09-15T16:08:32.000Z</time>
      </trkpt>
      <trkpt lat="45.81031" lon="4.84198">
        <ele>168.06</ele>
        <time>2019-09-15T16:08:37.000Z</time>
      </trkpt>
      <trkpt lat="45.80999" lon="4.84187">
        <ele>168.3</ele>
        <time>2019-09-15T16:08:42.000Z</time>
      </trkpt>
      <trkpt lat="45.80968" lon="4.84186">
        <ele>169.18</ele>
        <time>2019-09-15T16:08:47.000Z</time>
      </trkpt>
      <trkpt lat="45.80936" lon="4.84185">
        <ele>168.45</ele>
        <time>2019-09-15T16:08:52.000Z</time>
      </trkpt>
      <trkpt lat="45.80903" lon="4.84186">
        <ele>167.45</ele>
        <time>2019-09-15T16:08:57.000Z</time>
      </trkpt>
      <trkpt lat="45.80871" lon="4.84187">
        <ele>168.23</ele>
        <time>2019-09-15T16:09:02.000Z</time>
      </trkpt>
      <trkpt lat="45.80838" lon="4.84185">
        <ele>168.24</ele>
        <time>2019-09-15T16:09:07.000Z</time>
      </trkpt>
      <trkpt lat="45.80805" lon="4.8418">
        <ele>166.54</ele>
        <time>2019-09-15T16:09:12.000Z</time>
      </trkpt>
      <trkpt lat="45.80771" lon="4.84174">
        <ele>166.49</ele>
        <time>2019-09-15T16:09:17.000Z</time>
      </trkpt>
      <trkpt lat="45.8074" lon="4.84165">
        <ele>166.3</ele>
        <time>2019-09-15T16:09:22.000Z</time>
      </trkpt>
      <trkpt lat="45.80706" lon="4.84159">
        <ele>165.3</ele>
        <time>2019-09-15T16:09:27.000Z</time>
      </trkpt>
      <trkpt lat="45.80673" lon="4.84148">
        <ele>166.25</ele>
        <time>2019-09-15T16:09:32.000Z</time>
      </trkpt>
      <trkpt lat="45.8064" lon="4.84133">
        <ele>165.25</ele>
        <time>2019-09-15T16:09:37.000Z</time>
      </trkpt>
      <trkpt lat="45.80607" lon="4.84118">
        <ele>167.18</ele>
        <time>2019-09-15T16:09:42.000Z</time>
      </trkpt>
      <trkpt lat="45.80576" lon="4.84102">
        <ele>166.49</ele>
        <time>2019-09-15T16:09:47.000Z</time>
      </trkpt>
      <trkpt lat="45.80545" lon="4.84084">
        <ele>164.56</ele>
        <time>2019-09-15T16:09:52.000Z</time>
      </trkpt>
      <trkpt lat="45.80519" lon="4.84064">
        <ele>162.44</ele>
        <time>2019-09-15T16:09:57.000Z</time>
      </trkpt>
      <trkpt lat="45.80493" lon="4.84046">
        <ele>163.47</ele>
        <time>2019-09-15T16:10:02.000Z</time>
      </trkpt>
      <trkpt lat="45.80467" lon="4.84035">
        <ele>166.96</ele>
        <time>2019-09-15T16:10:07.000Z</time>
      </trkpt>
      <trkpt lat="45.80445" lon="4.84024">
        <ele>169.93</ele>
        <time>2019-09-15T16:10:12.000Z</time>
      </trkpt>
      <trkpt lat="45.80425" lon="4.84012">
        <ele>170.19</ele>
        <time>2019-09-15T16:10:17.000Z</time>
      </trkpt>
      <trkpt lat="45.80405" lon="4.84">
        <ele>172.17</ele>
        <time>2019-09-15T16:10:22.000Z</time>
      </trkpt>
      <trkpt lat="45.80387" lon="4.83985">
        <ele>173.17</ele>
        <time>2019-09-15T16:10:27.000Z</time>
      </trkpt>
      <trkpt lat="45.80368" lon="4.8397">
        <ele>175.96</ele>
        <time>2019-09-15T16:10:32.000Z</time>
      </trkpt>
      <trkpt lat="45.80351" lon="4.83952">
        <ele>178.91</ele>
        <time>2019-09-15T16:10:37.000Z</time>
      </trkpt>
      <trkpt lat="45.80331" lon="4.83933">
        <ele>178.25</ele>
        <time>2019-09-15T16:10:42.000Z</time>
      </trkpt>
      <trkpt lat="45.80311" lon="4.83911">
        <ele>179.21</ele>
        <time>2019-09-15T16:10:47.000Z</time>
      </trkpt>
      <trkpt lat="45.8029" lon="4.83893">
        <ele>178.24</ele>
        <time>2019-09-15T16:10:52.000Z</time>
      </trkpt>
      <trkpt lat="45.80267" lon="4.83859">
        <ele>179.98</ele>
        <time>2019-09-15T16:10:57.000Z</time>
      </trkpt>
      <trkpt lat="45.8024" lon="4.83836">
        <ele>178.47</ele>
        <time>2019-09-15T16:11:02.000Z</time>
      </trkpt>
      <trkpt lat="45.80206" lon="4.83827">
        <ele>176.35</ele>
        <time>2019-09-15T16:11:07.000Z</time>
      </trkpt>
      <trkpt lat="45.80167" lon="4.83834">
        <ele>175.23</ele>
        <time>2019-09-15T16:11:12.000Z</time>
      </trkpt>
      <trkpt lat="45.80128" lon="4.83813">
        <ele>174.24</ele>
        <time>2019-09-15T16:11:17.000Z</time>
      </trkpt>
      <trkpt lat="45.80092" lon="4.83778">
        <ele>174.22</ele>
        <time>2019-09-15T16:11:22.000Z</time>
      </trkpt>
      <trkpt lat="45.8006" lon="4.83737">
        <ele>172.47</ele>
        <time>2019-09-15T16:11:27.000Z</time>
      </trkpt>
      <trkpt lat="45.80037" lon="4.83698">
        <ele>171.47</ele>
        <time>2019-09-15T16:11:32.000Z</time>
      </trkpt>
      <trkpt lat="45.80014" lon="4.83655">
        <ele>171.22</ele>
        <time>2019-09-15T16:11:37.000Z</time>
      </trkpt>
      <trkpt lat="45.79992" lon="4.83611">
        <ele>172.21</ele>
        <time>2019-09-15T16:11:42.000Z</time>
      </trkpt>
      <trkpt lat="45.79973" lon="4.83565">
        <ele>172.46</ele>
        <time>2019-09-15T16:11:47.000Z</time>
      </trkpt>
      <trkpt lat="45.79958" lon="4.83521">
        <ele>171.27</ele>
        <time>2019-09-15T16:11:52.000Z</time>
      </trkpt>
      <trkpt lat="45.79945" lon="4.83475">
        <ele>170.22</ele>
        <time>2019-09-15T16:11:57.000Z</time>
      </trkpt>
      <trkpt lat="45.79931" lon="4.83429">
        <ele>171.95</ele>
        <time>2019-09-15T16:12:02.000Z</time>
      </trkpt>
      <trkpt lat="45.7992" lon="4.83383">
        <ele>170.46</ele>
        <time>2019-09-15T16:12:07.000Z</time>
      </trkpt>
      <trkpt lat="45.79904" lon="4.83338">
        <ele>172.16</ele>
        <time>2019-09-15T16:12:12.000Z</time>
      </trkpt>
      <trkpt lat="45.7989" lon="4.8329">
        <ele>170.48</ele>
        <time>2019-09-15T16:12:17.000Z</time>
      </trkpt>
      <trkpt lat="45.79877" lon="4.83244">
        <ele>171.21</ele>
        <time>2019-09-15T16:12:22.000Z</time>
      </trkpt>
      <trkpt lat="45.7986" lon="4.83197">
        <ele>171.19</ele>
        <time>2019-09-15T16:12:27.000Z</time>
      </trkpt>
      <trkpt lat="45.79843" lon="4.83155">
        <ele>173.19</ele>
        <time>2019-09-15T16:12:32.000Z</time>
      </trkpt>
      <trkpt lat="45.79825" lon="4.83115">
        <ele>173.16</ele>
        <time>2019-09-15T16:12:37.000Z</time>
      </trkpt>
      <trkpt lat="45.79809" lon="4.83072">
        <ele>174.2</ele>
        <time>2019-09-15T16:12:42.000Z</time>
      </trkpt>
      <trkpt lat="45.79803" lon="4.83035">
        <ele>174.27</ele>
        <time>2019-09-15T16:12:47.000Z</time>
      </trkpt>
      <trkpt lat="45.7979" lon="4.82996">
        <ele>172.27</ele>
        <time>2019-09-15T16:12:52.000Z</time>
      </trkpt>
      <trkpt lat="45.79765" lon="4.82963">
        <ele>170.41</ele>
        <time>2019-09-15T16:12:57.000Z</time>
      </trkpt>
      <trkpt lat="45.79744" lon="4.82921">
        <ele>170.33</ele>
        <time>2019-09-15T16:13:02.000Z</time>
      </trkpt>
      <trkpt lat="45.79725" lon="4.82879">
        <ele>171.2</ele>
        <time>2019-09-15T16:13:07.000Z</time>
      </trkpt>
      <trkpt lat="45.79702" lon="4.82838">
        <ele>171.2</ele>
        <time>2019-09-15T16:13:12.000Z</time>
      </trkpt>
      <trkpt lat="45.79678" lon="4.82798">
        <ele>170.45</ele>
        <time>2019-09-15T16:13:17.000Z</time>
      </trkpt>
      <trkpt lat="45.79659" lon="4.82758">
        <ele>168.21</ele>
        <time>2019-09-15T16:13:22.000Z</time>
      </trkpt>
      <trkpt lat="45.79638" lon="4.8272">
        <ele>168.95</ele>
        <time>2019-09-15T16:13:27.000Z</time>
      </trkpt>
      <trkpt lat="45.79617" lon="4.82682">
        <ele>169.2</ele>
        <time>2019-09-15T16:13:32.000Z</time>
      </trkpt>
      <trkpt lat="45.79597" lon="4.82641">
        <ele>168.9</ele>
        <time>2019-09-15T16:13:37.000Z</time>
      </trkpt>
      <trkpt lat="45.79575" lon="4.826">
        <ele>169.21</ele>
        <time>2019-09-15T16:13:42.000Z</time>
      </trkpt>
      <trkpt lat="45.79553" lon="4.82559">
        <ele>170.18</ele>
        <time>2019-09-15T16:13:47.000Z</time>
      </trkpt>
      <trkpt lat="45.79532" lon="4.82518">
        <ele>169.38</ele>
        <time>2019-09-15T16:13:52.000Z</time>
      </trkpt>
      <trkpt lat="45.79511" lon="4.82479">
        <ele>169.19</ele>
        <time>2019-09-15T16:13:57.000Z</time>
      </trkpt>
      <trkpt lat="45.79491" lon="4.8244">
        <ele>169.95</ele>
        <time>2019-09-15T16:14:02.000Z</time>
      </trkpt>
      <trkpt lat="45.79472" lon="4.824">
        <ele>169.44</ele>
        <time>2019-09-15T16:14:07.000Z</time>
      </trkpt>
      <trkpt lat="45.79452" lon="4.82361">
        <ele>168.39</ele>
        <time>2019-09-15T16:14:12.000Z</time>
      </trkpt>
      <trkpt lat="45.79431" lon="4.82323">
        <ele>166.44</ele>
        <time>2019-09-15T16:14:17.000Z</time>
      </trkpt>
      <trkpt lat="45.7941" lon="4.82287">
        <ele>168.87</ele>
        <time>2019-09-15T16:14:22.000Z</time>
      </trkpt>
      <trkpt lat="45.79389" lon="4.82247">
        <ele>168.37</ele>
        <time>2019-09-15T16:14:27.000Z</time>
      </trkpt>
      <trkpt lat="45.7937" lon="4.82213">
        <ele>168.14</ele>
        <time>2019-09-15T16:14:32.000Z</time>
      </trkpt>
      <trkpt lat="45.79346" lon="4.82181">
        <ele>168.43</ele>
        <time>2019-09-15T16:14:37.000Z</time>
      </trkpt>
      <trkpt lat="45.79322" lon="4.82147">
        <ele>168.18</ele>
        <time>2019-09-15T16:14:42.000Z</time>
      </trkpt>
      <trkpt lat="45.79302" lon="4.82124">
        <ele>169.37</ele>
        <time>2019-09-15T16:14:47.000Z</time>
      </trkpt>
      <trkpt lat="45.79294" lon="4.82114">
        <ele>171.18</ele>
        <time>2019-09-15T16:14:54.000Z</time>
      </trkpt>
      <trkpt lat="45.79279" lon="4.82097">
        <ele>170.17</ele>
        <time>2019-09-15T16:14:59.000Z</time>
      </trkpt>
      <trkpt lat="45.79263" lon="4.82074">
        <ele>170.93</ele>
        <time>2019-09-15T16:15:04.000Z</time>
      </trkpt>
      <trkpt lat="45.79243" lon="4.82049">
        <ele>168.44</ele>
        <time>2019-09-15T16:15:09.000Z</time>
      </trkpt>
      <trkpt lat="45.79224" lon="4.82025">
        <ele>168.17</ele>
        <time>2019-09-15T16:15:14.000Z</time>
      </trkpt>
      <trkpt lat="45.79205" lon="4.82003">
        <ele>168.16</ele>
        <time>2019-09-15T16:15:19.000Z</time>
      </trkpt>
      <trkpt lat="45.79185" lon="4.81979">
        <ele>167.94</ele>
        <time>2019-09-15T16:15:24.000Z</time>
      </trkpt>
      <trkpt lat="45.79162" lon="4.8195">
        <ele>169.92</ele>
        <time>2019-09-15T16:15:29.000Z</time>
      </trkpt>
      <trkpt lat="45.79136" lon="4.81918">
        <ele>171.3</ele>
        <time>2019-09-15T16:15:34.000Z</time>
      </trkpt>
      <trkpt lat="45.79115" lon="4.81885">
        <ele>171.98</ele>
        <time>2019-09-15T16:15:39.000Z</time>
      </trkpt>
      <trkpt lat="45.79088" lon="4.81851">
        <ele>172.17</ele>
        <time>2019-09-15T16:15:44.000Z</time>
      </trkpt>
      <trkpt lat="45.79063" lon="4.81817">
        <ele>174.1</ele>
        <time>2019-09-15T16:15:49.000Z</time>
      </trkpt>
      <trkpt lat="45.79036" lon="4.81779">
        <ele>172.17</ele>
        <time>2019-09-15T16:15:54.000Z</time>
      </trkpt>
      <trkpt lat="45.79011" lon="4.81742">
        <ele>170.25</ele>
        <time>2019-09-15T16:15:59.000Z</time>
      </trkpt>
      <trkpt lat="45.78985" lon="4.81707">
        <ele>169.23</ele>
        <time>2019-09-15T16:16:04.000Z</time>
      </trkpt>
      <trkpt lat="45.7896" lon="4.81672">
        <ele>169.17</ele>
        <time>2019-09-15T16:16:09.000Z</time>
      </trkpt>
      <trkpt lat="45.78935" lon="4.81638">
        <ele>169.17</ele>
        <time>2019-09-15T16:16:14.000Z</time>
      </trkpt>
      <trkpt lat="45.78911" lon="4.81605">
        <ele>170.91</ele>
        <time>2019-09-15T16:16:19.000Z</time>
      </trkpt>
      <trkpt lat="45.78887" lon="4.81574">
        <ele>171.16</ele>
        <time>2019-09-15T16:16:24.000Z</time>
      </trkpt>
      <trkpt lat="45.78861" lon="4.81545">
        <ele>170.93</ele>
        <time>2019-09-15T16:16:29.000Z</time>
      </trkpt>
      <trkpt lat="45.78836" lon="4.81518">
        <ele>170.16</ele>
        <time>2019-09-15T16:16:34.000Z</time>
      </trkpt>
      <trkpt lat="45.78811" lon="4.81491">
        <ele>168.42</ele>
        <time>2019-09-15T16:16:39.000Z</time>
      </trkpt>
      <trkpt lat="45.78784" lon="4.81463">
        <ele>166.41</ele>
        <time>2019-09-15T16:16:44.000Z</time>
      </trkpt>
      <trkpt lat="45.78756" lon="4.81442">
        <ele>167.91</ele>
        <time>2019-09-15T16:16:49.000Z</time>
      </trkpt>
      <trkpt lat="45.78729" lon="4.81423">
        <ele>167.41</ele>
        <time>2019-09-15T16:16:54.000Z</time>
      </trkpt>
      <trkpt lat="45.78701" lon="4.81406">
        <ele>167.18</ele>
        <time>2019-09-15T16:16:59.000Z</time>
      </trkpt>
      <trkpt lat="45.78674" lon="4.81389">
        <ele>167.16</ele>
        <time>2019-09-15T16:17:04.000Z</time>
      </trkpt>
      <trkpt lat="45.78646" lon="4.81371">
        <ele>168.14</ele>
        <time>2019-09-15T16:17:09.000Z</time>
      </trkpt>
      <trkpt lat="45.78617" lon="4.81354">
        <ele>169.16</ele>
        <time>2019-09-15T16:17:14.000Z</time>
      </trkpt>
      <trkpt lat="45.78588" lon="4.81338">
        <ele>169.16</ele>
        <time>2019-09-15T16:17:19.000Z</time>
      </trkpt>
      <trkpt lat="45.78558" lon="4.81317">
        <ele>166.16</ele>
        <time>2019-09-15T16:17:24.000Z</time>
      </trkpt>
      <trkpt lat="45.78531" lon="4.81296">
        <ele>166.15</ele>
        <time>2019-09-15T16:17:29.000Z</time>
      </trkpt>
      <trkpt lat="45.78502" lon="4.81279">
        <ele>168.84</ele>
        <time>2019-09-15T16:17:34.000Z</time>
      </trkpt>
      <trkpt lat="45.78477" lon="4.81258">
        <ele>168.15</ele>
        <time>2019-09-15T16:17:39.000Z</time>
      </trkpt>
      <trkpt lat="45.7845" lon="4.81238">
        <ele>167.17</ele>
        <time>2019-09-15T16:17:44.000Z</time>
      </trkpt>
      <trkpt lat="45.78423" lon="4.81215">
        <ele>169.09</ele>
        <time>2019-09-15T16:17:49.000Z</time>
      </trkpt>
      <trkpt lat="45.78395" lon="4.81193">
        <ele>170.09</ele>
        <time>2019-09-15T16:17:54.000Z</time>
      </trkpt>
      <trkpt lat="45.78368" lon="4.81168">
        <ele>169.96</ele>
        <time>2019-09-15T16:17:59.000Z</time>
      </trkpt>
      <trkpt lat="45.78344" lon="4.81144">
        <ele>170.13</ele>
        <time>2019-09-15T16:18:04.000Z</time>
      </trkpt>
      <trkpt lat="45.78319" lon="4.81117">
        <ele>164.6</ele>
        <time>2019-09-15T16:18:09.000Z</time>
      </trkpt>
      <trkpt lat="45.78291" lon="4.81098">
        <ele>162.16</ele>
        <time>2019-09-15T16:18:14.000Z</time>
      </trkpt>
      <trkpt lat="45.78276" lon="4.81083">
        <ele>161.16</ele>
        <time>2019-09-15T16:18:19.000Z</time>
      </trkpt>
      <trkpt lat="45.78263" lon="4.81084">
        <ele>165.82</ele>
        <time>2019-09-15T16:18:24.000Z</time>
      </trkpt>
      <trkpt lat="45.78248" lon="4.81072">
        <ele>169.12</ele>
        <time>2019-09-15T16:18:29.000Z</time>
      </trkpt>
      <trkpt lat="45.78227" lon="4.81057">
        <ele>169.89</ele>
        <time>2019-09-15T16:18:34.000Z</time>
      </trkpt>
      <trkpt lat="45.78204" lon="4.81039">
        <ele>170.39</ele>
        <time>2019-09-15T16:18:39.000Z</time>
      </trkpt>
      <trkpt lat="45.78179" lon="4.81022">
        <ele>171.14</ele>
        <time>2019-09-15T16:18:44.000Z</time>
      </trkpt>
      <trkpt lat="45.78156" lon="4.81002">
        <ele>170.9</ele>
        <time>2019-09-15T16:18:49.000Z</time>
      </trkpt>
      <trkpt lat="45.78131" lon="4.80982">
        <ele>171.94</ele>
        <time>2019-09-15T16:18:54.000Z</time>
      </trkpt>
      <trkpt lat="45.78107" lon="4.80964">
        <ele>171.15</ele>
        <time>2019-09-15T16:18:59.000Z</time>
      </trkpt>
      <trkpt lat="45.78086" lon="4.80947">
        <ele>171.15</ele>
        <time>2019-09-15T16:19:04.000Z</time>
      </trkpt>
      <trkpt lat="45.7807" lon="4.80934">
        <ele>173.08</ele>
        <time>2019-09-15T16:19:09.000Z</time>
      </trkpt>
      <trkpt lat="45.78061" lon="4.80926">
        <ele>173.14</ele>
        <time>2019-09-15T16:19:14.000Z</time>
      </trkpt>
      <trkpt lat="45.78051" lon="4.80919">
        <ele>171.14</ele>
        <time>2019-09-15T16:19:43.000Z</time>
      </trkpt>
      <trkpt lat="45.78035" lon="4.80909">
        <ele>172.14</ele>
        <time>2019-09-15T16:19:48.000Z</time>
      </trkpt>
      <trkpt lat="45.78011" lon="4.80896">
        <ele>172.14</ele>
        <time>2019-09-15T16:19:53.000Z</time>
      </trkpt>
      <trkpt lat="45.77986" lon="4.80879">
        <ele>173.12</ele>
        <time>2019-09-15T16:19:58.000Z</time>
      </trkpt>
      <trkpt lat="45.77959" lon="4.80861">
        <ele>172.4</ele>
        <time>2019-09-15T16:20:03.000Z</time>
      </trkpt>
      <trkpt lat="45.7793" lon="4.80841">
        <ele>168.47</ele>
        <time>2019-09-15T16:20:08.000Z</time>
      </trkpt>
      <trkpt lat="45.77901" lon="4.80819">
        <ele>170.32</ele>
        <time>2019-09-15T16:20:13.000Z</time>
      </trkpt>
      <trkpt lat="45.77875" lon="4.80802">
        <ele>171.07</ele>
        <time>2019-09-15T16:20:18.000Z</time>
      </trkpt>
      <trkpt lat="45.77846" lon="4.80793">
        <ele>171.32</ele>
        <time>2019-09-15T16:20:23.000Z</time>
      </trkpt>
      <trkpt lat="45.77819" lon="4.80783">
        <ele>171.56</ele>
        <time>2019-09-15T16:20:28.000Z</time>
      </trkpt>
      <trkpt lat="45.77791" lon="4.80776">
        <ele>172.13</ele>
        <time>2019-09-15T16:20:33.000Z</time>
      </trkpt>
      <trkpt lat="45.77759" lon="4.80774">
        <ele>172.89</ele>
        <time>2019-09-15T16:20:38.000Z</time>
      </trkpt>
      <trkpt lat="45.7773" lon="4.80773">
        <ele>169.61</ele>
        <time>2019-09-15T16:20:43.000Z</time>
      </trkpt>
      <trkpt lat="45.77705" lon="4.80773">
        <ele>168.37</ele>
        <time>2019-09-15T16:20:48.000Z</time>
      </trkpt>
      <trkpt lat="45.77678" lon="4.80778">
        <ele>168.38</ele>
        <time>2019-09-15T16:20:53.000Z</time>
      </trkpt>
      <trkpt lat="45.77649" lon="4.80789">
        <ele>170.07</ele>
        <time>2019-09-15T16:20:58.000Z</time>
      </trkpt>
      <trkpt lat="45.77623" lon="4.80798">
        <ele>171.06</ele>
        <time>2019-09-15T16:21:03.000Z</time>
      </trkpt>
      <trkpt lat="45.77596" lon="4.8081">
        <ele>174.16</ele>
        <time>2019-09-15T16:21:08.000Z</time>
      </trkpt>
      <trkpt lat="45.77565" lon="4.8082">
        <ele>172.21</ele>
        <time>2019-09-15T16:21:13.000Z</time>
      </trkpt>
      <trkpt lat="45.77537" lon="4.80832">
        <ele>173.13</ele>
        <time>2019-09-15T16:21:18.000Z</time>
      </trkpt>
      <trkpt lat="45.77512" lon="4.80844">
        <ele>173.13</ele>
        <time>2019-09-15T16:21:23.000Z</time>
      </trkpt>
      <trkpt lat="45.77502" lon="4.80854">
        <ele>176.05</ele>
        <time>2019-09-15T16:21:28.000Z</time>
      </trkpt>
      <trkpt lat="45.77505" lon="4.80867">
        <ele>169.13</ele>
        <time>2019-09-15T16:22:35.000Z</time>
      </trkpt>
      <trkpt lat="45.77495" lon="4.80868">
        <ele>169.13</ele>
        <time>2019-09-15T16:22:40.000Z</time>
      </trkpt>
      <trkpt lat="45.77484" lon="4.8087">
        <ele>169.88</ele>
        <time>2019-09-15T16:22:45.000Z</time>
      </trkpt>
      <trkpt lat="45.77482" lon="4.80884">
        <ele>172.89</ele>
        <time>2019-09-15T16:23:23.000Z</time>
      </trkpt>
      <trkpt lat="45.77481" lon="4.80906">
        <ele>173.13</ele>
        <time>2019-09-15T16:23:28.000Z</time>
      </trkpt>
      <trkpt lat="45.77479" lon="4.80931">
        <ele>172.38</ele>
        <time>2019-09-15T16:23:33.000Z</time>
      </trkpt>
      <trkpt lat="45.77476" lon="4.80959">
        <ele>172.9</ele>
        <time>2019-09-15T16:23:38.000Z</time>
      </trkpt>
      <trkpt lat="45.77474" lon="4.80991">
        <ele>173.09</ele>
        <time>2019-09-15T16:23:43.000Z</time>
      </trkpt>
      <trkpt lat="45.7747" lon="4.81028">
        <ele>173.13</ele>
        <time>2019-09-15T16:23:48.000Z</time>
      </trkpt>
      <trkpt lat="45.77468" lon="4.81068">
        <ele>172.39</ele>
        <time>2019-09-15T16:23:53.000Z</time>
      </trkpt>
      <trkpt lat="45.77464" lon="4.81095">
        <ele>170.45</ele>
        <time>2019-09-15T16:23:58.000Z</time>
      </trkpt>
      <trkpt lat="45.77463" lon="4.81109">
        <ele>171.12</ele>
        <time>2019-09-15T16:24:03.000Z</time>
      </trkpt>
      <trkpt lat="45.77474" lon="4.81112">
        <ele>171.89</ele>
        <time>2019-09-15T16:24:08.000Z</time>
      </trkpt>
      <trkpt lat="45.77491" lon="4.81116">
        <ele>171.39</ele>
        <time>2019-09-15T16:24:13.000Z</time>
      </trkpt>
      <trkpt lat="45.77487" lon="4.81156">
        <ele>170.19</ele>
        <time>2019-09-15T16:24:18.000Z</time>
      </trkpt>
      <trkpt lat="45.77484" lon="4.81199">
        <ele>171.14</ele>
        <time>2019-09-15T16:24:23.000Z</time>
      </trkpt>
      <trkpt lat="45.77481" lon="4.81243">
        <ele>172.14</ele>
        <time>2019-09-15T16:24:28.000Z</time>
      </trkpt>
      <trkpt lat="45.77476" lon="4.81284">
        <ele>172.13</ele>
        <time>2019-09-15T16:24:33.000Z</time>
      </trkpt>
      <trkpt lat="45.77472" lon="4.81328">
        <ele>171.39</ele>
        <time>2019-09-15T16:24:38.000Z</time>
      </trkpt>
      <trkpt lat="45.77468" lon="4.81372">
        <ele>171.89</ele>
        <time>2019-09-15T16:24:43.000Z</time>
      </trkpt>
      <trkpt lat="45.77467" lon="4.81416">
        <ele>171.2</ele>
        <time>2019-09-15T16:24:48.000Z</time>
      </trkpt>
      <trkpt lat="45.77465" lon="4.81432">
        <ele>171.13</ele>
        <time>2019-09-15T16:24:53.000Z</time>
      </trkpt>
      <trkpt lat="45.77282" lon="4.83779">
        <ele>180.18</ele>
        <time>2019-09-15T16:29:01.000Z</time>
      </trkpt>
      <trkpt lat="45.77277" lon="4.83809">
        <ele>179.44</ele>
        <time>2019-09-15T16:29:06.000Z</time>
      </trkpt>
      <trkpt lat="45.77275" lon="4.83833">
        <ele>179.94</ele>
        <time>2019-09-15T16:29:11.000Z</time>
      </trkpt>
      <trkpt lat="45.77277" lon="4.83848">
        <ele>178.13</ele>
        <time>2019-09-15T16:29:23.000Z</time>
      </trkpt>
      <trkpt lat="45.77271" lon="4.83859">
        <ele>178.21</ele>
        <time>2019-09-15T16:29:28.000Z</time>
      </trkpt>
      <trkpt lat="45.77258" lon="4.83871">
        <ele>178.44</ele>
        <time>2019-09-15T16:29:33.000Z</time>
      </trkpt>
      <trkpt lat="45.77257" lon="4.83907">
        <ele>179.18</ele>
        <time>2019-09-15T16:29:38.000Z</time>
      </trkpt>
      <trkpt lat="45.77254" lon="4.83946">
        <ele>179.2</ele>
        <time>2019-09-15T16:29:43.000Z</time>
      </trkpt>
      <trkpt lat="45.7725" lon="4.8399">
        <ele>178.26</ele>
        <time>2019-09-15T16:29:48.000Z</time>
      </trkpt>
      <trkpt lat="45.77246" lon="4.84036">
        <ele>177.45</ele>
        <time>2019-09-15T16:29:53.000Z</time>
      </trkpt>
      <trkpt lat="45.77242" lon="4.84082">
        <ele>176.26</ele>
        <time>2019-09-15T16:29:58.000Z</time>
      </trkpt>
      <trkpt lat="45.77252" lon="4.84111">
        <ele>175.2</ele>
        <time>2019-09-15T16:30:03.000Z</time>
      </trkpt>
      <trkpt lat="45.77278" lon="4.84116">
        <ele>176.2</ele>
        <time>2019-09-15T16:30:08.000Z</time>
      </trkpt>
      <trkpt lat="45.77302" lon="4.84126">
        <ele>176.01</ele>
        <time>2019-09-15T16:30:13.000Z</time>
      </trkpt>
      <trkpt lat="45.77319" lon="4.84133">
        <ele>175.2</ele>
        <time>2019-09-15T16:30:18.000Z</time>
      </trkpt>
      <trkpt lat="45.7731" lon="4.84123">
        <ele>176.2</ele>
        <time>2019-09-15T16:30:23.000Z</time>
      </trkpt>
      <trkpt lat="45.77286" lon="4.8411">
        <ele>175.2</ele>
        <time>2019-09-15T16:30:28.000Z</time>
      </trkpt>
      <trkpt lat="45.77256" lon="4.84097">
        <ele>174.39</ele>
        <time>2019-09-15T16:30:33.000Z</time>
      </trkpt>
      <trkpt lat="45.77226" lon="4.84094">
        <ele>174.2</ele>
        <time>2019-09-15T16:30:38.000Z</time>
      </trkpt>
      <trkpt lat="45.77192" lon="4.8409">
        <ele>172.28</ele>
        <time>2019-09-15T16:30:43.000Z</time>
      </trkpt>
      <trkpt lat="45.77162" lon="4.84096">
        <ele>174.19</ele>
        <time>2019-09-15T16:30:48.000Z</time>
      </trkpt>
      <trkpt lat="45.77136" lon="4.84104">
        <ele>174.26</ele>
        <time>2019-09-15T16:30:53.000Z</time>
      </trkpt>
      <trkpt lat="45.77128" lon="4.84097">
        <ele>179.93</ele>
        <time>2019-09-15T16:31:40.000Z</time>
      </trkpt>
      <trkpt lat="45.77108" lon="4.84099">
        <ele>179.45</ele>
        <time>2019-09-15T16:31:45.000Z</time>
      </trkpt>
      <trkpt lat="45.7708" lon="4.84096">
        <ele>180.13</ele>
        <time>2019-09-15T16:31:50.000Z</time>
      </trkpt>
      <trkpt lat="45.77048" lon="4.84097">
        <ele>180.2</ele>
        <time>2019-09-15T16:31:55.000Z</time>
      </trkpt>
      <trkpt lat="45.77017" lon="4.84095">
        <ele>181.19</ele>
        <time>2019-09-15T16:32:00.000Z</time>
      </trkpt>
      <trkpt lat="45.76984" lon="4.84093">
        <ele>181.43</ele>
        <time>2019-09-15T16:32:05.000Z</time>
      </trkpt>
      <trkpt lat="45.76954" lon="4.84092">
        <ele>181.2</ele>
        <time>2019-09-15T16:32:10.000Z</time>
      </trkpt>
      <trkpt lat="45.76921" lon="4.84099">
        <ele>183.07</ele>
        <time>2019-09-15T16:32:15.000Z</time>
      </trkpt>
      <trkpt lat="45.76897" lon="4.84098">
        <ele>179.58</ele>
        <time>2019-09-15T16:32:20.000Z</time>
      </trkpt>
      <trkpt lat="45.76875" lon="4.84103">
        <ele>180.19</ele>
        <time>2019-09-15T16:32:25.000Z</time>
      </trkpt>
      <trkpt lat="45.76853" lon="4.84107">
        <ele>181.33</ele>
        <time>2019-09-15T16:32:30.000Z</time>
      </trkpt>
      <trkpt lat="45.76824" lon="4.84111">
        <ele>181.01</ele>
        <time>2019-09-15T16:32:35.000Z</time>
      </trkpt>
      <trkpt lat="45.76789" lon="4.84117">
        <ele>178.31</ele>
        <time>2019-09-15T16:32:40.000Z</time>
      </trkpt>
      <trkpt lat="45.76751" lon="4.84125">
        <ele>175.26</ele>
        <time>2019-09-15T16:32:45.000Z</time>
      </trkpt>
      <trkpt lat="45.76714" lon="4.8413">
        <ele>175.19</ele>
        <time>2019-09-15T16:32:50.000Z</time>
      </trkpt>
      <trkpt lat="45.76678" lon="4.84132">
        <ele>175.25</ele>
        <time>2019-09-15T16:32:55.000Z</time>
      </trkpt>
      <trkpt lat="45.76642" lon="4.84137">
        <ele>177.18</ele>
        <time>2019-09-15T16:33:00.000Z</time>
      </trkpt>
      <trkpt lat="45.7661" lon="4.84142">
        <ele>176.22</ele>
        <time>2019-09-15T16:33:05.000Z</time>
      </trkpt>
      <trkpt lat="45.76578" lon="4.84148">
        <ele>175.96</ele>
        <time>2019-09-15T16:33:10.000Z</time>
      </trkpt>
      <trkpt lat="45.76545" lon="4.84149">
        <ele>176.96</ele>
        <time>2019-09-15T16:33:15.000Z</time>
      </trkpt>
      <trkpt lat="45.76511" lon="4.8415">
        <ele>180.49</ele>
        <time>2019-09-15T16:33:20.000Z</time>
      </trkpt>
      <trkpt lat="45.76478" lon="4.84148">
        <ele>182.12</ele>
        <time>2019-09-15T16:33:25.000Z</time>
      </trkpt>
      <trkpt lat="45.76446" lon="4.84146">
        <ele>182.96</ele>
        <time>2019-09-15T16:33:30.000Z</time>
      </trkpt>
      <trkpt lat="45.76415" lon="4.84144">
        <ele>179.49</ele>
        <time>2019-09-15T16:33:35.000Z</time>
      </trkpt>
      <trkpt lat="45.76386" lon="4.84143">
        <ele>178.44</ele>
        <time>2019-09-15T16:33:40.000Z</time>
      </trkpt>
      <trkpt lat="45.76368" lon="4.84135">
        <ele>178.94</ele>
        <time>2019-09-15T16:33:45.000Z</time>
      </trkpt>
      <trkpt lat="45.76359" lon="4.84132">
        <ele>181.13</ele>
        <time>2019-09-15T16:33:53.000Z</time>
      </trkpt>
      <trkpt lat="45.76348" lon="4.84132">
        <ele>180.21</ele>
        <time>2019-09-15T16:33:59.000Z</time>
      </trkpt>
      <trkpt lat="45.76336" lon="4.84136">
        <ele>178.19</ele>
        <time>2019-09-15T16:34:04.000Z</time>
      </trkpt>
      <trkpt lat="45.76318" lon="4.84131">
        <ele>176.27</ele>
        <time>2019-09-15T16:34:09.000Z</time>
      </trkpt>
      <trkpt lat="45.76289" lon="4.84129">
        <ele>176.19</ele>
        <time>2019-09-15T16:34:14.000Z</time>
      </trkpt>
      <trkpt lat="45.76255" lon="4.84124">
        <ele>173.25</ele>
        <time>2019-09-15T16:34:19.000Z</time>
      </trkpt>
      <trkpt lat="45.76231" lon="4.84121">
        <ele>173.19</ele>
        <time>2019-09-15T16:34:24.000Z</time>
      </trkpt>
      <trkpt lat="45.76198" lon="4.84118">
        <ele>172.19</ele>
        <time>2019-09-15T16:34:29.000Z</time>
      </trkpt>
      <trkpt lat="45.76163" lon="4.84117">
        <ele>173.17</ele>
        <time>2019-09-15T16:34:34.000Z</time>
      </trkpt>
      <trkpt lat="45.7613" lon="4.84111">
        <ele>173.23</ele>
        <time>2019-09-15T16:34:39.000Z</time>
      </trkpt>
      <trkpt lat="45.761" lon="4.84105">
        <ele>175.92</ele>
        <time>2019-09-15T16:34:44.000Z</time>
      </trkpt>
      <trkpt lat="45.76078" lon="4.84103">
        <ele>176.18</ele>
        <time>2019-09-15T16:34:49.000Z</time>
      </trkpt>
      <trkpt lat="45.76058" lon="4.84101">
        <ele>175.39</ele>
        <time>2019-09-15T16:34:54.000Z</time>
      </trkpt>
      <trkpt lat="45.76036" lon="4.841">
        <ele>173.21</ele>
        <time>2019-09-15T16:34:59.000Z</time>
      </trkpt>
      <trkpt lat="45.76017" lon="4.841">
        <ele>173.19</ele>
        <time>2019-09-15T16:35:04.000Z</time>
      </trkpt>
      <trkpt lat="45.76004" lon="4.841">
        <ele>174.12</ele>
        <time>2019-09-15T16:35:09.000Z</time>
      </trkpt>
      <trkpt lat="45.75993" lon="4.84098">
        <ele>179.19</ele>
        <time>2019-09-15T16:35:39.000Z</time>
      </trkpt>
      <trkpt lat="45.75981" lon="4.84096">
        <ele>178.24</ele>
        <time>2019-09-15T16:35:44.000Z</time>
      </trkpt>
      <trkpt lat="45.75969" lon="4.84095">
        <ele>176.44</ele>
        <time>2019-09-15T16:35:49.000Z</time>
      </trkpt>
      <trkpt lat="45.7594" lon="4.84093">
        <ele>175.2</ele>
        <time>2019-09-15T16:35:54.000Z</time>
      </trkpt>
      <trkpt lat="45.75908" lon="4.84089">
        <ele>172.2</ele>
        <time>2019-09-15T16:35:59.000Z</time>
      </trkpt>
      <trkpt lat="45.75877" lon="4.84082">
        <ele>171.23</ele>
        <time>2019-09-15T16:36:04.000Z</time>
      </trkpt>
      <trkpt lat="45.75847" lon="4.84079">
        <ele>172.11</ele>
        <time>2019-09-15T16:36:09.000Z</time>
      </trkpt>
      <trkpt lat="45.75816" lon="4.84078">
        <ele>174.87</ele>
        <time>2019-09-15T16:36:14.000Z</time>
      </trkpt>
      <trkpt lat="45.75786" lon="4.84075">
        <ele>174.67</ele>
        <time>2019-09-15T16:36:19.000Z</time>
      </trkpt>
      <trkpt lat="45.75758" lon="4.84072">
        <ele>176.12</ele>
        <time>2019-09-15T16:36:24.000Z</time>
      </trkpt>
      <trkpt lat="45.75729" lon="4.8407">
        <ele>178.11</ele>
        <time>2019-09-15T16:36:29.000Z</time>
      </trkpt>
      <trkpt lat="45.7571" lon="4.84055">
        <ele>177.43</ele>
        <time>2019-09-15T16:36:34.000Z</time>
      </trkpt>
      <trkpt lat="45.75684" lon="4.84049">
        <ele>177.93</ele>
        <time>2019-09-15T16:36:39.000Z</time>
      </trkpt>
      <trkpt lat="45.75658" lon="4.84041">
        <ele>179.18</ele>
        <time>2019-09-15T16:36:44.000Z</time>
      </trkpt>
      <trkpt lat="45.7564" lon="4.84032">
        <ele>179.18</ele>
        <time>2019-09-15T16:36:49.000Z</time>
      </trkpt>
      <trkpt lat="45.75632" lon="4.84023">
        <ele>182.44</ele>
        <time>2019-09-15T16:37:08.000Z</time>
      </trkpt>
      <trkpt lat="45.75619" lon="4.8402">
        <ele>182.19</ele>
        <time>2019-09-15T16:37:13.000Z</time>
      </trkpt>
      <trkpt lat="45.75614" lon="4.84034">
        <ele>178.48</ele>
        <time>2019-09-15T16:37:44.000Z</time>
      </trkpt>
      <trkpt lat="45.75601" lon="4.8407">
        <ele>177.23</ele>
        <time>2019-09-15T16:37:49.000Z</time>
      </trkpt>
      <trkpt lat="45.75588" lon="4.84108">
        <ele>176.2</ele>
        <time>2019-09-15T16:37:54.000Z</time>
      </trkpt>
      <trkpt lat="45.75572" lon="4.84147">
        <ele>174.44</ele>
        <time>2019-09-15T16:37:59.000Z</time>
      </trkpt>
      <trkpt lat="45.7556" lon="4.84189">
        <ele>172.49</ele>
        <time>2019-09-15T16:38:04.000Z</time>
      </trkpt>
      <trkpt lat="45.75548" lon="4.84222">
        <ele>172.23</ele>
        <time>2019-09-15T16:38:09.000Z</time>
      </trkpt>
      <trkpt lat="45.75542" lon="4.84244">
        <ele>171.43</ele>
        <time>2019-09-15T16:38:14.000Z</time>
      </trkpt>
      <trkpt lat="45.75536" lon="4.84253">
        <ele>172.18</ele>
        <time>2019-09-15T16:38:28.000Z</time>
      </trkpt>
      <trkpt lat="45.75529" lon="4.84271">
        <ele>178.2</ele>
        <time>2019-09-15T16:38:50.000Z</time>
      </trkpt>
      <trkpt lat="45.7552" lon="4.84306">
        <ele>176.25</ele>
        <time>2019-09-15T16:38:55.000Z</time>
      </trkpt>
      <trkpt lat="45.75512" lon="4.84342">
        <ele>174.25</ele>
        <time>2019-09-15T16:39:00.000Z</time>
      </trkpt>
      <trkpt lat="45.755" lon="4.84379">
        <ele>173.01</ele>
        <time>2019-09-15T16:39:05.000Z</time>
      </trkpt>
      <trkpt lat="45.75494" lon="4.84416">
        <ele>174.87</ele>
        <time>2019-09-15T16:39:10.000Z</time>
      </trkpt>
      <trkpt lat="45.7549" lon="4.8446">
        <ele>175.19</ele>
        <time>2019-09-15T16:39:15.000Z</time>
      </trkpt>
      <trkpt lat="45.75476" lon="4.84493">
        <ele>175.18</ele>
        <time>2019-09-15T16:39:20.000Z</time>
      </trkpt>
      <trkpt lat="45.75471" lon="4.84505">
        <ele>172.22</ele>
        <time>2019-09-15T16:39:35.000Z</time>
      </trkpt>
      <trkpt lat="45.75456" lon="4.84535">
        <ele>175.11</ele>
        <time>2019-09-15T16:39:40.000Z</time>
      </trkpt>
      <trkpt lat="45.75434" lon="4.8457">
        <ele>175.13</ele>
        <time>2019-09-15T16:39:45.000Z</time>
      </trkpt>
      <trkpt lat="45.75433" lon="4.84614">
        <ele>174.13</ele>
        <time>2019-09-15T16:39:50.000Z</time>
      </trkpt>
      <trkpt lat="45.75414" lon="4.84644">
        <ele>177.16</ele>
        <time>2019-09-15T16:39:55.000Z</time>
      </trkpt>
      <trkpt lat="45.75404" lon="4.84672">
        <ele>175.27</ele>
        <time>2019-09-15T16:40:00.000Z</time>
      </trkpt>
      <trkpt lat="45.75395" lon="4.84692">
        <ele>174.24</ele>
        <time>2019-09-15T16:40:05.000Z</time>
      </trkpt>
      <trkpt lat="45.75382" lon="4.84724">
        <ele>171.21</ele>
        <time>2019-09-15T16:40:10.000Z</time>
      </trkpt>
      <trkpt lat="45.75367" lon="4.8476">
        <ele>172.88</ele>
        <time>2019-09-15T16:40:15.000Z</time>
      </trkpt>
      <trkpt lat="45.75357" lon="4.84779">
        <ele>174.93</ele>
        <time>2019-09-15T16:40:20.000Z</time>
      </trkpt>
      <trkpt lat="45.75353" lon="4.84795">
        <ele>175.93</ele>
        <time>2019-09-15T16:40:25.000Z</time>
      </trkpt>
      <trkpt lat="45.75342" lon="4.84826">
        <ele>170.6</ele>
        <time>2019-09-15T16:40:30.000Z</time>
      </trkpt>
      <trkpt lat="45.75333" lon="4.84861">
        <ele>169.27</ele>
        <time>2019-09-15T16:40:35.000Z</time>
      </trkpt>
      <trkpt lat="45.7532" lon="4.84882">
        <ele>169.96</ele>
        <time>2019-09-15T16:40:40.000Z</time>
      </trkpt>
      <trkpt lat="45.75314" lon="4.84894">
        <ele>172.25</ele>
        <time>2019-09-15T16:40:53.000Z</time>
      </trkpt>
      <trkpt lat="45.75308" lon="4.84918">
        <ele>171.2</ele>
        <time>2019-09-15T16:40:58.000Z</time>
      </trkpt>
      <trkpt lat="45.75298" lon="4.84949">
        <ele>171.2</ele>
        <time>2019-09-15T16:41:03.000Z</time>
      </trkpt>
      <trkpt lat="45.75288" lon="4.84985">
        <ele>169.21</ele>
        <time>2019-09-15T16:41:08.000Z</time>
      </trkpt>
      <trkpt lat="45.75277" lon="4.85019">
        <ele>170.69</ele>
        <time>2019-09-15T16:41:13.000Z</time>
      </trkpt>
      <trkpt lat="45.75265" lon="4.85026">
        <ele>172.13</ele>
        <time>2019-09-15T16:41:18.000Z</time>
      </trkpt>
      <trkpt lat="45.75252" lon="4.85033">
        <ele>172.21</ele>
        <time>2019-09-15T16:41:23.000Z</time>
      </trkpt>
      <trkpt lat="45.75258" lon="4.85067">
        <ele>169.95</ele>
        <time>2019-09-15T16:41:28.000Z</time>
      </trkpt>
      <trkpt lat="45.75255" lon="4.85098">
        <ele>167.96</ele>
        <time>2019-09-15T16:41:33.000Z</time>
      </trkpt>
      <trkpt lat="45.75262" lon="4.85127">
        <ele>169.91</ele>
        <time>2019-09-15T16:41:38.000Z</time>
      </trkpt>
      <trkpt lat="45.75255" lon="4.85165">
        <ele>164.12</ele>
        <time>2019-09-15T16:41:43.000Z</time>
      </trkpt>
      <trkpt lat="45.75245" lon="4.85199">
        <ele>165.72</ele>
        <time>2019-09-15T16:41:48.000Z</time>
      </trkpt>
      <trkpt lat="45.75224" lon="4.85221">
        <ele>164.21</ele>
        <time>2019-09-15T16:41:53.000Z</time>
      </trkpt>
      <trkpt lat="45.75205" lon="4.85247">
        <ele>165.99</ele>
        <time>2019-09-15T16:41:58.000Z</time>
      </trkpt>
      <trkpt lat="45.75187" lon="4.85284">
        <ele>169.12</ele>
        <time>2019-09-15T16:42:03.000Z</time>
      </trkpt>
      <trkpt lat="45.75173" lon="4.85321">
        <ele>170.2</ele>
        <time>2019-09-15T16:42:08.000Z</time>
      </trkpt>
      <trkpt lat="45.7516" lon="4.85359">
        <ele>172.2</ele>
        <time>2019-09-15T16:42:13.000Z</time>
      </trkpt>
      <trkpt lat="45.75148" lon="4.85395">
        <ele>173.2</ele>
        <time>2019-09-15T16:42:18.000Z</time>
      </trkpt>
      <trkpt lat="45.75136" lon="4.85433">
        <ele>170.46</ele>
        <time>2019-09-15T16:42:23.000Z</time>
      </trkpt>
      <trkpt lat="45.75119" lon="4.85465">
        <ele>169.21</ele>
        <time>2019-09-15T16:42:28.000Z</time>
      </trkpt>
      <trkpt lat="45.75118" lon="4.85507">
        <ele>166.53</ele>
        <time>2019-09-15T16:42:33.000Z</time>
      </trkpt>
      <trkpt lat="45.75106" lon="4.85521">
        <ele>166.46</ele>
        <time>2019-09-15T16:42:38.000Z</time>
      </trkpt>
      <trkpt lat="45.75094" lon="4.85518">
        <ele>167.89</ele>
        <time>2019-09-15T16:42:43.000Z</time>
      </trkpt>
      <trkpt lat="45.75068" lon="4.85513">
        <ele>167.41</ele>
        <time>2019-09-15T16:42:48.000Z</time>
      </trkpt>
      <trkpt lat="45.75043" lon="4.855">
        <ele>166.02</ele>
        <time>2019-09-15T16:42:53.000Z</time>
      </trkpt>
      <trkpt lat="45.75012" lon="4.85495">
        <ele>166.96</ele>
        <time>2019-09-15T16:42:58.000Z</time>
      </trkpt>
      <trkpt lat="45.74982" lon="4.85492">
        <ele>167.19</ele>
        <time>2019-09-15T16:43:03.000Z</time>
      </trkpt>
      <trkpt lat="45.74956" lon="4.85483">
        <ele>166.45</ele>
        <time>2019-09-15T16:43:08.000Z</time>
      </trkpt>
      <trkpt lat="45.7493" lon="4.8548">
        <ele>167.14</ele>
        <time>2019-09-15T16:43:13.000Z</time>
      </trkpt>
      <trkpt lat="45.7491" lon="4.85473">
        <ele>164.21</ele>
        <time>2019-09-15T16:43:18.000Z</time>
      </trkpt>
      <trkpt lat="45.7489" lon="4.85469">
        <ele>164.2</ele>
        <time>2019-09-15T16:43:23.000Z</time>
      </trkpt>
      <trkpt lat="45.74872" lon="4.85463">
        <ele>164.4</ele>
        <time>2019-09-15T16:43:28.000Z</time>
      </trkpt>
      <trkpt lat="45.74861" lon="4.8547">
        <ele>170.95</ele>
        <time>2019-09-15T16:44:25.000Z</time>
      </trkpt>
      <trkpt lat="45.7485" lon="4.85468">
        <ele>172.14</ele>
        <time>2019-09-15T16:44:30.000Z</time>
      </trkpt>
      <trkpt lat="45.74833" lon="4.85472">
        <ele>171.21</ele>
        <time>2019-09-15T16:44:35.000Z</time>
      </trkpt>
      <trkpt lat="45.74836" lon="4.85502">
        <ele>169.46</ele>
        <time>2019-09-15T16:44:40.000Z</time>
      </trkpt>
      <trkpt lat="45.74829" lon="4.85535">
        <ele>168.2</ele>
        <time>2019-09-15T16:44:45.000Z</time>
      </trkpt>
      <trkpt lat="45.74822" lon="4.85567">
        <ele>167.21</ele>
        <time>2019-09-15T16:44:50.000Z</time>
      </trkpt>
      <trkpt lat="45.74809" lon="4.856">
        <ele>169.65</ele>
        <time>2019-09-15T16:44:55.000Z</time>
      </trkpt>
      <trkpt lat="45.74794" lon="4.8563">
        <ele>172.08</ele>
        <time>2019-09-15T16:45:00.000Z</time>
      </trkpt>
      <trkpt lat="45.74785" lon="4.85667">
        <ele>171.22</ele>
        <time>2019-09-15T16:45:05.000Z</time>
      </trkpt>
      <trkpt lat="45.74776" lon="4.85708">
        <ele>169.27</ele>
        <time>2019-09-15T16:45:10.000Z</time>
      </trkpt>
      <trkpt lat="45.74767" lon="4.85747">
        <ele>170.15</ele>
        <time>2019-09-15T16:45:15.000Z</time>
      </trkpt>
      <trkpt lat="45.74749" lon="4.85787">
        <ele>170.21</ele>
        <time>2019-09-15T16:45:20.000Z</time>
      </trkpt>
      <trkpt lat="45.74741" lon="4.85827">
        <ele>169.46</ele>
        <time>2019-09-15T16:45:25.000Z</time>
      </trkpt>
      <trkpt lat="45.74736" lon="4.8586">
        <ele>172.38</ele>
        <time>2019-09-15T16:45:30.000Z</time>
      </trkpt>
      <trkpt lat="45.74722" lon="4.85903">
        <ele>174.94</ele>
        <time>2019-09-15T16:45:35.000Z</time>
      </trkpt>
      <trkpt lat="45.74713" lon="4.85938">
        <ele>176.21</ele>
        <time>2019-09-15T16:45:40.000Z</time>
      </trkpt>
      <trkpt lat="45.74698" lon="4.8596">
        <ele>175.97</ele>
        <time>2019-09-15T16:45:45.000Z</time>
      </trkpt>
      <trkpt lat="45.74674" lon="4.8595">
        <ele>175.46</ele>
        <time>2019-09-15T16:45:50.000Z</time>
      </trkpt>
      <trkpt lat="45.74649" lon="4.85942">
        <ele>173.52</ele>
        <time>2019-09-15T16:45:55.000Z</time>
      </trkpt>
      <trkpt lat="45.74622" lon="4.85936">
        <ele>173.21</ele>
        <time>2019-09-15T16:46:00.000Z</time>
      </trkpt>
      <trkpt lat="45.74593" lon="4.85926">
        <ele>173.21</ele>
        <time>2019-09-15T16:46:05.000Z</time>
      </trkpt>
      <trkpt lat="45.74563" lon="4.8592">
        <ele>174.39</ele>
        <time>2019-09-15T16:46:10.000Z</time>
      </trkpt>
      <trkpt lat="45.74532" lon="4.85913">
        <ele>175.44</ele>
        <time>2019-09-15T16:46:15.000Z</time>
      </trkpt>
      <trkpt lat="45.74501" lon="4.85905">
        <ele>173.71</ele>
        <time>2019-09-15T16:46:20.000Z</time>
      </trkpt>
      <trkpt lat="45.74471" lon="4.85896">
        <ele>174.2</ele>
        <time>2019-09-15T16:46:25.000Z</time>
      </trkpt>
      <trkpt lat="45.74445" lon="4.85892">
        <ele>175.94</ele>
        <time>2019-09-15T16:46:30.000Z</time>
      </trkpt>
      <trkpt lat="45.74426" lon="4.85907">
        <ele>175.22</ele>
        <time>2019-09-15T16:46:35.000Z</time>
      </trkpt>
      <trkpt lat="45.7441" lon="4.85918">
        <ele>175.27</ele>
        <time>2019-09-15T16:46:40.000Z</time>
      </trkpt>
      <trkpt lat="45.74408" lon="4.8593">
        <ele>175.2</ele>
        <time>2019-09-15T16:47:07.000Z</time>
      </trkpt>
      <trkpt lat="45.74406" lon="4.85914">
        <ele>181.21</ele>
        <time>2019-09-15T16:51:04.000Z</time>
      </trkpt>
      <trkpt lat="45.74399" lon="4.85898">
        <ele>171.53</ele>
        <time>2019-09-15T16:51:09.000Z</time>
      </trkpt>
      <trkpt lat="45.74407" lon="4.85909">
        <ele>170.21</ele>
        <time>2019-09-15T16:51:20.000Z</time>
      </trkpt>
      <trkpt lat="45.74398" lon="4.85904">
        <ele>168.22</ele>
        <time>2019-09-15T16:51:44.000Z</time>
      </trkpt>
      <trkpt lat="45.7439" lon="4.85896">
        <ele>173.14</ele>
        <time>2019-09-15T16:51:55.000Z</time>
      </trkpt>
      <trkpt lat="45.74404" lon="4.85918">
        <ele>176.94</ele>
        <time>2019-09-15T16:52:18.000Z</time>
      </trkpt>
      <trkpt lat="45.74401" lon="4.85906">
        <ele>165.54</ele>
        <time>2019-09-15T16:52:35.000Z</time>
      </trkpt>
      <trkpt lat="45.74395" lon="4.85893">
        <ele>165.16</ele>
        <time>2019-09-15T16:53:09.000Z</time>
      </trkpt>
      <trkpt lat="45.7439" lon="4.85879">
        <ele>163.44</ele>
        <time>2019-09-15T16:53:14.000Z</time>
      </trkpt>
      <trkpt lat="45.74396" lon="4.85889">
        <ele>158.66</ele>
        <time>2019-09-15T16:53:32.000Z</time>
      </trkpt>
      <trkpt lat="45.74398" lon="4.85902">
        <ele>162.52</ele>
        <time>2019-09-15T16:53:40.000Z</time>
      </trkpt>
      <trkpt lat="45.74394" lon="4.8589">
        <ele>162.21</ele>
        <time>2019-09-15T16:54:17.000Z</time>
      </trkpt>
      <trkpt lat="45.74396" lon="4.85893">
        <ele>161.21</ele>
        <time>2019-09-15T16:59:41.000Z</time>
      </trkpt>
    </trkseg>
  </trk>
</gpx>